<?xml version="1.0" encoding="UTF-8" standalone="no" ?>
<gpx xmlns="http://www.topografix.com/GPX/1/1" xmlns:xsi="http://www.w3.org/2001/XMLSchema-instance" xsi:schemaLocation="http://www.topografix.com/GPX/1/1 http://www.topografix.com/GPX/1/1/gpx.xsd" version="1.1" creator="VisuGPX - https://www.visugpx.com">
  <metadata>
    <name>Gr65 COMPOSTELLE - Etape 11</name>
    <desc><![CDATA[Etape de Figeac à Cajarc.
Nuit au gite communal.
Village du sketch de Coluche .... Le schmilblick ..]]></desc>
  </metadata>
  <trk>
    <name><![CDATA[2018-05-01 15:09:42]]></name>
    <trkseg>
      <trkpt lat="44.60828" lon="2.03868">
        <ele>174.14</ele>
        <time>2018-05-01T05:06:41Z</time>
      </trkpt>
      <trkpt lat="44.60829" lon="2.03867">
        <ele>173.66</ele>
        <time>2018-05-01T05:06:44Z</time>
      </trkpt>
      <trkpt lat="44.60828" lon="2.03869">
        <ele>173.66</ele>
        <time>2018-05-01T05:06:48Z</time>
      </trkpt>
      <trkpt lat="44.60835" lon="2.03846">
        <ele>173.66</ele>
        <time>2018-05-01T05:07:05Z</time>
      </trkpt>
      <trkpt lat="44.60832" lon="2.03815">
        <ele>172.69</ele>
        <time>2018-05-01T05:07:24Z</time>
      </trkpt>
      <trkpt lat="44.60815" lon="2.03807">
        <ele>172.21</ele>
        <time>2018-05-01T05:07:39Z</time>
      </trkpt>
      <trkpt lat="44.608" lon="2.03806">
        <ele>170.77</ele>
        <time>2018-05-01T05:07:55Z</time>
      </trkpt>
      <trkpt lat="44.60779" lon="2.03796">
        <ele>165.48</ele>
        <time>2018-05-01T05:08:13Z</time>
      </trkpt>
      <trkpt lat="44.60762" lon="2.03769">
        <ele>165.96</ele>
        <time>2018-05-01T05:08:33Z</time>
      </trkpt>
      <trkpt lat="44.60755" lon="2.03756">
        <ele>165.96</ele>
        <time>2018-05-01T05:08:43Z</time>
      </trkpt>
      <trkpt lat="44.60747" lon="2.03715">
        <ele>164.52</ele>
        <time>2018-05-01T05:09:04Z</time>
      </trkpt>
      <trkpt lat="44.60741" lon="2.03692">
        <ele>163.08</ele>
        <time>2018-05-01T05:09:17Z</time>
      </trkpt>
      <trkpt lat="44.60736" lon="2.0365">
        <ele>162.12</ele>
        <time>2018-05-01T05:09:38Z</time>
      </trkpt>
      <trkpt lat="44.60729" lon="2.03611">
        <ele>162.6</ele>
        <time>2018-05-01T05:10:00Z</time>
      </trkpt>
      <trkpt lat="44.60722" lon="2.03578">
        <ele>162.12</ele>
        <time>2018-05-01T05:10:19Z</time>
      </trkpt>
      <trkpt lat="44.60717" lon="2.03541">
        <ele>162.12</ele>
        <time>2018-05-01T05:10:39Z</time>
      </trkpt>
      <trkpt lat="44.60715" lon="2.03518">
        <ele>161.64</ele>
        <time>2018-05-01T05:10:52Z</time>
      </trkpt>
      <trkpt lat="44.60713" lon="2.03488">
        <ele>162.12</ele>
        <time>2018-05-01T05:11:11Z</time>
      </trkpt>
      <trkpt lat="44.60707" lon="2.03463">
        <ele>162.12</ele>
        <time>2018-05-01T05:11:30Z</time>
      </trkpt>
      <trkpt lat="44.60708" lon="2.03429">
        <ele>161.16</ele>
        <time>2018-05-01T05:11:51Z</time>
      </trkpt>
      <trkpt lat="44.60708" lon="2.03398">
        <ele>157.79</ele>
        <time>2018-05-01T05:12:09Z</time>
      </trkpt>
      <trkpt lat="44.6069" lon="2.03395">
        <ele>153.95</ele>
        <time>2018-05-01T05:12:27Z</time>
      </trkpt>
      <trkpt lat="44.60678" lon="2.03397">
        <ele>152.51</ele>
        <time>2018-05-01T05:12:38Z</time>
      </trkpt>
      <trkpt lat="44.60662" lon="2.03395">
        <ele>146.74</ele>
        <time>2018-05-01T05:12:58Z</time>
      </trkpt>
      <trkpt lat="44.60657" lon="2.03377">
        <ele>140.49</ele>
        <time>2018-05-01T05:13:13Z</time>
      </trkpt>
      <trkpt lat="44.60657" lon="2.03342">
        <ele>140.49</ele>
        <time>2018-05-01T05:13:32Z</time>
      </trkpt>
      <trkpt lat="44.60661" lon="2.03312">
        <ele>141.93</ele>
        <time>2018-05-01T05:13:48Z</time>
      </trkpt>
      <trkpt lat="44.60661" lon="2.03287">
        <ele>145.3</ele>
        <time>2018-05-01T05:14:06Z</time>
      </trkpt>
      <trkpt lat="44.60666" lon="2.03258">
        <ele>146.74</ele>
        <time>2018-05-01T05:14:26Z</time>
      </trkpt>
      <trkpt lat="44.60666" lon="2.0323">
        <ele>148.18</ele>
        <time>2018-05-01T05:14:45Z</time>
      </trkpt>
      <trkpt lat="44.6067" lon="2.03197">
        <ele>148.66</ele>
        <time>2018-05-01T05:15:06Z</time>
      </trkpt>
      <trkpt lat="44.60671" lon="2.03179">
        <ele>150.1</ele>
        <time>2018-05-01T05:15:17Z</time>
      </trkpt>
      <trkpt lat="44.60667" lon="2.03137">
        <ele>152.03</ele>
        <time>2018-05-01T05:15:40Z</time>
      </trkpt>
      <trkpt lat="44.60665" lon="2.03122">
        <ele>152.99</ele>
        <time>2018-05-01T05:15:55Z</time>
      </trkpt>
      <trkpt lat="44.60661" lon="2.03122">
        <ele>152.51</ele>
        <time>2018-05-01T05:15:59Z</time>
      </trkpt>
      <trkpt lat="44.6064" lon="2.03118">
        <ele>152.51</ele>
        <time>2018-05-01T05:16:18Z</time>
      </trkpt>
      <trkpt lat="44.60622" lon="2.03115">
        <ele>152.51</ele>
        <time>2018-05-01T05:16:35Z</time>
      </trkpt>
      <trkpt lat="44.606" lon="2.03089">
        <ele>153.47</ele>
        <time>2018-05-01T05:16:57Z</time>
      </trkpt>
      <trkpt lat="44.6059" lon="2.03052">
        <ele>156.35</ele>
        <time>2018-05-01T05:17:17Z</time>
      </trkpt>
      <trkpt lat="44.60592" lon="2.03013">
        <ele>159.72</ele>
        <time>2018-05-01T05:17:38Z</time>
      </trkpt>
      <trkpt lat="44.60594" lon="2.03004">
        <ele>160.2</ele>
        <time>2018-05-01T05:17:43Z</time>
      </trkpt>
      <trkpt lat="44.6059" lon="2.02981">
        <ele>161.64</ele>
        <time>2018-05-01T05:18:04Z</time>
      </trkpt>
      <trkpt lat="44.60588" lon="2.02969">
        <ele>162.12</ele>
        <time>2018-05-01T05:18:19Z</time>
      </trkpt>
      <trkpt lat="44.60588" lon="2.02927">
        <ele>164.52</ele>
        <time>2018-05-01T05:18:40Z</time>
      </trkpt>
      <trkpt lat="44.60585" lon="2.02897">
        <ele>165.96</ele>
        <time>2018-05-01T05:19:00Z</time>
      </trkpt>
      <trkpt lat="44.60578" lon="2.02877">
        <ele>165.48</ele>
        <time>2018-05-01T05:19:20Z</time>
      </trkpt>
      <trkpt lat="44.60581" lon="2.02855">
        <ele>163.56</ele>
        <time>2018-05-01T05:19:40Z</time>
      </trkpt>
      <trkpt lat="44.60579" lon="2.0286">
        <ele>161.16</ele>
        <time>2018-05-01T05:19:59Z</time>
      </trkpt>
      <trkpt lat="44.60582" lon="2.02861">
        <ele>156.35</ele>
        <time>2018-05-01T05:20:20Z</time>
      </trkpt>
      <trkpt lat="44.60578" lon="2.02841">
        <ele>154.91</ele>
        <time>2018-05-01T05:20:32Z</time>
      </trkpt>
      <trkpt lat="44.60575" lon="2.02826">
        <ele>154.91</ele>
        <time>2018-05-01T05:20:39Z</time>
      </trkpt>
      <trkpt lat="44.60562" lon="2.02793">
        <ele>154.91</ele>
        <time>2018-05-01T05:20:59Z</time>
      </trkpt>
      <trkpt lat="44.6056" lon="2.02768">
        <ele>155.87</ele>
        <time>2018-05-01T05:21:14Z</time>
      </trkpt>
      <trkpt lat="44.60558" lon="2.02762">
        <ele>155.87</ele>
        <time>2018-05-01T05:21:18Z</time>
      </trkpt>
      <trkpt lat="44.60551" lon="2.02727">
        <ele>154.91</ele>
        <time>2018-05-01T05:21:40Z</time>
      </trkpt>
      <trkpt lat="44.60556" lon="2.02683">
        <ele>156.35</ele>
        <time>2018-05-01T05:22:04Z</time>
      </trkpt>
      <trkpt lat="44.60557" lon="2.02645">
        <ele>160.68</ele>
        <time>2018-05-01T05:22:25Z</time>
      </trkpt>
      <trkpt lat="44.60561" lon="2.02607">
        <ele>164.52</ele>
        <time>2018-05-01T05:22:46Z</time>
      </trkpt>
      <trkpt lat="44.60559" lon="2.02569">
        <ele>166.93</ele>
        <time>2018-05-01T05:23:09Z</time>
      </trkpt>
      <trkpt lat="44.60557" lon="2.0254">
        <ele>168.37</ele>
        <time>2018-05-01T05:23:27Z</time>
      </trkpt>
      <trkpt lat="44.60555" lon="2.02509">
        <ele>169.81</ele>
        <time>2018-05-01T05:23:46Z</time>
      </trkpt>
      <trkpt lat="44.6055" lon="2.02489">
        <ele>169.81</ele>
        <time>2018-05-01T05:24:02Z</time>
      </trkpt>
      <trkpt lat="44.60548" lon="2.02459">
        <ele>169.81</ele>
        <time>2018-05-01T05:24:23Z</time>
      </trkpt>
      <trkpt lat="44.60536" lon="2.02421">
        <ele>169.81</ele>
        <time>2018-05-01T05:24:46Z</time>
      </trkpt>
      <trkpt lat="44.6052" lon="2.02389">
        <ele>170.29</ele>
        <time>2018-05-01T05:25:08Z</time>
      </trkpt>
      <trkpt lat="44.60506" lon="2.02363">
        <ele>170.29</ele>
        <time>2018-05-01T05:25:27Z</time>
      </trkpt>
      <trkpt lat="44.60493" lon="2.02334">
        <ele>170.29</ele>
        <time>2018-05-01T05:25:46Z</time>
      </trkpt>
      <trkpt lat="44.60487" lon="2.02308">
        <ele>170.29</ele>
        <time>2018-05-01T05:26:02Z</time>
      </trkpt>
      <trkpt lat="44.60479" lon="2.02279">
        <ele>170.77</ele>
        <time>2018-05-01T05:26:23Z</time>
      </trkpt>
      <trkpt lat="44.60469" lon="2.02252">
        <ele>170.77</ele>
        <time>2018-05-01T05:26:40Z</time>
      </trkpt>
      <trkpt lat="44.60453" lon="2.02226">
        <ele>170.77</ele>
        <time>2018-05-01T05:26:59Z</time>
      </trkpt>
      <trkpt lat="44.60446" lon="2.022">
        <ele>170.77</ele>
        <time>2018-05-01T05:27:18Z</time>
      </trkpt>
      <trkpt lat="44.60432" lon="2.02174">
        <ele>170.77</ele>
        <time>2018-05-01T05:27:38Z</time>
      </trkpt>
      <trkpt lat="44.6041" lon="2.02143">
        <ele>170.77</ele>
        <time>2018-05-01T05:28:00Z</time>
      </trkpt>
      <trkpt lat="44.60417" lon="2.02119">
        <ele>172.69</ele>
        <time>2018-05-01T05:28:19Z</time>
      </trkpt>
      <trkpt lat="44.60407" lon="2.02086">
        <ele>177.5</ele>
        <time>2018-05-01T05:28:38Z</time>
      </trkpt>
      <trkpt lat="44.60389" lon="2.02056">
        <ele>180.38</ele>
        <time>2018-05-01T05:28:58Z</time>
      </trkpt>
      <trkpt lat="44.60374" lon="2.02029">
        <ele>182.31</ele>
        <time>2018-05-01T05:29:17Z</time>
      </trkpt>
      <trkpt lat="44.60352" lon="2.02006">
        <ele>181.35</ele>
        <time>2018-05-01T05:29:37Z</time>
      </trkpt>
      <trkpt lat="44.60325" lon="2.01975">
        <ele>178.46</ele>
        <time>2018-05-01T05:29:57Z</time>
      </trkpt>
      <trkpt lat="44.60315" lon="2.0195">
        <ele>178.94</ele>
        <time>2018-05-01T05:30:14Z</time>
      </trkpt>
      <trkpt lat="44.60303" lon="2.01923">
        <ele>179.42</ele>
        <time>2018-05-01T05:30:35Z</time>
      </trkpt>
      <trkpt lat="44.60292" lon="2.0191">
        <ele>179.9</ele>
        <time>2018-05-01T05:30:51Z</time>
      </trkpt>
      <trkpt lat="44.6027" lon="2.01907">
        <ele>178.46</ele>
        <time>2018-05-01T05:31:14Z</time>
      </trkpt>
      <trkpt lat="44.60245" lon="2.01915">
        <ele>176.06</ele>
        <time>2018-05-01T05:31:38Z</time>
      </trkpt>
      <trkpt lat="44.6023" lon="2.0194">
        <ele>171.25</ele>
        <time>2018-05-01T05:32:05Z</time>
      </trkpt>
      <trkpt lat="44.60222" lon="2.01952">
        <ele>170.29</ele>
        <time>2018-05-01T05:32:16Z</time>
      </trkpt>
      <trkpt lat="44.60204" lon="2.01987">
        <ele>178.94</ele>
        <time>2018-05-01T05:32:44Z</time>
      </trkpt>
      <trkpt lat="44.60192" lon="2.02014">
        <ele>186.15</ele>
        <time>2018-05-01T05:33:06Z</time>
      </trkpt>
      <trkpt lat="44.60171" lon="2.02013">
        <ele>190</ele>
        <time>2018-05-01T05:33:30Z</time>
      </trkpt>
      <trkpt lat="44.60151" lon="2.02003">
        <ele>192.4</ele>
        <time>2018-05-01T05:33:53Z</time>
      </trkpt>
      <trkpt lat="44.60139" lon="2.0201">
        <ele>192.4</ele>
        <time>2018-05-01T05:34:17Z</time>
      </trkpt>
      <trkpt lat="44.60122" lon="2.02027">
        <ele>193.36</ele>
        <time>2018-05-01T05:34:44Z</time>
      </trkpt>
      <trkpt lat="44.60112" lon="2.02035">
        <ele>193.36</ele>
        <time>2018-05-01T05:35:02Z</time>
      </trkpt>
      <trkpt lat="44.60094" lon="2.02049">
        <ele>195.77</ele>
        <time>2018-05-01T05:35:24Z</time>
      </trkpt>
      <trkpt lat="44.60075" lon="2.02076">
        <ele>202.98</ele>
        <time>2018-05-01T05:35:51Z</time>
      </trkpt>
      <trkpt lat="44.60056" lon="2.02091">
        <ele>207.3</ele>
        <time>2018-05-01T05:36:13Z</time>
      </trkpt>
      <trkpt lat="44.60038" lon="2.02097">
        <ele>211.63</ele>
        <time>2018-05-01T05:36:35Z</time>
      </trkpt>
      <trkpt lat="44.60021" lon="2.02109">
        <ele>215.95</ele>
        <time>2018-05-01T05:37:02Z</time>
      </trkpt>
      <trkpt lat="44.60003" lon="2.02121">
        <ele>222.2</ele>
        <time>2018-05-01T05:37:26Z</time>
      </trkpt>
      <trkpt lat="44.59984" lon="2.02129">
        <ele>227.49</ele>
        <time>2018-05-01T05:37:52Z</time>
      </trkpt>
      <trkpt lat="44.59965" lon="2.02143">
        <ele>227.97</ele>
        <time>2018-05-01T05:38:14Z</time>
      </trkpt>
      <trkpt lat="44.59949" lon="2.02157">
        <ele>233.26</ele>
        <time>2018-05-01T05:38:39Z</time>
      </trkpt>
      <trkpt lat="44.59921" lon="2.02155">
        <ele>238.54</ele>
        <time>2018-05-01T05:39:06Z</time>
      </trkpt>
      <trkpt lat="44.59901" lon="2.02153">
        <ele>241.91</ele>
        <time>2018-05-01T05:39:28Z</time>
      </trkpt>
      <trkpt lat="44.59882" lon="2.02153">
        <ele>245.75</ele>
        <time>2018-05-01T05:39:55Z</time>
      </trkpt>
      <trkpt lat="44.59864" lon="2.02148">
        <ele>248.64</ele>
        <time>2018-05-01T05:40:20Z</time>
      </trkpt>
      <trkpt lat="44.59844" lon="2.02148">
        <ele>252.96</ele>
        <time>2018-05-01T05:40:44Z</time>
      </trkpt>
      <trkpt lat="44.59817" lon="2.02149">
        <ele>256.33</ele>
        <time>2018-05-01T05:41:11Z</time>
      </trkpt>
      <trkpt lat="44.598" lon="2.02145">
        <ele>260.65</ele>
        <time>2018-05-01T05:41:39Z</time>
      </trkpt>
      <trkpt lat="44.5978" lon="2.0214">
        <ele>264.98</ele>
        <time>2018-05-01T05:42:02Z</time>
      </trkpt>
      <trkpt lat="44.59763" lon="2.02131">
        <ele>265.46</ele>
        <time>2018-05-01T05:42:27Z</time>
      </trkpt>
      <trkpt lat="44.59748" lon="2.02119">
        <ele>265.94</ele>
        <time>2018-05-01T05:42:51Z</time>
      </trkpt>
      <trkpt lat="44.59729" lon="2.02113">
        <ele>268.35</ele>
        <time>2018-05-01T05:43:19Z</time>
      </trkpt>
      <trkpt lat="44.59707" lon="2.02111">
        <ele>265.94</ele>
        <time>2018-05-01T05:43:41Z</time>
      </trkpt>
      <trkpt lat="44.597" lon="2.02107">
        <ele>264.5</ele>
        <time>2018-05-01T05:43:47Z</time>
      </trkpt>
      <trkpt lat="44.59677" lon="2.02095">
        <ele>256.81</ele>
        <time>2018-05-01T05:44:09Z</time>
      </trkpt>
      <trkpt lat="44.59655" lon="2.02061">
        <ele>268.35</ele>
        <time>2018-05-01T05:44:33Z</time>
      </trkpt>
      <trkpt lat="44.59643" lon="2.02042">
        <ele>273.15</ele>
        <time>2018-05-01T05:44:56Z</time>
      </trkpt>
      <trkpt lat="44.59632" lon="2.02018">
        <ele>275.56</ele>
        <time>2018-05-01T05:45:16Z</time>
      </trkpt>
      <trkpt lat="44.59615" lon="2.0201">
        <ele>276.52</ele>
        <time>2018-05-01T05:45:35Z</time>
      </trkpt>
      <trkpt lat="44.59599" lon="2.01999">
        <ele>278.92</ele>
        <time>2018-05-01T05:45:55Z</time>
      </trkpt>
      <trkpt lat="44.59582" lon="2.01984">
        <ele>282.77</ele>
        <time>2018-05-01T05:46:13Z</time>
      </trkpt>
      <trkpt lat="44.59563" lon="2.0196">
        <ele>285.65</ele>
        <time>2018-05-01T05:46:37Z</time>
      </trkpt>
      <trkpt lat="44.59539" lon="2.01932">
        <ele>287.09</ele>
        <time>2018-05-01T05:47:02Z</time>
      </trkpt>
      <trkpt lat="44.59517" lon="2.01908">
        <ele>287.57</ele>
        <time>2018-05-01T05:47:25Z</time>
      </trkpt>
      <trkpt lat="44.59505" lon="2.01885">
        <ele>289.97</ele>
        <time>2018-05-01T05:47:47Z</time>
      </trkpt>
      <trkpt lat="44.59488" lon="2.01868">
        <ele>289.49</ele>
        <time>2018-05-01T05:48:11Z</time>
      </trkpt>
      <trkpt lat="44.59474" lon="2.01862">
        <ele>291.42</ele>
        <time>2018-05-01T05:48:23Z</time>
      </trkpt>
      <trkpt lat="44.59447" lon="2.0187">
        <ele>292.86</ele>
        <time>2018-05-01T05:48:46Z</time>
      </trkpt>
      <trkpt lat="44.59423" lon="2.01882">
        <ele>296.7</ele>
        <time>2018-05-01T05:49:10Z</time>
      </trkpt>
      <trkpt lat="44.59396" lon="2.01886">
        <ele>301.51</ele>
        <time>2018-05-01T05:49:34Z</time>
      </trkpt>
      <trkpt lat="44.59372" lon="2.01883">
        <ele>303.91</ele>
        <time>2018-05-01T05:50:00Z</time>
      </trkpt>
      <trkpt lat="44.59352" lon="2.01892">
        <ele>304.39</ele>
        <time>2018-05-01T05:50:22Z</time>
      </trkpt>
      <trkpt lat="44.5933" lon="2.01904">
        <ele>306.8</ele>
        <time>2018-05-01T05:50:46Z</time>
      </trkpt>
      <trkpt lat="44.5931" lon="2.01912">
        <ele>308.24</ele>
        <time>2018-05-01T05:51:06Z</time>
      </trkpt>
      <trkpt lat="44.59288" lon="2.01921">
        <ele>311.6</ele>
        <time>2018-05-01T05:51:29Z</time>
      </trkpt>
      <trkpt lat="44.59264" lon="2.01926">
        <ele>316.41</ele>
        <time>2018-05-01T05:51:51Z</time>
      </trkpt>
      <trkpt lat="44.5925" lon="2.01931">
        <ele>318.33</ele>
        <time>2018-05-01T05:52:11Z</time>
      </trkpt>
      <trkpt lat="44.59233" lon="2.01937">
        <ele>320.26</ele>
        <time>2018-05-01T05:52:31Z</time>
      </trkpt>
      <trkpt lat="44.59216" lon="2.0194">
        <ele>322.18</ele>
        <time>2018-05-01T05:52:52Z</time>
      </trkpt>
      <trkpt lat="44.59208" lon="2.01939">
        <ele>322.66</ele>
        <time>2018-05-01T05:53:00Z</time>
      </trkpt>
      <trkpt lat="44.59179" lon="2.01932">
        <ele>323.14</ele>
        <time>2018-05-01T05:53:24Z</time>
      </trkpt>
      <trkpt lat="44.59147" lon="2.01925">
        <ele>324.1</ele>
        <time>2018-05-01T05:53:50Z</time>
      </trkpt>
      <trkpt lat="44.59122" lon="2.01917">
        <ele>322.66</ele>
        <time>2018-05-01T05:54:13Z</time>
      </trkpt>
      <trkpt lat="44.5911" lon="2.01917">
        <ele>322.66</ele>
        <time>2018-05-01T05:54:23Z</time>
      </trkpt>
      <trkpt lat="44.59085" lon="2.01908">
        <ele>320.74</ele>
        <time>2018-05-01T05:54:47Z</time>
      </trkpt>
      <trkpt lat="44.59071" lon="2.01886">
        <ele>332.75</ele>
        <time>2018-05-01T05:55:10Z</time>
      </trkpt>
      <trkpt lat="44.5906" lon="2.01879">
        <ele>334.2</ele>
        <time>2018-05-01T05:55:19Z</time>
      </trkpt>
      <trkpt lat="44.5903" lon="2.01861">
        <ele>333.23</ele>
        <time>2018-05-01T05:55:46Z</time>
      </trkpt>
      <trkpt lat="44.59004" lon="2.01849">
        <ele>334.2</ele>
        <time>2018-05-01T05:56:11Z</time>
      </trkpt>
      <trkpt lat="44.58983" lon="2.01833">
        <ele>336.12</ele>
        <time>2018-05-01T05:56:30Z</time>
      </trkpt>
      <trkpt lat="44.58963" lon="2.01817">
        <ele>334.2</ele>
        <time>2018-05-01T05:56:51Z</time>
      </trkpt>
      <trkpt lat="44.58933" lon="2.01784">
        <ele>341.41</ele>
        <time>2018-05-01T05:57:13Z</time>
      </trkpt>
      <trkpt lat="44.58901" lon="2.01772">
        <ele>344.77</ele>
        <time>2018-05-01T05:57:39Z</time>
      </trkpt>
      <trkpt lat="44.5887" lon="2.01759">
        <ele>347.65</ele>
        <time>2018-05-01T05:58:05Z</time>
      </trkpt>
      <trkpt lat="44.58837" lon="2.0175">
        <ele>352.46</ele>
        <time>2018-05-01T05:58:33Z</time>
      </trkpt>
      <trkpt lat="44.58802" lon="2.01735">
        <ele>355.83</ele>
        <time>2018-05-01T05:59:01Z</time>
      </trkpt>
      <trkpt lat="44.58773" lon="2.01719">
        <ele>357.27</ele>
        <time>2018-05-01T05:59:28Z</time>
      </trkpt>
      <trkpt lat="44.58745" lon="2.017">
        <ele>357.75</ele>
        <time>2018-05-01T05:59:53Z</time>
      </trkpt>
      <trkpt lat="44.58722" lon="2.01688">
        <ele>357.27</ele>
        <time>2018-05-01T06:00:17Z</time>
      </trkpt>
      <trkpt lat="44.58696" lon="2.01676">
        <ele>355.34</ele>
        <time>2018-05-01T06:00:43Z</time>
      </trkpt>
      <trkpt lat="44.58677" lon="2.01657">
        <ele>355.83</ele>
        <time>2018-05-01T06:01:03Z</time>
      </trkpt>
      <trkpt lat="44.58659" lon="2.01629">
        <ele>358.71</ele>
        <time>2018-05-01T06:01:24Z</time>
      </trkpt>
      <trkpt lat="44.58658" lon="2.01628">
        <ele>359.19</ele>
        <time>2018-05-01T06:01:25Z</time>
      </trkpt>
      <trkpt lat="44.58634" lon="2.01587">
        <ele>358.23</ele>
        <time>2018-05-01T06:01:53Z</time>
      </trkpt>
      <trkpt lat="44.58611" lon="2.01559">
        <ele>355.34</ele>
        <time>2018-05-01T06:02:17Z</time>
      </trkpt>
      <trkpt lat="44.58599" lon="2.01542">
        <ele>352.94</ele>
        <time>2018-05-01T06:02:34Z</time>
      </trkpt>
      <trkpt lat="44.5858" lon="2.01517">
        <ele>349.58</ele>
        <time>2018-05-01T06:02:58Z</time>
      </trkpt>
      <trkpt lat="44.58559" lon="2.01485">
        <ele>347.65</ele>
        <time>2018-05-01T06:03:21Z</time>
      </trkpt>
      <trkpt lat="44.58537" lon="2.01463">
        <ele>345.25</ele>
        <time>2018-05-01T06:03:43Z</time>
      </trkpt>
      <trkpt lat="44.58518" lon="2.01443">
        <ele>342.85</ele>
        <time>2018-05-01T06:04:04Z</time>
      </trkpt>
      <trkpt lat="44.58494" lon="2.0142">
        <ele>339.48</ele>
        <time>2018-05-01T06:04:28Z</time>
      </trkpt>
      <trkpt lat="44.58477" lon="2.01403">
        <ele>335.16</ele>
        <time>2018-05-01T06:04:49Z</time>
      </trkpt>
      <trkpt lat="44.5845" lon="2.01378">
        <ele>330.35</ele>
        <time>2018-05-01T06:05:11Z</time>
      </trkpt>
      <trkpt lat="44.58437" lon="2.01355">
        <ele>326.5</ele>
        <time>2018-05-01T06:05:31Z</time>
      </trkpt>
      <trkpt lat="44.5843" lon="2.01309">
        <ele>320.26</ele>
        <time>2018-05-01T06:05:55Z</time>
      </trkpt>
      <trkpt lat="44.58427" lon="2.01278">
        <ele>318.33</ele>
        <time>2018-05-01T06:06:14Z</time>
      </trkpt>
      <trkpt lat="44.58408" lon="2.01248">
        <ele>315.93</ele>
        <time>2018-05-01T06:06:36Z</time>
      </trkpt>
      <trkpt lat="44.58393" lon="2.01237">
        <ele>314.01</ele>
        <time>2018-05-01T06:06:57Z</time>
      </trkpt>
      <trkpt lat="44.58373" lon="2.01221">
        <ele>309.68</ele>
        <time>2018-05-01T06:07:18Z</time>
      </trkpt>
      <trkpt lat="44.58337" lon="2.01187">
        <ele>306.8</ele>
        <time>2018-05-01T06:07:43Z</time>
      </trkpt>
      <trkpt lat="44.58321" lon="2.0118">
        <ele>307.76</ele>
        <time>2018-05-01T06:07:56Z</time>
      </trkpt>
      <trkpt lat="44.58299" lon="2.01165">
        <ele>307.76</ele>
        <time>2018-05-01T06:08:19Z</time>
      </trkpt>
      <trkpt lat="44.58273" lon="2.01145">
        <ele>308.24</ele>
        <time>2018-05-01T06:08:42Z</time>
      </trkpt>
      <trkpt lat="44.58254" lon="2.01132">
        <ele>306.8</ele>
        <time>2018-05-01T06:09:07Z</time>
      </trkpt>
      <trkpt lat="44.58237" lon="2.0112">
        <ele>306.32</ele>
        <time>2018-05-01T06:09:30Z</time>
      </trkpt>
      <trkpt lat="44.58215" lon="2.01097">
        <ele>307.76</ele>
        <time>2018-05-01T06:09:51Z</time>
      </trkpt>
      <trkpt lat="44.58184" lon="2.01084">
        <ele>314.97</ele>
        <time>2018-05-01T06:10:16Z</time>
      </trkpt>
      <trkpt lat="44.58168" lon="2.01083">
        <ele>315.93</ele>
        <time>2018-05-01T06:10:37Z</time>
      </trkpt>
      <trkpt lat="44.58141" lon="2.01076">
        <ele>317.85</ele>
        <time>2018-05-01T06:11:00Z</time>
      </trkpt>
      <trkpt lat="44.58114" lon="2.01063">
        <ele>318.81</ele>
        <time>2018-05-01T06:11:21Z</time>
      </trkpt>
      <trkpt lat="44.58089" lon="2.01053">
        <ele>318.81</ele>
        <time>2018-05-01T06:11:44Z</time>
      </trkpt>
      <trkpt lat="44.5806" lon="2.01039">
        <ele>317.85</ele>
        <time>2018-05-01T06:12:07Z</time>
      </trkpt>
      <trkpt lat="44.58037" lon="2.01024">
        <ele>316.41</ele>
        <time>2018-05-01T06:12:27Z</time>
      </trkpt>
      <trkpt lat="44.58019" lon="2.01011">
        <ele>316.41</ele>
        <time>2018-05-01T06:12:49Z</time>
      </trkpt>
      <trkpt lat="44.57995" lon="2.00987">
        <ele>318.33</ele>
        <time>2018-05-01T06:13:11Z</time>
      </trkpt>
      <trkpt lat="44.57976" lon="2.0097">
        <ele>319.3</ele>
        <time>2018-05-01T06:13:35Z</time>
      </trkpt>
      <trkpt lat="44.57958" lon="2.0095">
        <ele>319.3</ele>
        <time>2018-05-01T06:13:55Z</time>
      </trkpt>
      <trkpt lat="44.57938" lon="2.00926">
        <ele>320.26</ele>
        <time>2018-05-01T06:14:20Z</time>
      </trkpt>
      <trkpt lat="44.57933" lon="2.00915">
        <ele>320.26</ele>
        <time>2018-05-01T06:14:29Z</time>
      </trkpt>
      <trkpt lat="44.57916" lon="2.0088">
        <ele>320.74</ele>
        <time>2018-05-01T06:14:54Z</time>
      </trkpt>
      <trkpt lat="44.57902" lon="2.00856">
        <ele>319.3</ele>
        <time>2018-05-01T06:15:16Z</time>
      </trkpt>
      <trkpt lat="44.57882" lon="2.00828">
        <ele>315.45</ele>
        <time>2018-05-01T06:15:43Z</time>
      </trkpt>
      <trkpt lat="44.57856" lon="2.00809">
        <ele>312.09</ele>
        <time>2018-05-01T06:16:07Z</time>
      </trkpt>
      <trkpt lat="44.5783" lon="2.00798">
        <ele>304.88</ele>
        <time>2018-05-01T06:16:29Z</time>
      </trkpt>
      <trkpt lat="44.57805" lon="2.00785">
        <ele>301.99</ele>
        <time>2018-05-01T06:16:54Z</time>
      </trkpt>
      <trkpt lat="44.5778" lon="2.00758">
        <ele>304.88</ele>
        <time>2018-05-01T06:17:18Z</time>
      </trkpt>
      <trkpt lat="44.57757" lon="2.00729">
        <ele>306.8</ele>
        <time>2018-05-01T06:17:41Z</time>
      </trkpt>
      <trkpt lat="44.57736" lon="2.00706">
        <ele>307.28</ele>
        <time>2018-05-01T06:18:06Z</time>
      </trkpt>
      <trkpt lat="44.57715" lon="2.00683">
        <ele>307.28</ele>
        <time>2018-05-01T06:18:28Z</time>
      </trkpt>
      <trkpt lat="44.57696" lon="2.00646">
        <ele>307.76</ele>
        <time>2018-05-01T06:18:51Z</time>
      </trkpt>
      <trkpt lat="44.57681" lon="2.00612">
        <ele>312.09</ele>
        <time>2018-05-01T06:19:17Z</time>
      </trkpt>
      <trkpt lat="44.57669" lon="2.00584">
        <ele>313.05</ele>
        <time>2018-05-01T06:19:41Z</time>
      </trkpt>
      <trkpt lat="44.57648" lon="2.00553">
        <ele>314.97</ele>
        <time>2018-05-01T06:20:06Z</time>
      </trkpt>
      <trkpt lat="44.57624" lon="2.00532">
        <ele>315.93</ele>
        <time>2018-05-01T06:20:30Z</time>
      </trkpt>
      <trkpt lat="44.57603" lon="2.00518">
        <ele>319.78</ele>
        <time>2018-05-01T06:20:49Z</time>
      </trkpt>
      <trkpt lat="44.57591" lon="2.00497">
        <ele>326.5</ele>
        <time>2018-05-01T06:21:11Z</time>
      </trkpt>
      <trkpt lat="44.57584" lon="2.00459">
        <ele>331.31</ele>
        <time>2018-05-01T06:21:30Z</time>
      </trkpt>
      <trkpt lat="44.57573" lon="2.00405">
        <ele>341.89</ele>
        <time>2018-05-01T06:21:54Z</time>
      </trkpt>
      <trkpt lat="44.57568" lon="2.00379">
        <ele>346.21</ele>
        <time>2018-05-01T06:22:19Z</time>
      </trkpt>
      <trkpt lat="44.57557" lon="2.00331">
        <ele>345.73</ele>
        <time>2018-05-01T06:22:45Z</time>
      </trkpt>
      <trkpt lat="44.57545" lon="2.003">
        <ele>340.92</ele>
        <time>2018-05-01T06:23:10Z</time>
      </trkpt>
      <trkpt lat="44.57525" lon="2.00252">
        <ele>338.04</ele>
        <time>2018-05-01T06:23:32Z</time>
      </trkpt>
      <trkpt lat="44.57512" lon="2.00216">
        <ele>335.16</ele>
        <time>2018-05-01T06:23:57Z</time>
      </trkpt>
      <trkpt lat="44.57507" lon="2.00182">
        <ele>334.2</ele>
        <time>2018-05-01T06:24:19Z</time>
      </trkpt>
      <trkpt lat="44.57508" lon="2.00151">
        <ele>333.71</ele>
        <time>2018-05-01T06:24:39Z</time>
      </trkpt>
      <trkpt lat="44.57507" lon="2.00124">
        <ele>332.27</ele>
        <time>2018-05-01T06:24:59Z</time>
      </trkpt>
      <trkpt lat="44.57503" lon="2.00089">
        <ele>331.79</ele>
        <time>2018-05-01T06:25:20Z</time>
      </trkpt>
      <trkpt lat="44.57504" lon="2.00052">
        <ele>329.87</ele>
        <time>2018-05-01T06:25:41Z</time>
      </trkpt>
      <trkpt lat="44.5751" lon="2.00014">
        <ele>325.54</ele>
        <time>2018-05-01T06:26:04Z</time>
      </trkpt>
      <trkpt lat="44.57518" lon="1.99973">
        <ele>316.89</ele>
        <time>2018-05-01T06:26:29Z</time>
      </trkpt>
      <trkpt lat="44.57529" lon="1.99925">
        <ele>309.68</ele>
        <time>2018-05-01T06:26:54Z</time>
      </trkpt>
      <trkpt lat="44.57541" lon="1.99895">
        <ele>306.32</ele>
        <time>2018-05-01T06:27:16Z</time>
      </trkpt>
      <trkpt lat="44.57559" lon="1.9987">
        <ele>303.43</ele>
        <time>2018-05-01T06:27:39Z</time>
      </trkpt>
      <trkpt lat="44.57581" lon="1.99846">
        <ele>304.39</ele>
        <time>2018-05-01T06:28:03Z</time>
      </trkpt>
      <trkpt lat="44.57599" lon="1.99823">
        <ele>301.99</ele>
        <time>2018-05-01T06:28:25Z</time>
      </trkpt>
      <trkpt lat="44.57621" lon="1.99794">
        <ele>299.59</ele>
        <time>2018-05-01T06:28:50Z</time>
      </trkpt>
      <trkpt lat="44.57611" lon="1.99752">
        <ele>296.7</ele>
        <time>2018-05-01T06:29:14Z</time>
      </trkpt>
      <trkpt lat="44.57598" lon="1.99719">
        <ele>298.63</ele>
        <time>2018-05-01T06:29:35Z</time>
      </trkpt>
      <trkpt lat="44.57585" lon="1.99685">
        <ele>301.99</ele>
        <time>2018-05-01T06:30:00Z</time>
      </trkpt>
      <trkpt lat="44.57577" lon="1.99652">
        <ele>301.99</ele>
        <time>2018-05-01T06:30:22Z</time>
      </trkpt>
      <trkpt lat="44.57565" lon="1.99621">
        <ele>303.91</ele>
        <time>2018-05-01T06:30:44Z</time>
      </trkpt>
      <trkpt lat="44.57548" lon="1.99594">
        <ele>305.36</ele>
        <time>2018-05-01T06:31:09Z</time>
      </trkpt>
      <trkpt lat="44.5753" lon="1.9957">
        <ele>306.8</ele>
        <time>2018-05-01T06:31:32Z</time>
      </trkpt>
      <trkpt lat="44.57516" lon="1.99539">
        <ele>308.72</ele>
        <time>2018-05-01T06:31:53Z</time>
      </trkpt>
      <trkpt lat="44.5751" lon="1.99539">
        <ele>308.24</ele>
        <time>2018-05-01T06:32:13Z</time>
      </trkpt>
      <trkpt lat="44.575" lon="1.99539">
        <ele>308.72</ele>
        <time>2018-05-01T06:32:34Z</time>
      </trkpt>
      <trkpt lat="44.57522" lon="1.99532">
        <ele>321.7</ele>
        <time>2018-05-01T06:35:38Z</time>
      </trkpt>
      <trkpt lat="44.57505" lon="1.99506">
        <ele>327.47</ele>
        <time>2018-05-01T06:36:04Z</time>
      </trkpt>
      <trkpt lat="44.57487" lon="1.99492">
        <ele>327.95</ele>
        <time>2018-05-01T06:36:28Z</time>
      </trkpt>
      <trkpt lat="44.57463" lon="1.99468">
        <ele>326.99</ele>
        <time>2018-05-01T06:36:52Z</time>
      </trkpt>
      <trkpt lat="44.57445" lon="1.9945">
        <ele>327.95</ele>
        <time>2018-05-01T06:37:14Z</time>
      </trkpt>
      <trkpt lat="44.57428" lon="1.9943">
        <ele>326.99</ele>
        <time>2018-05-01T06:37:34Z</time>
      </trkpt>
      <trkpt lat="44.57416" lon="1.99426">
        <ele>324.58</ele>
        <time>2018-05-01T06:37:55Z</time>
      </trkpt>
      <trkpt lat="44.57393" lon="1.99403">
        <ele>324.1</ele>
        <time>2018-05-01T06:38:18Z</time>
      </trkpt>
      <trkpt lat="44.57369" lon="1.99381">
        <ele>324.58</ele>
        <time>2018-05-01T06:38:39Z</time>
      </trkpt>
      <trkpt lat="44.5735" lon="1.99364">
        <ele>325.06</ele>
        <time>2018-05-01T06:39:02Z</time>
      </trkpt>
      <trkpt lat="44.5733" lon="1.99352">
        <ele>325.06</ele>
        <time>2018-05-01T06:39:22Z</time>
      </trkpt>
      <trkpt lat="44.57307" lon="1.99334">
        <ele>325.54</ele>
        <time>2018-05-01T06:39:43Z</time>
      </trkpt>
      <trkpt lat="44.57286" lon="1.9932">
        <ele>325.06</ele>
        <time>2018-05-01T06:40:05Z</time>
      </trkpt>
      <trkpt lat="44.57264" lon="1.99302">
        <ele>325.54</ele>
        <time>2018-05-01T06:40:27Z</time>
      </trkpt>
      <trkpt lat="44.57243" lon="1.99283">
        <ele>325.54</ele>
        <time>2018-05-01T06:40:48Z</time>
      </trkpt>
      <trkpt lat="44.57228" lon="1.99273">
        <ele>321.22</ele>
        <time>2018-05-01T06:41:10Z</time>
      </trkpt>
      <trkpt lat="44.57206" lon="1.99248">
        <ele>316.41</ele>
        <time>2018-05-01T06:41:31Z</time>
      </trkpt>
      <trkpt lat="44.57199" lon="1.99239">
        <ele>315.93</ele>
        <time>2018-05-01T06:41:37Z</time>
      </trkpt>
      <trkpt lat="44.57176" lon="1.99217">
        <ele>316.89</ele>
        <time>2018-05-01T06:41:59Z</time>
      </trkpt>
      <trkpt lat="44.57154" lon="1.99212">
        <ele>316.89</ele>
        <time>2018-05-01T06:42:20Z</time>
      </trkpt>
      <trkpt lat="44.57128" lon="1.99212">
        <ele>313.53</ele>
        <time>2018-05-01T06:42:44Z</time>
      </trkpt>
      <trkpt lat="44.57107" lon="1.99209">
        <ele>317.85</ele>
        <time>2018-05-01T06:43:06Z</time>
      </trkpt>
      <trkpt lat="44.57084" lon="1.99203">
        <ele>314.97</ele>
        <time>2018-05-01T06:43:28Z</time>
      </trkpt>
      <trkpt lat="44.57067" lon="1.99204">
        <ele>313.05</ele>
        <time>2018-05-01T06:43:47Z</time>
      </trkpt>
      <trkpt lat="44.57043" lon="1.99191">
        <ele>320.74</ele>
        <time>2018-05-01T06:44:09Z</time>
      </trkpt>
      <trkpt lat="44.57018" lon="1.99168">
        <ele>321.22</ele>
        <time>2018-05-01T06:44:34Z</time>
      </trkpt>
      <trkpt lat="44.56993" lon="1.99143">
        <ele>324.1</ele>
        <time>2018-05-01T06:44:57Z</time>
      </trkpt>
      <trkpt lat="44.56974" lon="1.9912">
        <ele>330.83</ele>
        <time>2018-05-01T06:45:17Z</time>
      </trkpt>
      <trkpt lat="44.56952" lon="1.99098">
        <ele>334.68</ele>
        <time>2018-05-01T06:45:39Z</time>
      </trkpt>
      <trkpt lat="44.56936" lon="1.99085">
        <ele>333.23</ele>
        <time>2018-05-01T06:46:00Z</time>
      </trkpt>
      <trkpt lat="44.56909" lon="1.99063">
        <ele>333.23</ele>
        <time>2018-05-01T06:46:21Z</time>
      </trkpt>
      <trkpt lat="44.56891" lon="1.9905">
        <ele>333.71</ele>
        <time>2018-05-01T06:46:40Z</time>
      </trkpt>
      <trkpt lat="44.56868" lon="1.99039">
        <ele>332.27</ele>
        <time>2018-05-01T06:47:01Z</time>
      </trkpt>
      <trkpt lat="44.56842" lon="1.99024">
        <ele>330.83</ele>
        <time>2018-05-01T06:47:22Z</time>
      </trkpt>
      <trkpt lat="44.56823" lon="1.99018">
        <ele>326.02</ele>
        <time>2018-05-01T06:47:42Z</time>
      </trkpt>
      <trkpt lat="44.56802" lon="1.98987">
        <ele>325.54</ele>
        <time>2018-05-01T06:48:02Z</time>
      </trkpt>
      <trkpt lat="44.56788" lon="1.98964">
        <ele>322.18</ele>
        <time>2018-05-01T06:48:23Z</time>
      </trkpt>
      <trkpt lat="44.56777" lon="1.98943">
        <ele>317.37</ele>
        <time>2018-05-01T06:48:40Z</time>
      </trkpt>
      <trkpt lat="44.56759" lon="1.98916">
        <ele>312.09</ele>
        <time>2018-05-01T06:49:00Z</time>
      </trkpt>
      <trkpt lat="44.56738" lon="1.98882">
        <ele>309.2</ele>
        <time>2018-05-01T06:49:22Z</time>
      </trkpt>
      <trkpt lat="44.56724" lon="1.98861">
        <ele>306.32</ele>
        <time>2018-05-01T06:49:39Z</time>
      </trkpt>
      <trkpt lat="44.56705" lon="1.9884">
        <ele>306.8</ele>
        <time>2018-05-01T06:50:00Z</time>
      </trkpt>
      <trkpt lat="44.56684" lon="1.9882">
        <ele>307.76</ele>
        <time>2018-05-01T06:50:21Z</time>
      </trkpt>
      <trkpt lat="44.56661" lon="1.98805">
        <ele>310.16</ele>
        <time>2018-05-01T06:50:44Z</time>
      </trkpt>
      <trkpt lat="44.56631" lon="1.98807">
        <ele>311.6</ele>
        <time>2018-05-01T06:51:06Z</time>
      </trkpt>
      <trkpt lat="44.56606" lon="1.98805">
        <ele>314.01</ele>
        <time>2018-05-01T06:51:27Z</time>
      </trkpt>
      <trkpt lat="44.56582" lon="1.98801">
        <ele>314.97</ele>
        <time>2018-05-01T06:51:48Z</time>
      </trkpt>
      <trkpt lat="44.56557" lon="1.98797">
        <ele>315.45</ele>
        <time>2018-05-01T06:52:09Z</time>
      </trkpt>
      <trkpt lat="44.5654" lon="1.98792">
        <ele>315.93</ele>
        <time>2018-05-01T06:52:27Z</time>
      </trkpt>
      <trkpt lat="44.5651" lon="1.98802">
        <ele>316.41</ele>
        <time>2018-05-01T06:52:48Z</time>
      </trkpt>
      <trkpt lat="44.56498" lon="1.98788">
        <ele>314.01</ele>
        <time>2018-05-01T06:53:09Z</time>
      </trkpt>
      <trkpt lat="44.56506" lon="1.98769">
        <ele>314.49</ele>
        <time>2018-05-01T06:53:28Z</time>
      </trkpt>
      <trkpt lat="44.56513" lon="1.98759">
        <ele>314.49</ele>
        <time>2018-05-01T06:53:45Z</time>
      </trkpt>
      <trkpt lat="44.56519" lon="1.98743">
        <ele>314.97</ele>
        <time>2018-05-01T06:53:59Z</time>
      </trkpt>
      <trkpt lat="44.56526" lon="1.98731">
        <ele>317.85</ele>
        <time>2018-05-01T06:54:20Z</time>
      </trkpt>
      <trkpt lat="44.56523" lon="1.98731">
        <ele>317.85</ele>
        <time>2018-05-01T06:54:45Z</time>
      </trkpt>
      <trkpt lat="44.56527" lon="1.98723">
        <ele>321.22</ele>
        <time>2018-05-01T06:55:07Z</time>
      </trkpt>
      <trkpt lat="44.56541" lon="1.98706">
        <ele>307.28</ele>
        <time>2018-05-01T07:09:12Z</time>
      </trkpt>
      <trkpt lat="44.56525" lon="1.98703">
        <ele>308.24</ele>
        <time>2018-05-01T07:09:31Z</time>
      </trkpt>
      <trkpt lat="44.56523" lon="1.98704">
        <ele>309.68</ele>
        <time>2018-05-01T07:09:42Z</time>
      </trkpt>
      <trkpt lat="44.56529" lon="1.98708">
        <ele>315.45</ele>
        <time>2018-05-01T07:10:11Z</time>
      </trkpt>
      <trkpt lat="44.56532" lon="1.98689">
        <ele>323.62</ele>
        <time>2018-05-01T07:10:33Z</time>
      </trkpt>
      <trkpt lat="44.56537" lon="1.9866">
        <ele>325.54</ele>
        <time>2018-05-01T07:10:57Z</time>
      </trkpt>
      <trkpt lat="44.56532" lon="1.98661">
        <ele>326.02</ele>
        <time>2018-05-01T07:11:03Z</time>
      </trkpt>
      <trkpt lat="44.56514" lon="1.98645">
        <ele>326.99</ele>
        <time>2018-05-01T07:12:16Z</time>
      </trkpt>
      <trkpt lat="44.56509" lon="1.98642">
        <ele>326.5</ele>
        <time>2018-05-01T07:12:38Z</time>
      </trkpt>
      <trkpt lat="44.56512" lon="1.98631">
        <ele>327.47</ele>
        <time>2018-05-01T07:12:58Z</time>
      </trkpt>
      <trkpt lat="44.56519" lon="1.98605">
        <ele>328.43</ele>
        <time>2018-05-01T07:13:17Z</time>
      </trkpt>
      <trkpt lat="44.56515" lon="1.98591">
        <ele>330.35</ele>
        <time>2018-05-01T07:13:38Z</time>
      </trkpt>
      <trkpt lat="44.56515" lon="1.98593">
        <ele>327.47</ele>
        <time>2018-05-01T07:14:14Z</time>
      </trkpt>
      <trkpt lat="44.56516" lon="1.98594">
        <ele>327.47</ele>
        <time>2018-05-01T07:14:43Z</time>
      </trkpt>
      <trkpt lat="44.56516" lon="1.98591">
        <ele>327.47</ele>
        <time>2018-05-01T07:15:13Z</time>
      </trkpt>
      <trkpt lat="44.5652" lon="1.98593">
        <ele>327.95</ele>
        <time>2018-05-01T07:15:42Z</time>
      </trkpt>
      <trkpt lat="44.56524" lon="1.98585">
        <ele>329.39</ele>
        <time>2018-05-01T07:16:01Z</time>
      </trkpt>
      <trkpt lat="44.56527" lon="1.98575">
        <ele>329.39</ele>
        <time>2018-05-01T07:16:19Z</time>
      </trkpt>
      <trkpt lat="44.56525" lon="1.98578">
        <ele>329.39</ele>
        <time>2018-05-01T07:16:42Z</time>
      </trkpt>
      <trkpt lat="44.56529" lon="1.98553">
        <ele>329.39</ele>
        <time>2018-05-01T07:17:03Z</time>
      </trkpt>
      <trkpt lat="44.56534" lon="1.98528">
        <ele>329.39</ele>
        <time>2018-05-01T07:17:24Z</time>
      </trkpt>
      <trkpt lat="44.56523" lon="1.98488">
        <ele>331.31</ele>
        <time>2018-05-01T07:17:44Z</time>
      </trkpt>
      <trkpt lat="44.56511" lon="1.98462">
        <ele>330.83</ele>
        <time>2018-05-01T07:18:08Z</time>
      </trkpt>
      <trkpt lat="44.56499" lon="1.98434">
        <ele>327.47</ele>
        <time>2018-05-01T07:18:30Z</time>
      </trkpt>
      <trkpt lat="44.56496" lon="1.98397">
        <ele>319.78</ele>
        <time>2018-05-01T07:18:53Z</time>
      </trkpt>
      <trkpt lat="44.56494" lon="1.98372">
        <ele>311.6</ele>
        <time>2018-05-01T07:19:13Z</time>
      </trkpt>
      <trkpt lat="44.56502" lon="1.98359">
        <ele>301.03</ele>
        <time>2018-05-01T07:19:32Z</time>
      </trkpt>
      <trkpt lat="44.56508" lon="1.98341">
        <ele>291.42</ele>
        <time>2018-05-01T07:19:51Z</time>
      </trkpt>
      <trkpt lat="44.56515" lon="1.98298">
        <ele>290.94</ele>
        <time>2018-05-01T07:20:13Z</time>
      </trkpt>
      <trkpt lat="44.56508" lon="1.98265">
        <ele>289.49</ele>
        <time>2018-05-01T07:20:32Z</time>
      </trkpt>
      <trkpt lat="44.56519" lon="1.98235">
        <ele>289.97</ele>
        <time>2018-05-01T07:20:55Z</time>
      </trkpt>
      <trkpt lat="44.56526" lon="1.98215">
        <ele>289.97</ele>
        <time>2018-05-01T07:21:16Z</time>
      </trkpt>
      <trkpt lat="44.56526" lon="1.98174">
        <ele>289.97</ele>
        <time>2018-05-01T07:21:41Z</time>
      </trkpt>
      <trkpt lat="44.56527" lon="1.98149">
        <ele>290.46</ele>
        <time>2018-05-01T07:22:04Z</time>
      </trkpt>
      <trkpt lat="44.56511" lon="1.98132">
        <ele>288.05</ele>
        <time>2018-05-01T07:22:26Z</time>
      </trkpt>
      <trkpt lat="44.56491" lon="1.98102">
        <ele>287.57</ele>
        <time>2018-05-01T07:22:51Z</time>
      </trkpt>
      <trkpt lat="44.56461" lon="1.98026">
        <ele>308.24</ele>
        <time>2018-05-01T07:23:14Z</time>
      </trkpt>
      <trkpt lat="44.56458" lon="1.97993">
        <ele>314.01</ele>
        <time>2018-05-01T07:23:37Z</time>
      </trkpt>
      <trkpt lat="44.56457" lon="1.97975">
        <ele>313.53</ele>
        <time>2018-05-01T07:23:56Z</time>
      </trkpt>
      <trkpt lat="44.56448" lon="1.97944">
        <ele>313.05</ele>
        <time>2018-05-01T07:24:21Z</time>
      </trkpt>
      <trkpt lat="44.56437" lon="1.97918">
        <ele>312.09</ele>
        <time>2018-05-01T07:24:42Z</time>
      </trkpt>
      <trkpt lat="44.56421" lon="1.97891">
        <ele>310.64</ele>
        <time>2018-05-01T07:25:02Z</time>
      </trkpt>
      <trkpt lat="44.56393" lon="1.97867">
        <ele>308.72</ele>
        <time>2018-05-01T07:25:27Z</time>
      </trkpt>
      <trkpt lat="44.56368" lon="1.97855">
        <ele>308.72</ele>
        <time>2018-05-01T07:25:48Z</time>
      </trkpt>
      <trkpt lat="44.56351" lon="1.97828">
        <ele>311.12</ele>
        <time>2018-05-01T07:26:12Z</time>
      </trkpt>
      <trkpt lat="44.56334" lon="1.97801">
        <ele>312.57</ele>
        <time>2018-05-01T07:26:36Z</time>
      </trkpt>
      <trkpt lat="44.56315" lon="1.97781">
        <ele>315.45</ele>
        <time>2018-05-01T07:27:00Z</time>
      </trkpt>
      <trkpt lat="44.56295" lon="1.97767">
        <ele>312.57</ele>
        <time>2018-05-01T07:27:21Z</time>
      </trkpt>
      <trkpt lat="44.56279" lon="1.97759">
        <ele>311.12</ele>
        <time>2018-05-01T07:27:45Z</time>
      </trkpt>
      <trkpt lat="44.56252" lon="1.97755">
        <ele>305.36</ele>
        <time>2018-05-01T07:28:09Z</time>
      </trkpt>
      <trkpt lat="44.56231" lon="1.97751">
        <ele>305.84</ele>
        <time>2018-05-01T07:28:29Z</time>
      </trkpt>
      <trkpt lat="44.56221" lon="1.97715">
        <ele>311.6</ele>
        <time>2018-05-01T07:28:48Z</time>
      </trkpt>
      <trkpt lat="44.56212" lon="1.97691">
        <ele>312.09</ele>
        <time>2018-05-01T07:29:09Z</time>
      </trkpt>
      <trkpt lat="44.56198" lon="1.9766">
        <ele>312.57</ele>
        <time>2018-05-01T07:29:29Z</time>
      </trkpt>
      <trkpt lat="44.56186" lon="1.97627">
        <ele>314.01</ele>
        <time>2018-05-01T07:29:52Z</time>
      </trkpt>
      <trkpt lat="44.56174" lon="1.97598">
        <ele>315.45</ele>
        <time>2018-05-01T07:30:14Z</time>
      </trkpt>
      <trkpt lat="44.56187" lon="1.97586">
        <ele>318.81</ele>
        <time>2018-05-01T07:30:33Z</time>
      </trkpt>
      <trkpt lat="44.56183" lon="1.97574">
        <ele>318.81</ele>
        <time>2018-05-01T07:30:50Z</time>
      </trkpt>
      <trkpt lat="44.56163" lon="1.97563">
        <ele>320.26</ele>
        <time>2018-05-01T07:31:09Z</time>
      </trkpt>
      <trkpt lat="44.56152" lon="1.97562">
        <ele>321.7</ele>
        <time>2018-05-01T07:31:17Z</time>
      </trkpt>
      <trkpt lat="44.56139" lon="1.97559">
        <ele>323.14</ele>
        <time>2018-05-01T07:31:34Z</time>
      </trkpt>
      <trkpt lat="44.5615" lon="1.97539">
        <ele>323.62</ele>
        <time>2018-05-01T07:31:53Z</time>
      </trkpt>
      <trkpt lat="44.5615" lon="1.97536">
        <ele>323.62</ele>
        <time>2018-05-01T07:31:55Z</time>
      </trkpt>
      <trkpt lat="44.56145" lon="1.975">
        <ele>325.54</ele>
        <time>2018-05-01T07:32:18Z</time>
      </trkpt>
      <trkpt lat="44.56139" lon="1.97469">
        <ele>322.66</ele>
        <time>2018-05-01T07:32:40Z</time>
      </trkpt>
      <trkpt lat="44.56133" lon="1.97435">
        <ele>323.62</ele>
        <time>2018-05-01T07:33:00Z</time>
      </trkpt>
      <trkpt lat="44.56137" lon="1.9741">
        <ele>321.7</ele>
        <time>2018-05-01T07:33:22Z</time>
      </trkpt>
      <trkpt lat="44.56134" lon="1.97363">
        <ele>320.74</ele>
        <time>2018-05-01T07:33:46Z</time>
      </trkpt>
      <trkpt lat="44.56143" lon="1.97318">
        <ele>326.5</ele>
        <time>2018-05-01T07:34:08Z</time>
      </trkpt>
      <trkpt lat="44.56154" lon="1.97289">
        <ele>328.43</ele>
        <time>2018-05-01T07:34:32Z</time>
      </trkpt>
      <trkpt lat="44.56164" lon="1.97258">
        <ele>329.87</ele>
        <time>2018-05-01T07:34:50Z</time>
      </trkpt>
      <trkpt lat="44.56171" lon="1.97223">
        <ele>332.75</ele>
        <time>2018-05-01T07:35:11Z</time>
      </trkpt>
      <trkpt lat="44.56169" lon="1.97188">
        <ele>333.23</ele>
        <time>2018-05-01T07:35:34Z</time>
      </trkpt>
      <trkpt lat="44.56173" lon="1.97152">
        <ele>332.75</ele>
        <time>2018-05-01T07:35:54Z</time>
      </trkpt>
      <trkpt lat="44.56172" lon="1.97111">
        <ele>335.64</ele>
        <time>2018-05-01T07:36:11Z</time>
      </trkpt>
      <trkpt lat="44.5617" lon="1.97072">
        <ele>335.16</ele>
        <time>2018-05-01T07:36:31Z</time>
      </trkpt>
      <trkpt lat="44.56164" lon="1.97039">
        <ele>334.68</ele>
        <time>2018-05-01T07:36:52Z</time>
      </trkpt>
      <trkpt lat="44.56157" lon="1.96998">
        <ele>333.23</ele>
        <time>2018-05-01T07:37:13Z</time>
      </trkpt>
      <trkpt lat="44.5615" lon="1.96959">
        <ele>328.43</ele>
        <time>2018-05-01T07:37:35Z</time>
      </trkpt>
      <trkpt lat="44.56156" lon="1.96929">
        <ele>324.1</ele>
        <time>2018-05-01T07:37:54Z</time>
      </trkpt>
      <trkpt lat="44.56156" lon="1.96897">
        <ele>321.22</ele>
        <time>2018-05-01T07:38:12Z</time>
      </trkpt>
      <trkpt lat="44.56144" lon="1.96879">
        <ele>315.45</ele>
        <time>2018-05-01T07:38:33Z</time>
      </trkpt>
      <trkpt lat="44.56126" lon="1.96846">
        <ele>313.53</ele>
        <time>2018-05-01T07:38:54Z</time>
      </trkpt>
      <trkpt lat="44.56115" lon="1.96825">
        <ele>311.6</ele>
        <time>2018-05-01T07:39:17Z</time>
      </trkpt>
      <trkpt lat="44.56104" lon="1.96791">
        <ele>311.12</ele>
        <time>2018-05-01T07:39:40Z</time>
      </trkpt>
      <trkpt lat="44.56091" lon="1.96746">
        <ele>317.85</ele>
        <time>2018-05-01T07:40:03Z</time>
      </trkpt>
      <trkpt lat="44.56089" lon="1.96728">
        <ele>313.05</ele>
        <time>2018-05-01T07:40:25Z</time>
      </trkpt>
      <trkpt lat="44.56078" lon="1.96675">
        <ele>317.85</ele>
        <time>2018-05-01T07:40:51Z</time>
      </trkpt>
      <trkpt lat="44.56078" lon="1.96659">
        <ele>313.05</ele>
        <time>2018-05-01T07:41:11Z</time>
      </trkpt>
      <trkpt lat="44.56075" lon="1.96632">
        <ele>309.2</ele>
        <time>2018-05-01T07:41:32Z</time>
      </trkpt>
      <trkpt lat="44.5607" lon="1.96587">
        <ele>304.88</ele>
        <time>2018-05-01T07:41:56Z</time>
      </trkpt>
      <trkpt lat="44.56064" lon="1.96548">
        <ele>301.99</ele>
        <time>2018-05-01T07:42:19Z</time>
      </trkpt>
      <trkpt lat="44.56055" lon="1.96504">
        <ele>302.95</ele>
        <time>2018-05-01T07:42:38Z</time>
      </trkpt>
      <trkpt lat="44.56055" lon="1.96476">
        <ele>304.39</ele>
        <time>2018-05-01T07:42:55Z</time>
      </trkpt>
      <trkpt lat="44.56073" lon="1.96461">
        <ele>310.16</ele>
        <time>2018-05-01T07:43:17Z</time>
      </trkpt>
      <trkpt lat="44.56088" lon="1.96435">
        <ele>318.33</ele>
        <time>2018-05-01T07:43:37Z</time>
      </trkpt>
      <trkpt lat="44.56108" lon="1.96405">
        <ele>325.54</ele>
        <time>2018-05-01T07:43:55Z</time>
      </trkpt>
      <trkpt lat="44.56116" lon="1.96387">
        <ele>327.47</ele>
        <time>2018-05-01T07:44:10Z</time>
      </trkpt>
      <trkpt lat="44.56127" lon="1.96357">
        <ele>326.99</ele>
        <time>2018-05-01T07:44:30Z</time>
      </trkpt>
      <trkpt lat="44.56139" lon="1.96339">
        <ele>328.43</ele>
        <time>2018-05-01T07:44:42Z</time>
      </trkpt>
      <trkpt lat="44.56157" lon="1.96315">
        <ele>331.79</ele>
        <time>2018-05-01T07:45:03Z</time>
      </trkpt>
      <trkpt lat="44.56164" lon="1.96308">
        <ele>331.31</ele>
        <time>2018-05-01T07:45:10Z</time>
      </trkpt>
      <trkpt lat="44.56182" lon="1.96287">
        <ele>330.83</ele>
        <time>2018-05-01T07:45:30Z</time>
      </trkpt>
      <trkpt lat="44.56204" lon="1.96259">
        <ele>329.39</ele>
        <time>2018-05-01T07:45:54Z</time>
      </trkpt>
      <trkpt lat="44.56224" lon="1.96223">
        <ele>328.43</ele>
        <time>2018-05-01T07:46:14Z</time>
      </trkpt>
      <trkpt lat="44.56238" lon="1.96193">
        <ele>329.87</ele>
        <time>2018-05-01T07:46:35Z</time>
      </trkpt>
      <trkpt lat="44.56251" lon="1.96176">
        <ele>332.75</ele>
        <time>2018-05-01T07:46:50Z</time>
      </trkpt>
      <trkpt lat="44.56266" lon="1.96151">
        <ele>334.68</ele>
        <time>2018-05-01T07:47:11Z</time>
      </trkpt>
      <trkpt lat="44.56278" lon="1.9613">
        <ele>333.71</ele>
        <time>2018-05-01T07:47:30Z</time>
      </trkpt>
      <trkpt lat="44.56293" lon="1.96108">
        <ele>332.27</ele>
        <time>2018-05-01T07:47:50Z</time>
      </trkpt>
      <trkpt lat="44.56308" lon="1.96085">
        <ele>330.35</ele>
        <time>2018-05-01T07:48:11Z</time>
      </trkpt>
      <trkpt lat="44.5632" lon="1.96043">
        <ele>332.27</ele>
        <time>2018-05-01T07:48:32Z</time>
      </trkpt>
      <trkpt lat="44.5633" lon="1.96016">
        <ele>332.27</ele>
        <time>2018-05-01T07:48:53Z</time>
      </trkpt>
      <trkpt lat="44.56335" lon="1.96007">
        <ele>331.31</ele>
        <time>2018-05-01T07:48:59Z</time>
      </trkpt>
      <trkpt lat="44.56358" lon="1.95969">
        <ele>330.83</ele>
        <time>2018-05-01T07:49:20Z</time>
      </trkpt>
      <trkpt lat="44.56366" lon="1.95946">
        <ele>331.79</ele>
        <time>2018-05-01T07:49:40Z</time>
      </trkpt>
      <trkpt lat="44.56365" lon="1.9592">
        <ele>331.79</ele>
        <time>2018-05-01T07:49:58Z</time>
      </trkpt>
      <trkpt lat="44.56365" lon="1.95915">
        <ele>331.31</ele>
        <time>2018-05-01T07:50:02Z</time>
      </trkpt>
      <trkpt lat="44.56366" lon="1.95879">
        <ele>329.39</ele>
        <time>2018-05-01T07:50:27Z</time>
      </trkpt>
      <trkpt lat="44.56371" lon="1.95846">
        <ele>326.02</ele>
        <time>2018-05-01T07:50:49Z</time>
      </trkpt>
      <trkpt lat="44.56374" lon="1.95834">
        <ele>325.54</ele>
        <time>2018-05-01T07:50:55Z</time>
      </trkpt>
      <trkpt lat="44.56381" lon="1.95804">
        <ele>324.58</ele>
        <time>2018-05-01T07:51:16Z</time>
      </trkpt>
      <trkpt lat="44.56385" lon="1.95762">
        <ele>325.54</ele>
        <time>2018-05-01T07:51:39Z</time>
      </trkpt>
      <trkpt lat="44.56392" lon="1.95733">
        <ele>328.43</ele>
        <time>2018-05-01T07:51:57Z</time>
      </trkpt>
      <trkpt lat="44.56402" lon="1.95705">
        <ele>332.75</ele>
        <time>2018-05-01T07:52:19Z</time>
      </trkpt>
      <trkpt lat="44.56429" lon="1.95693">
        <ele>334.2</ele>
        <time>2018-05-01T07:52:44Z</time>
      </trkpt>
      <trkpt lat="44.56456" lon="1.95685">
        <ele>333.23</ele>
        <time>2018-05-01T07:53:04Z</time>
      </trkpt>
      <trkpt lat="44.56484" lon="1.95672">
        <ele>334.2</ele>
        <time>2018-05-01T07:53:27Z</time>
      </trkpt>
      <trkpt lat="44.565" lon="1.9566">
        <ele>333.71</ele>
        <time>2018-05-01T07:53:51Z</time>
      </trkpt>
      <trkpt lat="44.56522" lon="1.95653">
        <ele>331.79</ele>
        <time>2018-05-01T07:54:12Z</time>
      </trkpt>
      <trkpt lat="44.56544" lon="1.95652">
        <ele>328.91</ele>
        <time>2018-05-01T07:54:34Z</time>
      </trkpt>
      <trkpt lat="44.56586" lon="1.95659">
        <ele>327.95</ele>
        <time>2018-05-01T07:54:56Z</time>
      </trkpt>
      <trkpt lat="44.5662" lon="1.9568">
        <ele>330.83</ele>
        <time>2018-05-01T07:55:16Z</time>
      </trkpt>
      <trkpt lat="44.56637" lon="1.95691">
        <ele>333.71</ele>
        <time>2018-05-01T07:55:34Z</time>
      </trkpt>
      <trkpt lat="44.56659" lon="1.95698">
        <ele>330.83</ele>
        <time>2018-05-01T07:55:56Z</time>
      </trkpt>
      <trkpt lat="44.56685" lon="1.95705">
        <ele>326.99</ele>
        <time>2018-05-01T07:56:19Z</time>
      </trkpt>
      <trkpt lat="44.56712" lon="1.95719">
        <ele>326.02</ele>
        <time>2018-05-01T07:56:37Z</time>
      </trkpt>
      <trkpt lat="44.56734" lon="1.95734">
        <ele>329.39</ele>
        <time>2018-05-01T07:56:51Z</time>
      </trkpt>
      <trkpt lat="44.56755" lon="1.95734">
        <ele>330.35</ele>
        <time>2018-05-01T07:57:11Z</time>
      </trkpt>
      <trkpt lat="44.56774" lon="1.95726">
        <ele>329.87</ele>
        <time>2018-05-01T07:57:36Z</time>
      </trkpt>
      <trkpt lat="44.56799" lon="1.9573">
        <ele>328.91</ele>
        <time>2018-05-01T07:57:57Z</time>
      </trkpt>
      <trkpt lat="44.56846" lon="1.95735">
        <ele>329.39</ele>
        <time>2018-05-01T07:58:21Z</time>
      </trkpt>
      <trkpt lat="44.56867" lon="1.9575">
        <ele>329.39</ele>
        <time>2018-05-01T07:58:42Z</time>
      </trkpt>
      <trkpt lat="44.56887" lon="1.95746">
        <ele>326.02</ele>
        <time>2018-05-01T07:59:03Z</time>
      </trkpt>
      <trkpt lat="44.56904" lon="1.95742">
        <ele>323.14</ele>
        <time>2018-05-01T07:59:23Z</time>
      </trkpt>
      <trkpt lat="44.56925" lon="1.95734">
        <ele>319.3</ele>
        <time>2018-05-01T07:59:44Z</time>
      </trkpt>
      <trkpt lat="44.56945" lon="1.95729">
        <ele>315.93</ele>
        <time>2018-05-01T08:00:05Z</time>
      </trkpt>
      <trkpt lat="44.56973" lon="1.9572">
        <ele>313.53</ele>
        <time>2018-05-01T08:00:25Z</time>
      </trkpt>
      <trkpt lat="44.56993" lon="1.95711">
        <ele>309.68</ele>
        <time>2018-05-01T08:00:46Z</time>
      </trkpt>
      <trkpt lat="44.57025" lon="1.95705">
        <ele>306.32</ele>
        <time>2018-05-01T08:01:06Z</time>
      </trkpt>
      <trkpt lat="44.57055" lon="1.95699">
        <ele>302.95</ele>
        <time>2018-05-01T08:01:28Z</time>
      </trkpt>
      <trkpt lat="44.57087" lon="1.95687">
        <ele>300.07</ele>
        <time>2018-05-01T08:01:51Z</time>
      </trkpt>
      <trkpt lat="44.57119" lon="1.95677">
        <ele>300.07</ele>
        <time>2018-05-01T08:02:12Z</time>
      </trkpt>
      <trkpt lat="44.57144" lon="1.95675">
        <ele>297.18</ele>
        <time>2018-05-01T08:02:33Z</time>
      </trkpt>
      <trkpt lat="44.57166" lon="1.95667">
        <ele>295.26</ele>
        <time>2018-05-01T08:02:55Z</time>
      </trkpt>
      <trkpt lat="44.57203" lon="1.95653">
        <ele>300.55</ele>
        <time>2018-05-01T08:03:16Z</time>
      </trkpt>
      <trkpt lat="44.57219" lon="1.95654">
        <ele>299.59</ele>
        <time>2018-05-01T08:03:36Z</time>
      </trkpt>
      <trkpt lat="44.57243" lon="1.95658">
        <ele>298.15</ele>
        <time>2018-05-01T08:03:57Z</time>
      </trkpt>
      <trkpt lat="44.57271" lon="1.95663">
        <ele>298.15</ele>
        <time>2018-05-01T08:04:22Z</time>
      </trkpt>
      <trkpt lat="44.5728" lon="1.95666">
        <ele>298.15</ele>
        <time>2018-05-01T08:04:45Z</time>
      </trkpt>
      <trkpt lat="44.57297" lon="1.95663">
        <ele>299.11</ele>
        <time>2018-05-01T08:05:04Z</time>
      </trkpt>
      <trkpt lat="44.57329" lon="1.95656">
        <ele>298.63</ele>
        <time>2018-05-01T08:05:28Z</time>
      </trkpt>
      <trkpt lat="44.57359" lon="1.95634">
        <ele>300.55</ele>
        <time>2018-05-01T08:05:50Z</time>
      </trkpt>
      <trkpt lat="44.57379" lon="1.95605">
        <ele>301.51</ele>
        <time>2018-05-01T08:06:13Z</time>
      </trkpt>
      <trkpt lat="44.57401" lon="1.95581">
        <ele>300.07</ele>
        <time>2018-05-01T08:06:37Z</time>
      </trkpt>
      <trkpt lat="44.57409" lon="1.95575">
        <ele>300.55</ele>
        <time>2018-05-01T08:06:43Z</time>
      </trkpt>
      <trkpt lat="44.5744" lon="1.95562">
        <ele>298.63</ele>
        <time>2018-05-01T08:07:05Z</time>
      </trkpt>
      <trkpt lat="44.57456" lon="1.95543">
        <ele>295.74</ele>
        <time>2018-05-01T08:07:28Z</time>
      </trkpt>
      <trkpt lat="44.57485" lon="1.95526">
        <ele>292.86</ele>
        <time>2018-05-01T08:07:51Z</time>
      </trkpt>
      <trkpt lat="44.57502" lon="1.95513">
        <ele>289.97</ele>
        <time>2018-05-01T08:08:11Z</time>
      </trkpt>
      <trkpt lat="44.57532" lon="1.95496">
        <ele>287.57</ele>
        <time>2018-05-01T08:08:34Z</time>
      </trkpt>
      <trkpt lat="44.57565" lon="1.95496">
        <ele>281.32</ele>
        <time>2018-05-01T08:08:55Z</time>
      </trkpt>
      <trkpt lat="44.57585" lon="1.95481">
        <ele>273.63</ele>
        <time>2018-05-01T08:09:16Z</time>
      </trkpt>
      <trkpt lat="44.57606" lon="1.95461">
        <ele>270.27</ele>
        <time>2018-05-01T08:09:36Z</time>
      </trkpt>
      <trkpt lat="44.57636" lon="1.95455">
        <ele>273.15</ele>
        <time>2018-05-01T08:09:56Z</time>
      </trkpt>
      <trkpt lat="44.57659" lon="1.95461">
        <ele>276.52</ele>
        <time>2018-05-01T08:10:15Z</time>
      </trkpt>
      <trkpt lat="44.57674" lon="1.9545">
        <ele>277.96</ele>
        <time>2018-05-01T08:10:36Z</time>
      </trkpt>
      <trkpt lat="44.57686" lon="1.95427">
        <ele>277.96</ele>
        <time>2018-05-01T08:10:57Z</time>
      </trkpt>
      <trkpt lat="44.57695" lon="1.954">
        <ele>277</ele>
        <time>2018-05-01T08:11:14Z</time>
      </trkpt>
      <trkpt lat="44.57706" lon="1.95363">
        <ele>277</ele>
        <time>2018-05-01T08:11:36Z</time>
      </trkpt>
      <trkpt lat="44.57707" lon="1.9533">
        <ele>278.92</ele>
        <time>2018-05-01T08:11:54Z</time>
      </trkpt>
      <trkpt lat="44.57704" lon="1.95306">
        <ele>277.48</ele>
        <time>2018-05-01T08:12:12Z</time>
      </trkpt>
      <trkpt lat="44.57709" lon="1.9527">
        <ele>276.52</ele>
        <time>2018-05-01T08:12:32Z</time>
      </trkpt>
      <trkpt lat="44.57713" lon="1.95238">
        <ele>276.04</ele>
        <time>2018-05-01T08:12:54Z</time>
      </trkpt>
      <trkpt lat="44.57729" lon="1.9521">
        <ele>278.92</ele>
        <time>2018-05-01T08:13:14Z</time>
      </trkpt>
      <trkpt lat="44.57746" lon="1.95187">
        <ele>278.44</ele>
        <time>2018-05-01T08:13:33Z</time>
      </trkpt>
      <trkpt lat="44.57759" lon="1.95174">
        <ele>275.56</ele>
        <time>2018-05-01T08:13:46Z</time>
      </trkpt>
      <trkpt lat="44.57775" lon="1.95139">
        <ele>272.67</ele>
        <time>2018-05-01T08:14:08Z</time>
      </trkpt>
      <trkpt lat="44.57796" lon="1.95109">
        <ele>269.79</ele>
        <time>2018-05-01T08:14:31Z</time>
      </trkpt>
      <trkpt lat="44.57811" lon="1.95086">
        <ele>268.35</ele>
        <time>2018-05-01T08:14:50Z</time>
      </trkpt>
      <trkpt lat="44.57831" lon="1.95056">
        <ele>264.98</ele>
        <time>2018-05-01T08:15:12Z</time>
      </trkpt>
      <trkpt lat="44.57845" lon="1.95021">
        <ele>261.62</ele>
        <time>2018-05-01T08:15:38Z</time>
      </trkpt>
      <trkpt lat="44.57835" lon="1.95003">
        <ele>257.77</ele>
        <time>2018-05-01T08:15:54Z</time>
      </trkpt>
      <trkpt lat="44.57836" lon="1.94987">
        <ele>250.08</ele>
        <time>2018-05-01T08:16:16Z</time>
      </trkpt>
      <trkpt lat="44.57861" lon="1.9498">
        <ele>242.87</ele>
        <time>2018-05-01T08:16:38Z</time>
      </trkpt>
      <trkpt lat="44.57864" lon="1.94954">
        <ele>236.62</ele>
        <time>2018-05-01T08:17:04Z</time>
      </trkpt>
      <trkpt lat="44.57852" lon="1.94937">
        <ele>242.39</ele>
        <time>2018-05-01T08:17:25Z</time>
      </trkpt>
      <trkpt lat="44.57864" lon="1.94903">
        <ele>247.68</ele>
        <time>2018-05-01T08:17:48Z</time>
      </trkpt>
      <trkpt lat="44.57871" lon="1.94881">
        <ele>244.31</ele>
        <time>2018-05-01T08:18:09Z</time>
      </trkpt>
      <trkpt lat="44.5787" lon="1.94851">
        <ele>239.02</ele>
        <time>2018-05-01T08:18:31Z</time>
      </trkpt>
      <trkpt lat="44.57861" lon="1.94811">
        <ele>237.1</ele>
        <time>2018-05-01T08:18:54Z</time>
      </trkpt>
      <trkpt lat="44.57854" lon="1.9478">
        <ele>238.54</ele>
        <time>2018-05-01T08:19:12Z</time>
      </trkpt>
      <trkpt lat="44.5784" lon="1.94747">
        <ele>238.54</ele>
        <time>2018-05-01T08:19:31Z</time>
      </trkpt>
      <trkpt lat="44.57836" lon="1.94716">
        <ele>233.74</ele>
        <time>2018-05-01T08:19:54Z</time>
      </trkpt>
      <trkpt lat="44.57844" lon="1.94679">
        <ele>224.61</ele>
        <time>2018-05-01T08:20:18Z</time>
      </trkpt>
      <trkpt lat="44.57856" lon="1.94642">
        <ele>219.32</ele>
        <time>2018-05-01T08:20:41Z</time>
      </trkpt>
      <trkpt lat="44.57843" lon="1.94591">
        <ele>234.22</ele>
        <time>2018-05-01T08:21:02Z</time>
      </trkpt>
      <trkpt lat="44.57819" lon="1.94557">
        <ele>248.16</ele>
        <time>2018-05-01T08:21:22Z</time>
      </trkpt>
      <trkpt lat="44.57808" lon="1.9452">
        <ele>256.33</ele>
        <time>2018-05-01T08:21:43Z</time>
      </trkpt>
      <trkpt lat="44.57796" lon="1.94486">
        <ele>264.02</ele>
        <time>2018-05-01T08:22:02Z</time>
      </trkpt>
      <trkpt lat="44.57779" lon="1.9445">
        <ele>269.79</ele>
        <time>2018-05-01T08:22:24Z</time>
      </trkpt>
      <trkpt lat="44.5777" lon="1.94412">
        <ele>275.07</ele>
        <time>2018-05-01T08:22:43Z</time>
      </trkpt>
      <trkpt lat="44.57765" lon="1.94385">
        <ele>273.63</ele>
        <time>2018-05-01T08:23:05Z</time>
      </trkpt>
      <trkpt lat="44.5776" lon="1.94362">
        <ele>272.19</ele>
        <time>2018-05-01T08:23:24Z</time>
      </trkpt>
      <trkpt lat="44.5775" lon="1.94337">
        <ele>275.56</ele>
        <time>2018-05-01T08:23:40Z</time>
      </trkpt>
      <trkpt lat="44.57729" lon="1.94303">
        <ele>279.88</ele>
        <time>2018-05-01T08:24:02Z</time>
      </trkpt>
      <trkpt lat="44.5771" lon="1.94271">
        <ele>275.07</ele>
        <time>2018-05-01T08:24:26Z</time>
      </trkpt>
      <trkpt lat="44.57697" lon="1.94246">
        <ele>273.15</ele>
        <time>2018-05-01T08:24:48Z</time>
      </trkpt>
      <trkpt lat="44.57676" lon="1.9421">
        <ele>272.67</ele>
        <time>2018-05-01T08:25:11Z</time>
      </trkpt>
      <trkpt lat="44.57663" lon="1.94185">
        <ele>271.23</ele>
        <time>2018-05-01T08:25:32Z</time>
      </trkpt>
      <trkpt lat="44.57653" lon="1.94151">
        <ele>269.79</ele>
        <time>2018-05-01T08:25:57Z</time>
      </trkpt>
      <trkpt lat="44.57642" lon="1.94118">
        <ele>266.9</ele>
        <time>2018-05-01T08:26:21Z</time>
      </trkpt>
      <trkpt lat="44.57627" lon="1.94087">
        <ele>265.46</ele>
        <time>2018-05-01T08:26:43Z</time>
      </trkpt>
      <trkpt lat="44.57599" lon="1.94063">
        <ele>264.02</ele>
        <time>2018-05-01T08:27:04Z</time>
      </trkpt>
      <trkpt lat="44.57585" lon="1.94057">
        <ele>259.69</ele>
        <time>2018-05-01T08:27:23Z</time>
      </trkpt>
      <trkpt lat="44.5759" lon="1.94042">
        <ele>252.48</ele>
        <time>2018-05-01T08:27:45Z</time>
      </trkpt>
      <trkpt lat="44.57571" lon="1.94024">
        <ele>248.16</ele>
        <time>2018-05-01T08:28:04Z</time>
      </trkpt>
      <trkpt lat="44.57571" lon="1.94032">
        <ele>241.91</ele>
        <time>2018-05-01T08:28:26Z</time>
      </trkpt>
      <trkpt lat="44.57567" lon="1.9404">
        <ele>238.06</ele>
        <time>2018-05-01T08:28:42Z</time>
      </trkpt>
      <trkpt lat="44.57568" lon="1.94028">
        <ele>243.35</ele>
        <time>2018-05-01T08:28:59Z</time>
      </trkpt>
      <trkpt lat="44.57579" lon="1.94011">
        <ele>258.25</ele>
        <time>2018-05-01T08:29:23Z</time>
      </trkpt>
      <trkpt lat="44.57555" lon="1.93998">
        <ele>268.83</ele>
        <time>2018-05-01T08:29:43Z</time>
      </trkpt>
      <trkpt lat="44.57532" lon="1.93993">
        <ele>270.75</ele>
        <time>2018-05-01T08:30:04Z</time>
      </trkpt>
      <trkpt lat="44.57519" lon="1.93966">
        <ele>270.75</ele>
        <time>2018-05-01T08:30:25Z</time>
      </trkpt>
      <trkpt lat="44.57513" lon="1.93933">
        <ele>263.06</ele>
        <time>2018-05-01T08:30:45Z</time>
      </trkpt>
      <trkpt lat="44.57494" lon="1.93905">
        <ele>258.73</ele>
        <time>2018-05-01T08:31:04Z</time>
      </trkpt>
      <trkpt lat="44.57474" lon="1.93874">
        <ele>258.73</ele>
        <time>2018-05-01T08:31:25Z</time>
      </trkpt>
      <trkpt lat="44.57461" lon="1.93843">
        <ele>255.37</ele>
        <time>2018-05-01T08:31:45Z</time>
      </trkpt>
      <trkpt lat="44.5744" lon="1.93819">
        <ele>252.48</ele>
        <time>2018-05-01T08:32:08Z</time>
      </trkpt>
      <trkpt lat="44.57422" lon="1.93797">
        <ele>253.93</ele>
        <time>2018-05-01T08:32:30Z</time>
      </trkpt>
      <trkpt lat="44.57389" lon="1.9377">
        <ele>258.73</ele>
        <time>2018-05-01T08:32:53Z</time>
      </trkpt>
      <trkpt lat="44.57373" lon="1.93747">
        <ele>260.17</ele>
        <time>2018-05-01T08:33:12Z</time>
      </trkpt>
      <trkpt lat="44.5736" lon="1.93713">
        <ele>264.02</ele>
        <time>2018-05-01T08:33:37Z</time>
      </trkpt>
      <trkpt lat="44.57357" lon="1.93708">
        <ele>269.79</ele>
        <time>2018-05-01T08:33:57Z</time>
      </trkpt>
      <trkpt lat="44.57332" lon="1.9369">
        <ele>274.11</ele>
        <time>2018-05-01T08:34:24Z</time>
      </trkpt>
      <trkpt lat="44.57317" lon="1.93665">
        <ele>274.59</ele>
        <time>2018-05-01T08:34:46Z</time>
      </trkpt>
      <trkpt lat="44.573" lon="1.93643">
        <ele>274.11</ele>
        <time>2018-05-01T08:35:09Z</time>
      </trkpt>
      <trkpt lat="44.57277" lon="1.93624">
        <ele>274.11</ele>
        <time>2018-05-01T08:35:32Z</time>
      </trkpt>
      <trkpt lat="44.57262" lon="1.93594">
        <ele>271.71</ele>
        <time>2018-05-01T08:35:56Z</time>
      </trkpt>
      <trkpt lat="44.57239" lon="1.93581">
        <ele>273.63</ele>
        <time>2018-05-01T08:36:15Z</time>
      </trkpt>
      <trkpt lat="44.57225" lon="1.93556">
        <ele>276.52</ele>
        <time>2018-05-01T08:36:39Z</time>
      </trkpt>
      <trkpt lat="44.5721" lon="1.93539">
        <ele>270.75</ele>
        <time>2018-05-01T08:37:03Z</time>
      </trkpt>
      <trkpt lat="44.57195" lon="1.93525">
        <ele>261.14</ele>
        <time>2018-05-01T08:37:28Z</time>
      </trkpt>
      <trkpt lat="44.5718" lon="1.93516">
        <ele>250.56</ele>
        <time>2018-05-01T08:37:49Z</time>
      </trkpt>
      <trkpt lat="44.57161" lon="1.93518">
        <ele>236.62</ele>
        <time>2018-05-01T08:38:13Z</time>
      </trkpt>
      <trkpt lat="44.57132" lon="1.93499">
        <ele>233.26</ele>
        <time>2018-05-01T08:38:35Z</time>
      </trkpt>
      <trkpt lat="44.57098" lon="1.93493">
        <ele>233.74</ele>
        <time>2018-05-01T08:38:56Z</time>
      </trkpt>
      <trkpt lat="44.57074" lon="1.93494">
        <ele>231.81</ele>
        <time>2018-05-01T08:39:15Z</time>
      </trkpt>
      <trkpt lat="44.57049" lon="1.93497">
        <ele>233.74</ele>
        <time>2018-05-01T08:39:35Z</time>
      </trkpt>
      <trkpt lat="44.57053" lon="1.93508">
        <ele>237.1</ele>
        <time>2018-05-01T08:40:12Z</time>
      </trkpt>
      <trkpt lat="44.57031" lon="1.93483">
        <ele>242.39</ele>
        <time>2018-05-01T08:41:02Z</time>
      </trkpt>
      <trkpt lat="44.5702" lon="1.9348">
        <ele>246.23</ele>
        <time>2018-05-01T08:41:26Z</time>
      </trkpt>
      <trkpt lat="44.5701" lon="1.93486">
        <ele>252</ele>
        <time>2018-05-01T08:41:46Z</time>
      </trkpt>
      <trkpt lat="44.57022" lon="1.93499">
        <ele>270.27</ele>
        <time>2018-05-01T08:42:15Z</time>
      </trkpt>
      <trkpt lat="44.57049" lon="1.93504">
        <ele>291.42</ele>
        <time>2018-05-01T08:42:42Z</time>
      </trkpt>
      <trkpt lat="44.57046" lon="1.93502">
        <ele>303.91</ele>
        <time>2018-05-01T08:43:16Z</time>
      </trkpt>
      <trkpt lat="44.57043" lon="1.93495">
        <ele>307.28</ele>
        <time>2018-05-01T08:43:43Z</time>
      </trkpt>
      <trkpt lat="44.57034" lon="1.93496">
        <ele>305.36</ele>
        <time>2018-05-01T08:43:55Z</time>
      </trkpt>
      <trkpt lat="44.5702" lon="1.93494">
        <ele>301.99</ele>
        <time>2018-05-01T08:44:12Z</time>
      </trkpt>
      <trkpt lat="44.57002" lon="1.9349">
        <ele>302.95</ele>
        <time>2018-05-01T08:44:27Z</time>
      </trkpt>
      <trkpt lat="44.56977" lon="1.93483">
        <ele>302.95</ele>
        <time>2018-05-01T08:44:49Z</time>
      </trkpt>
      <trkpt lat="44.5696" lon="1.93467">
        <ele>301.99</ele>
        <time>2018-05-01T08:45:07Z</time>
      </trkpt>
      <trkpt lat="44.56939" lon="1.93448">
        <ele>303.91</ele>
        <time>2018-05-01T08:45:27Z</time>
      </trkpt>
      <trkpt lat="44.56917" lon="1.93432">
        <ele>306.32</ele>
        <time>2018-05-01T08:45:48Z</time>
      </trkpt>
      <trkpt lat="44.56914" lon="1.93431">
        <ele>306.8</ele>
        <time>2018-05-01T08:45:50Z</time>
      </trkpt>
      <trkpt lat="44.56889" lon="1.9342">
        <ele>311.12</ele>
        <time>2018-05-01T08:46:11Z</time>
      </trkpt>
      <trkpt lat="44.56864" lon="1.93422">
        <ele>315.93</ele>
        <time>2018-05-01T08:46:31Z</time>
      </trkpt>
      <trkpt lat="44.56843" lon="1.9342">
        <ele>315.93</ele>
        <time>2018-05-01T08:46:50Z</time>
      </trkpt>
      <trkpt lat="44.56826" lon="1.9341">
        <ele>315.45</ele>
        <time>2018-05-01T08:47:08Z</time>
      </trkpt>
      <trkpt lat="44.56808" lon="1.93399">
        <ele>316.89</ele>
        <time>2018-05-01T08:47:26Z</time>
      </trkpt>
      <trkpt lat="44.56788" lon="1.93382">
        <ele>318.33</ele>
        <time>2018-05-01T08:47:49Z</time>
      </trkpt>
      <trkpt lat="44.56782" lon="1.93386">
        <ele>315.93</ele>
        <time>2018-05-01T08:48:08Z</time>
      </trkpt>
      <trkpt lat="44.56776" lon="1.93377">
        <ele>319.78</ele>
        <time>2018-05-01T08:48:33Z</time>
      </trkpt>
      <trkpt lat="44.56761" lon="1.93364">
        <ele>325.54</ele>
        <time>2018-05-01T08:48:57Z</time>
      </trkpt>
      <trkpt lat="44.56752" lon="1.93362">
        <ele>326.5</ele>
        <time>2018-05-01T08:49:21Z</time>
      </trkpt>
      <trkpt lat="44.56738" lon="1.93341">
        <ele>329.87</ele>
        <time>2018-05-01T08:49:45Z</time>
      </trkpt>
      <trkpt lat="44.56723" lon="1.93321">
        <ele>328.43</ele>
        <time>2018-05-01T08:50:05Z</time>
      </trkpt>
      <trkpt lat="44.56702" lon="1.93303">
        <ele>330.83</ele>
        <time>2018-05-01T08:50:28Z</time>
      </trkpt>
      <trkpt lat="44.56681" lon="1.93284">
        <ele>331.79</ele>
        <time>2018-05-01T08:50:53Z</time>
      </trkpt>
      <trkpt lat="44.56659" lon="1.93271">
        <ele>330.83</ele>
        <time>2018-05-01T08:51:15Z</time>
      </trkpt>
      <trkpt lat="44.5663" lon="1.9327">
        <ele>328.43</ele>
        <time>2018-05-01T08:51:38Z</time>
      </trkpt>
      <trkpt lat="44.56606" lon="1.93275">
        <ele>324.1</ele>
        <time>2018-05-01T08:52:00Z</time>
      </trkpt>
      <trkpt lat="44.5658" lon="1.93286">
        <ele>323.62</ele>
        <time>2018-05-01T08:52:20Z</time>
      </trkpt>
      <trkpt lat="44.56562" lon="1.93272">
        <ele>325.54</ele>
        <time>2018-05-01T08:52:38Z</time>
      </trkpt>
      <trkpt lat="44.56555" lon="1.93247">
        <ele>329.39</ele>
        <time>2018-05-01T08:52:58Z</time>
      </trkpt>
      <trkpt lat="44.56555" lon="1.93245">
        <ele>329.87</ele>
        <time>2018-05-01T08:52:59Z</time>
      </trkpt>
      <trkpt lat="44.5655" lon="1.93214">
        <ele>330.35</ele>
        <time>2018-05-01T08:53:20Z</time>
      </trkpt>
      <trkpt lat="44.56542" lon="1.93189">
        <ele>330.83</ele>
        <time>2018-05-01T08:53:41Z</time>
      </trkpt>
      <trkpt lat="44.56533" lon="1.93157">
        <ele>335.16</ele>
        <time>2018-05-01T08:54:02Z</time>
      </trkpt>
      <trkpt lat="44.56525" lon="1.93127">
        <ele>339</ele>
        <time>2018-05-01T08:54:23Z</time>
      </trkpt>
      <trkpt lat="44.56517" lon="1.93101">
        <ele>340.44</ele>
        <time>2018-05-01T08:54:43Z</time>
      </trkpt>
      <trkpt lat="44.56503" lon="1.9307">
        <ele>342.37</ele>
        <time>2018-05-01T08:55:08Z</time>
      </trkpt>
      <trkpt lat="44.56494" lon="1.93046">
        <ele>346.21</ele>
        <time>2018-05-01T08:55:27Z</time>
      </trkpt>
      <trkpt lat="44.56484" lon="1.93023">
        <ele>348.62</ele>
        <time>2018-05-01T08:55:51Z</time>
      </trkpt>
      <trkpt lat="44.56474" lon="1.92998">
        <ele>348.13</ele>
        <time>2018-05-01T08:56:10Z</time>
      </trkpt>
      <trkpt lat="44.56467" lon="1.9297">
        <ele>351.98</ele>
        <time>2018-05-01T08:56:32Z</time>
      </trkpt>
      <trkpt lat="44.56458" lon="1.92941">
        <ele>353.9</ele>
        <time>2018-05-01T08:56:55Z</time>
      </trkpt>
      <trkpt lat="44.56448" lon="1.92909">
        <ele>355.34</ele>
        <time>2018-05-01T08:57:20Z</time>
      </trkpt>
      <trkpt lat="44.56428" lon="1.92887">
        <ele>357.75</ele>
        <time>2018-05-01T08:57:44Z</time>
      </trkpt>
      <trkpt lat="44.56416" lon="1.9286">
        <ele>355.83</ele>
        <time>2018-05-01T08:58:10Z</time>
      </trkpt>
      <trkpt lat="44.56412" lon="1.92831">
        <ele>361.11</ele>
        <time>2018-05-01T08:58:32Z</time>
      </trkpt>
      <trkpt lat="44.56396" lon="1.92809">
        <ele>361.11</ele>
        <time>2018-05-01T08:58:52Z</time>
      </trkpt>
      <trkpt lat="44.56392" lon="1.92795">
        <ele>363.52</ele>
        <time>2018-05-01T08:58:56Z</time>
      </trkpt>
      <trkpt lat="44.56387" lon="1.92789">
        <ele>367.36</ele>
        <time>2018-05-01T08:59:00Z</time>
      </trkpt>
      <trkpt lat="44.56364" lon="1.92771">
        <ele>370.24</ele>
        <time>2018-05-01T08:59:20Z</time>
      </trkpt>
      <trkpt lat="44.56352" lon="1.92759">
        <ele>372.17</ele>
        <time>2018-05-01T08:59:32Z</time>
      </trkpt>
      <trkpt lat="44.56325" lon="1.92737">
        <ele>372.17</ele>
        <time>2018-05-01T08:59:53Z</time>
      </trkpt>
      <trkpt lat="44.56303" lon="1.92723">
        <ele>370.73</ele>
        <time>2018-05-01T09:00:15Z</time>
      </trkpt>
      <trkpt lat="44.56282" lon="1.92702">
        <ele>366.88</ele>
        <time>2018-05-01T09:00:36Z</time>
      </trkpt>
      <trkpt lat="44.56263" lon="1.92673">
        <ele>360.63</ele>
        <time>2018-05-01T09:01:01Z</time>
      </trkpt>
      <trkpt lat="44.5625" lon="1.92654">
        <ele>356.31</ele>
        <time>2018-05-01T09:01:21Z</time>
      </trkpt>
      <trkpt lat="44.56234" lon="1.92623">
        <ele>355.34</ele>
        <time>2018-05-01T09:01:44Z</time>
      </trkpt>
      <trkpt lat="44.56223" lon="1.92588">
        <ele>353.9</ele>
        <time>2018-05-01T09:02:10Z</time>
      </trkpt>
      <trkpt lat="44.56206" lon="1.92556">
        <ele>351.98</ele>
        <time>2018-05-01T09:02:33Z</time>
      </trkpt>
      <trkpt lat="44.56186" lon="1.92524">
        <ele>349.1</ele>
        <time>2018-05-01T09:02:52Z</time>
      </trkpt>
      <trkpt lat="44.56173" lon="1.92502">
        <ele>342.37</ele>
        <time>2018-05-01T09:03:15Z</time>
      </trkpt>
      <trkpt lat="44.5616" lon="1.92472">
        <ele>336.6</ele>
        <time>2018-05-01T09:03:36Z</time>
      </trkpt>
      <trkpt lat="44.56152" lon="1.92438">
        <ele>333.71</ele>
        <time>2018-05-01T09:03:57Z</time>
      </trkpt>
      <trkpt lat="44.56146" lon="1.92415">
        <ele>331.31</ele>
        <time>2018-05-01T09:04:18Z</time>
      </trkpt>
      <trkpt lat="44.56145" lon="1.92411">
        <ele>332.27</ele>
        <time>2018-05-01T09:04:40Z</time>
      </trkpt>
      <trkpt lat="44.56141" lon="1.92411">
        <ele>347.17</ele>
        <time>2018-05-01T09:05:05Z</time>
      </trkpt>
      <trkpt lat="44.56136" lon="1.92392">
        <ele>350.06</ele>
        <time>2018-05-01T09:05:29Z</time>
      </trkpt>
      <trkpt lat="44.56135" lon="1.92364">
        <ele>349.1</ele>
        <time>2018-05-01T09:05:50Z</time>
      </trkpt>
      <trkpt lat="44.56128" lon="1.92348">
        <ele>344.77</ele>
        <time>2018-05-01T09:06:09Z</time>
      </trkpt>
      <trkpt lat="44.56117" lon="1.92318">
        <ele>346.21</ele>
        <time>2018-05-01T09:06:29Z</time>
      </trkpt>
      <trkpt lat="44.56108" lon="1.92291">
        <ele>343.33</ele>
        <time>2018-05-01T09:06:50Z</time>
      </trkpt>
      <trkpt lat="44.561" lon="1.92264">
        <ele>335.16</ele>
        <time>2018-05-01T09:07:13Z</time>
      </trkpt>
      <trkpt lat="44.56082" lon="1.92232">
        <ele>340.92</ele>
        <time>2018-05-01T09:07:34Z</time>
      </trkpt>
      <trkpt lat="44.5606" lon="1.92198">
        <ele>345.73</ele>
        <time>2018-05-01T09:07:54Z</time>
      </trkpt>
      <trkpt lat="44.56044" lon="1.9217">
        <ele>345.25</ele>
        <time>2018-05-01T09:08:15Z</time>
      </trkpt>
      <trkpt lat="44.5603" lon="1.92137">
        <ele>342.37</ele>
        <time>2018-05-01T09:08:36Z</time>
      </trkpt>
      <trkpt lat="44.56025" lon="1.92107">
        <ele>337.56</ele>
        <time>2018-05-01T09:08:54Z</time>
      </trkpt>
      <trkpt lat="44.56026" lon="1.9207">
        <ele>333.23</ele>
        <time>2018-05-01T09:09:13Z</time>
      </trkpt>
      <trkpt lat="44.56023" lon="1.92044">
        <ele>330.35</ele>
        <time>2018-05-01T09:09:32Z</time>
      </trkpt>
      <trkpt lat="44.56019" lon="1.92002">
        <ele>330.35</ele>
        <time>2018-05-01T09:09:55Z</time>
      </trkpt>
      <trkpt lat="44.56014" lon="1.91963">
        <ele>328.43</ele>
        <time>2018-05-01T09:10:15Z</time>
      </trkpt>
      <trkpt lat="44.56007" lon="1.91937">
        <ele>326.5</ele>
        <time>2018-05-01T09:10:33Z</time>
      </trkpt>
      <trkpt lat="44.55997" lon="1.91897">
        <ele>335.64</ele>
        <time>2018-05-01T09:10:52Z</time>
      </trkpt>
      <trkpt lat="44.55987" lon="1.91861">
        <ele>338.04</ele>
        <time>2018-05-01T09:11:12Z</time>
      </trkpt>
      <trkpt lat="44.55969" lon="1.91824">
        <ele>338.04</ele>
        <time>2018-05-01T09:11:37Z</time>
      </trkpt>
      <trkpt lat="44.55961" lon="1.91796">
        <ele>335.64</ele>
        <time>2018-05-01T09:11:55Z</time>
      </trkpt>
      <trkpt lat="44.55951" lon="1.91758">
        <ele>332.27</ele>
        <time>2018-05-01T09:12:17Z</time>
      </trkpt>
      <trkpt lat="44.55948" lon="1.91733">
        <ele>329.87</ele>
        <time>2018-05-01T09:12:34Z</time>
      </trkpt>
      <trkpt lat="44.55943" lon="1.91701">
        <ele>325.06</ele>
        <time>2018-05-01T09:12:55Z</time>
      </trkpt>
      <trkpt lat="44.55935" lon="1.9168">
        <ele>323.14</ele>
        <time>2018-05-01T09:13:12Z</time>
      </trkpt>
      <trkpt lat="44.55928" lon="1.91706">
        <ele>326.99</ele>
        <time>2018-05-01T09:13:32Z</time>
      </trkpt>
      <trkpt lat="44.55913" lon="1.91739">
        <ele>335.16</ele>
        <time>2018-05-01T09:13:51Z</time>
      </trkpt>
      <trkpt lat="44.55894" lon="1.91764">
        <ele>340.92</ele>
        <time>2018-05-01T09:14:12Z</time>
      </trkpt>
      <trkpt lat="44.5587" lon="1.91779">
        <ele>344.77</ele>
        <time>2018-05-01T09:14:32Z</time>
      </trkpt>
      <trkpt lat="44.55842" lon="1.91785">
        <ele>349.58</ele>
        <time>2018-05-01T09:14:54Z</time>
      </trkpt>
      <trkpt lat="44.55813" lon="1.91789">
        <ele>351.98</ele>
        <time>2018-05-01T09:15:17Z</time>
      </trkpt>
      <trkpt lat="44.55787" lon="1.91791">
        <ele>351.98</ele>
        <time>2018-05-01T09:15:42Z</time>
      </trkpt>
      <trkpt lat="44.55764" lon="1.918">
        <ele>352.46</ele>
        <time>2018-05-01T09:16:03Z</time>
      </trkpt>
      <trkpt lat="44.55741" lon="1.91803">
        <ele>353.9</ele>
        <time>2018-05-01T09:16:23Z</time>
      </trkpt>
      <trkpt lat="44.55716" lon="1.91799">
        <ele>355.83</ele>
        <time>2018-05-01T09:16:45Z</time>
      </trkpt>
      <trkpt lat="44.5571" lon="1.91794">
        <ele>354.86</ele>
        <time>2018-05-01T09:16:53Z</time>
      </trkpt>
      <trkpt lat="44.55689" lon="1.91774">
        <ele>348.62</ele>
        <time>2018-05-01T09:17:14Z</time>
      </trkpt>
      <trkpt lat="44.55672" lon="1.91754">
        <ele>343.81</ele>
        <time>2018-05-01T09:17:31Z</time>
      </trkpt>
      <trkpt lat="44.55662" lon="1.91732">
        <ele>339</ele>
        <time>2018-05-01T09:17:48Z</time>
      </trkpt>
      <trkpt lat="44.55648" lon="1.91711">
        <ele>335.16</ele>
        <time>2018-05-01T09:18:05Z</time>
      </trkpt>
      <trkpt lat="44.55639" lon="1.91691">
        <ele>330.35</ele>
        <time>2018-05-01T09:18:23Z</time>
      </trkpt>
      <trkpt lat="44.55624" lon="1.91661">
        <ele>326.99</ele>
        <time>2018-05-01T09:18:45Z</time>
      </trkpt>
      <trkpt lat="44.55614" lon="1.91636">
        <ele>326.02</ele>
        <time>2018-05-01T09:19:03Z</time>
      </trkpt>
      <trkpt lat="44.55597" lon="1.91609">
        <ele>322.66</ele>
        <time>2018-05-01T09:19:25Z</time>
      </trkpt>
      <trkpt lat="44.55586" lon="1.91592">
        <ele>322.66</ele>
        <time>2018-05-01T09:19:37Z</time>
      </trkpt>
      <trkpt lat="44.55568" lon="1.91578">
        <ele>324.58</ele>
        <time>2018-05-01T09:19:52Z</time>
      </trkpt>
      <trkpt lat="44.55553" lon="1.91554">
        <ele>325.54</ele>
        <time>2018-05-01T09:20:11Z</time>
      </trkpt>
      <trkpt lat="44.55536" lon="1.91531">
        <ele>326.02</ele>
        <time>2018-05-01T09:20:30Z</time>
      </trkpt>
      <trkpt lat="44.55517" lon="1.91508">
        <ele>324.58</ele>
        <time>2018-05-01T09:20:50Z</time>
      </trkpt>
      <trkpt lat="44.55499" lon="1.91477">
        <ele>320.74</ele>
        <time>2018-05-01T09:21:12Z</time>
      </trkpt>
      <trkpt lat="44.55485" lon="1.91447">
        <ele>316.89</ele>
        <time>2018-05-01T09:21:34Z</time>
      </trkpt>
      <trkpt lat="44.55471" lon="1.91418">
        <ele>315.45</ele>
        <time>2018-05-01T09:21:53Z</time>
      </trkpt>
      <trkpt lat="44.55461" lon="1.91408">
        <ele>314.49</ele>
        <time>2018-05-01T09:22:08Z</time>
      </trkpt>
      <trkpt lat="44.5545" lon="1.91387">
        <ele>326.02</ele>
        <time>2018-05-01T09:22:20Z</time>
      </trkpt>
      <trkpt lat="44.55433" lon="1.9137">
        <ele>329.39</ele>
        <time>2018-05-01T09:22:36Z</time>
      </trkpt>
      <trkpt lat="44.55413" lon="1.9135">
        <ele>328.43</ele>
        <time>2018-05-01T09:22:56Z</time>
      </trkpt>
      <trkpt lat="44.55401" lon="1.91315">
        <ele>328.43</ele>
        <time>2018-05-01T09:23:17Z</time>
      </trkpt>
      <trkpt lat="44.55387" lon="1.91281">
        <ele>328.43</ele>
        <time>2018-05-01T09:23:41Z</time>
      </trkpt>
      <trkpt lat="44.55373" lon="1.9125">
        <ele>325.54</ele>
        <time>2018-05-01T09:24:04Z</time>
      </trkpt>
      <trkpt lat="44.55366" lon="1.91218">
        <ele>325.06</ele>
        <time>2018-05-01T09:24:25Z</time>
      </trkpt>
      <trkpt lat="44.55361" lon="1.91183">
        <ele>323.62</ele>
        <time>2018-05-01T09:24:46Z</time>
      </trkpt>
      <trkpt lat="44.55352" lon="1.91146">
        <ele>323.62</ele>
        <time>2018-05-01T09:25:09Z</time>
      </trkpt>
      <trkpt lat="44.5535" lon="1.9111">
        <ele>320.74</ele>
        <time>2018-05-01T09:25:31Z</time>
      </trkpt>
      <trkpt lat="44.55347" lon="1.91079">
        <ele>317.85</ele>
        <time>2018-05-01T09:25:52Z</time>
      </trkpt>
      <trkpt lat="44.55348" lon="1.91042">
        <ele>316.41</ele>
        <time>2018-05-01T09:26:14Z</time>
      </trkpt>
      <trkpt lat="44.55344" lon="1.91003">
        <ele>315.93</ele>
        <time>2018-05-01T09:26:33Z</time>
      </trkpt>
      <trkpt lat="44.55342" lon="1.90975">
        <ele>316.41</ele>
        <time>2018-05-01T09:26:52Z</time>
      </trkpt>
      <trkpt lat="44.55338" lon="1.90932">
        <ele>318.81</ele>
        <time>2018-05-01T09:27:15Z</time>
      </trkpt>
      <trkpt lat="44.55329" lon="1.90895">
        <ele>320.74</ele>
        <time>2018-05-01T09:27:37Z</time>
      </trkpt>
      <trkpt lat="44.55316" lon="1.90862">
        <ele>320.26</ele>
        <time>2018-05-01T09:28:00Z</time>
      </trkpt>
      <trkpt lat="44.55306" lon="1.90827">
        <ele>320.26</ele>
        <time>2018-05-01T09:28:24Z</time>
      </trkpt>
      <trkpt lat="44.55299" lon="1.90807">
        <ele>319.78</ele>
        <time>2018-05-01T09:28:35Z</time>
      </trkpt>
      <trkpt lat="44.55281" lon="1.9078">
        <ele>320.26</ele>
        <time>2018-05-01T09:28:54Z</time>
      </trkpt>
      <trkpt lat="44.5527" lon="1.90768">
        <ele>318.81</ele>
        <time>2018-05-01T09:29:06Z</time>
      </trkpt>
      <trkpt lat="44.55254" lon="1.90736">
        <ele>320.26</ele>
        <time>2018-05-01T09:29:27Z</time>
      </trkpt>
      <trkpt lat="44.55244" lon="1.90716">
        <ele>319.3</ele>
        <time>2018-05-01T09:29:40Z</time>
      </trkpt>
      <trkpt lat="44.55229" lon="1.90687">
        <ele>319.3</ele>
        <time>2018-05-01T09:30:01Z</time>
      </trkpt>
      <trkpt lat="44.55214" lon="1.90665">
        <ele>318.33</ele>
        <time>2018-05-01T09:30:19Z</time>
      </trkpt>
      <trkpt lat="44.55199" lon="1.90645">
        <ele>312.09</ele>
        <time>2018-05-01T09:30:38Z</time>
      </trkpt>
      <trkpt lat="44.55185" lon="1.90617">
        <ele>313.05</ele>
        <time>2018-05-01T09:30:56Z</time>
      </trkpt>
      <trkpt lat="44.55172" lon="1.90595">
        <ele>311.6</ele>
        <time>2018-05-01T09:31:12Z</time>
      </trkpt>
      <trkpt lat="44.55156" lon="1.90575">
        <ele>310.16</ele>
        <time>2018-05-01T09:31:29Z</time>
      </trkpt>
      <trkpt lat="44.5514" lon="1.90554">
        <ele>308.72</ele>
        <time>2018-05-01T09:31:46Z</time>
      </trkpt>
      <trkpt lat="44.55123" lon="1.90528">
        <ele>307.76</ele>
        <time>2018-05-01T09:32:06Z</time>
      </trkpt>
      <trkpt lat="44.55109" lon="1.90504">
        <ele>307.76</ele>
        <time>2018-05-01T09:32:24Z</time>
      </trkpt>
      <trkpt lat="44.55099" lon="1.90476">
        <ele>307.76</ele>
        <time>2018-05-01T09:32:41Z</time>
      </trkpt>
      <trkpt lat="44.55085" lon="1.90448">
        <ele>307.28</ele>
        <time>2018-05-01T09:33:00Z</time>
      </trkpt>
      <trkpt lat="44.55067" lon="1.90417">
        <ele>307.28</ele>
        <time>2018-05-01T09:33:23Z</time>
      </trkpt>
      <trkpt lat="44.55046" lon="1.90395">
        <ele>305.84</ele>
        <time>2018-05-01T09:33:44Z</time>
      </trkpt>
      <trkpt lat="44.55034" lon="1.9037">
        <ele>304.39</ele>
        <time>2018-05-01T09:34:01Z</time>
      </trkpt>
      <trkpt lat="44.55023" lon="1.90339">
        <ele>300.55</ele>
        <time>2018-05-01T09:34:21Z</time>
      </trkpt>
      <trkpt lat="44.55009" lon="1.90305">
        <ele>300.55</ele>
        <time>2018-05-01T09:34:43Z</time>
      </trkpt>
      <trkpt lat="44.54988" lon="1.9028">
        <ele>301.51</ele>
        <time>2018-05-01T09:35:03Z</time>
      </trkpt>
      <trkpt lat="44.54968" lon="1.90261">
        <ele>305.36</ele>
        <time>2018-05-01T09:35:24Z</time>
      </trkpt>
      <trkpt lat="44.54945" lon="1.90245">
        <ele>305.84</ele>
        <time>2018-05-01T09:35:45Z</time>
      </trkpt>
      <trkpt lat="44.54926" lon="1.90228">
        <ele>305.36</ele>
        <time>2018-05-01T09:36:04Z</time>
      </trkpt>
      <trkpt lat="44.54909" lon="1.90208">
        <ele>306.32</ele>
        <time>2018-05-01T09:36:24Z</time>
      </trkpt>
      <trkpt lat="44.54893" lon="1.90188">
        <ele>305.36</ele>
        <time>2018-05-01T09:36:44Z</time>
      </trkpt>
      <trkpt lat="44.54876" lon="1.90161">
        <ele>305.84</ele>
        <time>2018-05-01T09:37:06Z</time>
      </trkpt>
      <trkpt lat="44.54861" lon="1.90133">
        <ele>309.2</ele>
        <time>2018-05-01T09:37:27Z</time>
      </trkpt>
      <trkpt lat="44.54849" lon="1.90107">
        <ele>310.64</ele>
        <time>2018-05-01T09:37:46Z</time>
      </trkpt>
      <trkpt lat="44.54835" lon="1.90082">
        <ele>312.09</ele>
        <time>2018-05-01T09:38:05Z</time>
      </trkpt>
      <trkpt lat="44.54831" lon="1.90078">
        <ele>311.6</ele>
        <time>2018-05-01T09:38:10Z</time>
      </trkpt>
      <trkpt lat="44.54815" lon="1.90051">
        <ele>314.01</ele>
        <time>2018-05-01T09:38:32Z</time>
      </trkpt>
      <trkpt lat="44.548" lon="1.90032">
        <ele>315.45</ele>
        <time>2018-05-01T09:38:50Z</time>
      </trkpt>
      <trkpt lat="44.54789" lon="1.90009">
        <ele>316.41</ele>
        <time>2018-05-01T09:39:07Z</time>
      </trkpt>
      <trkpt lat="44.54781" lon="1.89981">
        <ele>317.85</ele>
        <time>2018-05-01T09:39:27Z</time>
      </trkpt>
      <trkpt lat="44.54777" lon="1.89958">
        <ele>319.78</ele>
        <time>2018-05-01T09:39:44Z</time>
      </trkpt>
      <trkpt lat="44.54766" lon="1.89946">
        <ele>322.18</ele>
        <time>2018-05-01T09:40:04Z</time>
      </trkpt>
      <trkpt lat="44.5474" lon="1.89943">
        <ele>324.58</ele>
        <time>2018-05-01T09:40:25Z</time>
      </trkpt>
      <trkpt lat="44.54724" lon="1.89938">
        <ele>326.02</ele>
        <time>2018-05-01T09:40:42Z</time>
      </trkpt>
      <trkpt lat="44.54703" lon="1.89926">
        <ele>330.35</ele>
        <time>2018-05-01T09:41:02Z</time>
      </trkpt>
      <trkpt lat="44.54683" lon="1.89921">
        <ele>333.71</ele>
        <time>2018-05-01T09:41:24Z</time>
      </trkpt>
      <trkpt lat="44.54659" lon="1.89915">
        <ele>337.08</ele>
        <time>2018-05-01T09:41:45Z</time>
      </trkpt>
      <trkpt lat="44.54636" lon="1.89907">
        <ele>340.44</ele>
        <time>2018-05-01T09:42:05Z</time>
      </trkpt>
      <trkpt lat="44.54617" lon="1.89904">
        <ele>340.92</ele>
        <time>2018-05-01T09:42:21Z</time>
      </trkpt>
      <trkpt lat="44.54596" lon="1.89901">
        <ele>342.85</ele>
        <time>2018-05-01T09:42:40Z</time>
      </trkpt>
      <trkpt lat="44.54579" lon="1.89896">
        <ele>344.29</ele>
        <time>2018-05-01T09:42:57Z</time>
      </trkpt>
      <trkpt lat="44.54558" lon="1.89887">
        <ele>346.21</ele>
        <time>2018-05-01T09:43:15Z</time>
      </trkpt>
      <trkpt lat="44.54536" lon="1.89883">
        <ele>346.69</ele>
        <time>2018-05-01T09:43:36Z</time>
      </trkpt>
      <trkpt lat="44.54513" lon="1.89881">
        <ele>350.06</ele>
        <time>2018-05-01T09:43:55Z</time>
      </trkpt>
      <trkpt lat="44.5449" lon="1.8988">
        <ele>353.42</ele>
        <time>2018-05-01T09:44:14Z</time>
      </trkpt>
      <trkpt lat="44.54472" lon="1.89877">
        <ele>356.79</ele>
        <time>2018-05-01T09:44:33Z</time>
      </trkpt>
      <trkpt lat="44.54454" lon="1.89875">
        <ele>359.19</ele>
        <time>2018-05-01T09:44:51Z</time>
      </trkpt>
      <trkpt lat="44.54437" lon="1.89873">
        <ele>359.19</ele>
        <time>2018-05-01T09:45:07Z</time>
      </trkpt>
      <trkpt lat="44.54424" lon="1.89873">
        <ele>359.19</ele>
        <time>2018-05-01T09:45:25Z</time>
      </trkpt>
      <trkpt lat="44.54398" lon="1.89869">
        <ele>357.75</ele>
        <time>2018-05-01T09:45:49Z</time>
      </trkpt>
      <trkpt lat="44.54373" lon="1.89872">
        <ele>360.63</ele>
        <time>2018-05-01T09:46:07Z</time>
      </trkpt>
      <trkpt lat="44.54347" lon="1.89866">
        <ele>358.71</ele>
        <time>2018-05-01T09:46:28Z</time>
      </trkpt>
      <trkpt lat="44.54322" lon="1.89859">
        <ele>359.67</ele>
        <time>2018-05-01T09:46:50Z</time>
      </trkpt>
      <trkpt lat="44.54329" lon="1.89833">
        <ele>358.71</ele>
        <time>2018-05-01T09:47:08Z</time>
      </trkpt>
      <trkpt lat="44.54343" lon="1.89797">
        <ele>363.52</ele>
        <time>2018-05-01T09:47:32Z</time>
      </trkpt>
      <trkpt lat="44.54349" lon="1.89775">
        <ele>363.52</ele>
        <time>2018-05-01T09:47:51Z</time>
      </trkpt>
      <trkpt lat="44.54343" lon="1.8975">
        <ele>360.63</ele>
        <time>2018-05-01T09:48:07Z</time>
      </trkpt>
      <trkpt lat="44.54323" lon="1.89717">
        <ele>353.9</ele>
        <time>2018-05-01T09:48:31Z</time>
      </trkpt>
      <trkpt lat="44.54308" lon="1.89685">
        <ele>350.06</ele>
        <time>2018-05-01T09:48:54Z</time>
      </trkpt>
      <trkpt lat="44.54294" lon="1.89662">
        <ele>347.65</ele>
        <time>2018-05-01T09:49:13Z</time>
      </trkpt>
      <trkpt lat="44.54287" lon="1.89625">
        <ele>345.73</ele>
        <time>2018-05-01T09:49:33Z</time>
      </trkpt>
      <trkpt lat="44.54285" lon="1.89599">
        <ele>342.85</ele>
        <time>2018-05-01T09:49:52Z</time>
      </trkpt>
      <trkpt lat="44.54286" lon="1.89559">
        <ele>341.89</ele>
        <time>2018-05-01T09:50:13Z</time>
      </trkpt>
      <trkpt lat="44.5428" lon="1.89528">
        <ele>347.65</ele>
        <time>2018-05-01T09:50:31Z</time>
      </trkpt>
      <trkpt lat="44.54261" lon="1.89512">
        <ele>354.38</ele>
        <time>2018-05-01T09:50:54Z</time>
      </trkpt>
      <trkpt lat="44.54228" lon="1.89497">
        <ele>354.86</ele>
        <time>2018-05-01T09:51:17Z</time>
      </trkpt>
      <trkpt lat="44.54208" lon="1.89477">
        <ele>350.54</ele>
        <time>2018-05-01T09:51:36Z</time>
      </trkpt>
      <trkpt lat="44.54193" lon="1.8945">
        <ele>347.17</ele>
        <time>2018-05-01T09:51:54Z</time>
      </trkpt>
      <trkpt lat="44.54185" lon="1.89415">
        <ele>347.17</ele>
        <time>2018-05-01T09:52:14Z</time>
      </trkpt>
      <trkpt lat="44.5418" lon="1.89386">
        <ele>344.29</ele>
        <time>2018-05-01T09:52:33Z</time>
      </trkpt>
      <trkpt lat="44.54168" lon="1.89344">
        <ele>341.41</ele>
        <time>2018-05-01T09:52:56Z</time>
      </trkpt>
      <trkpt lat="44.54152" lon="1.89324">
        <ele>337.08</ele>
        <time>2018-05-01T09:53:15Z</time>
      </trkpt>
      <trkpt lat="44.5413" lon="1.89312">
        <ele>334.68</ele>
        <time>2018-05-01T09:53:37Z</time>
      </trkpt>
      <trkpt lat="44.5411" lon="1.89307">
        <ele>329.87</ele>
        <time>2018-05-01T09:53:57Z</time>
      </trkpt>
      <trkpt lat="44.54101" lon="1.893">
        <ele>326.99</ele>
        <time>2018-05-01T09:54:19Z</time>
      </trkpt>
      <trkpt lat="44.54077" lon="1.89297">
        <ele>326.99</ele>
        <time>2018-05-01T09:54:41Z</time>
      </trkpt>
      <trkpt lat="44.54059" lon="1.89287">
        <ele>326.02</ele>
        <time>2018-05-01T09:55:01Z</time>
      </trkpt>
      <trkpt lat="44.54038" lon="1.89269">
        <ele>326.99</ele>
        <time>2018-05-01T09:55:22Z</time>
      </trkpt>
      <trkpt lat="44.54011" lon="1.89258">
        <ele>328.43</ele>
        <time>2018-05-01T09:55:45Z</time>
      </trkpt>
      <trkpt lat="44.53989" lon="1.89253">
        <ele>328.91</ele>
        <time>2018-05-01T09:56:05Z</time>
      </trkpt>
      <trkpt lat="44.53958" lon="1.89253">
        <ele>333.23</ele>
        <time>2018-05-01T09:56:24Z</time>
      </trkpt>
      <trkpt lat="44.5393" lon="1.89254">
        <ele>338.52</ele>
        <time>2018-05-01T09:56:44Z</time>
      </trkpt>
      <trkpt lat="44.53909" lon="1.8926">
        <ele>347.65</ele>
        <time>2018-05-01T09:57:05Z</time>
      </trkpt>
      <trkpt lat="44.5388" lon="1.89261">
        <ele>355.34</ele>
        <time>2018-05-01T09:57:28Z</time>
      </trkpt>
      <trkpt lat="44.53878" lon="1.89261">
        <ele>355.83</ele>
        <time>2018-05-01T09:57:30Z</time>
      </trkpt>
      <trkpt lat="44.5386" lon="1.8925">
        <ele>361.59</ele>
        <time>2018-05-01T09:57:47Z</time>
      </trkpt>
      <trkpt lat="44.53852" lon="1.8924">
        <ele>364</ele>
        <time>2018-05-01T09:57:57Z</time>
      </trkpt>
      <trkpt lat="44.53845" lon="1.89211">
        <ele>367.84</ele>
        <time>2018-05-01T09:58:16Z</time>
      </trkpt>
      <trkpt lat="44.53829" lon="1.89183">
        <ele>372.17</ele>
        <time>2018-05-01T09:58:38Z</time>
      </trkpt>
      <trkpt lat="44.53819" lon="1.89161">
        <ele>374.57</ele>
        <time>2018-05-01T09:58:55Z</time>
      </trkpt>
      <trkpt lat="44.53807" lon="1.89137">
        <ele>377.45</ele>
        <time>2018-05-01T09:59:15Z</time>
      </trkpt>
      <trkpt lat="44.53794" lon="1.8911">
        <ele>380.82</ele>
        <time>2018-05-01T09:59:36Z</time>
      </trkpt>
      <trkpt lat="44.5378" lon="1.8908">
        <ele>385.63</ele>
        <time>2018-05-01T09:59:59Z</time>
      </trkpt>
      <trkpt lat="44.53766" lon="1.89042">
        <ele>386.59</ele>
        <time>2018-05-01T10:00:21Z</time>
      </trkpt>
      <trkpt lat="44.5375" lon="1.89003">
        <ele>388.03</ele>
        <time>2018-05-01T10:00:45Z</time>
      </trkpt>
      <trkpt lat="44.53737" lon="1.8898">
        <ele>392.36</ele>
        <time>2018-05-01T10:01:04Z</time>
      </trkpt>
      <trkpt lat="44.53726" lon="1.88941">
        <ele>394.76</ele>
        <time>2018-05-01T10:01:29Z</time>
      </trkpt>
      <trkpt lat="44.53725" lon="1.88924">
        <ele>395.72</ele>
        <time>2018-05-01T10:01:40Z</time>
      </trkpt>
      <trkpt lat="44.5374" lon="1.88887">
        <ele>395.24</ele>
        <time>2018-05-01T10:02:02Z</time>
      </trkpt>
      <trkpt lat="44.53752" lon="1.8885">
        <ele>396.68</ele>
        <time>2018-05-01T10:02:25Z</time>
      </trkpt>
      <trkpt lat="44.53766" lon="1.88815">
        <ele>394.28</ele>
        <time>2018-05-01T10:02:47Z</time>
      </trkpt>
      <trkpt lat="44.53777" lon="1.88778">
        <ele>391.39</ele>
        <time>2018-05-01T10:03:10Z</time>
      </trkpt>
      <trkpt lat="44.53783" lon="1.88742">
        <ele>387.55</ele>
        <time>2018-05-01T10:03:30Z</time>
      </trkpt>
      <trkpt lat="44.53788" lon="1.88707">
        <ele>385.15</ele>
        <time>2018-05-01T10:03:50Z</time>
      </trkpt>
      <trkpt lat="44.53786" lon="1.88694">
        <ele>386.11</ele>
        <time>2018-05-01T10:04:02Z</time>
      </trkpt>
      <trkpt lat="44.53764" lon="1.88713">
        <ele>385.15</ele>
        <time>2018-05-01T10:04:25Z</time>
      </trkpt>
      <trkpt lat="44.53743" lon="1.88727">
        <ele>384.18</ele>
        <time>2018-05-01T10:04:44Z</time>
      </trkpt>
      <trkpt lat="44.53717" lon="1.88729">
        <ele>382.26</ele>
        <time>2018-05-01T10:05:04Z</time>
      </trkpt>
      <trkpt lat="44.53698" lon="1.88733">
        <ele>380.82</ele>
        <time>2018-05-01T10:05:23Z</time>
      </trkpt>
      <trkpt lat="44.53695" lon="1.88717">
        <ele>376.97</ele>
        <time>2018-05-01T10:05:43Z</time>
      </trkpt>
      <trkpt lat="44.53704" lon="1.88688">
        <ele>373.13</ele>
        <time>2018-05-01T10:06:03Z</time>
      </trkpt>
      <trkpt lat="44.53699" lon="1.8866">
        <ele>371.21</ele>
        <time>2018-05-01T10:06:23Z</time>
      </trkpt>
      <trkpt lat="44.53679" lon="1.88633">
        <ele>365.92</ele>
        <time>2018-05-01T10:06:43Z</time>
      </trkpt>
      <trkpt lat="44.53668" lon="1.88612">
        <ele>361.59</ele>
        <time>2018-05-01T10:06:58Z</time>
      </trkpt>
      <trkpt lat="44.53662" lon="1.88593">
        <ele>359.19</ele>
        <time>2018-05-01T10:07:15Z</time>
      </trkpt>
      <trkpt lat="44.5365" lon="1.88572">
        <ele>356.31</ele>
        <time>2018-05-01T10:07:34Z</time>
      </trkpt>
      <trkpt lat="44.53651" lon="1.8856">
        <ele>350.54</ele>
        <time>2018-05-01T10:07:51Z</time>
      </trkpt>
      <trkpt lat="44.53662" lon="1.88536">
        <ele>344.77</ele>
        <time>2018-05-01T10:08:13Z</time>
      </trkpt>
      <trkpt lat="44.53673" lon="1.88519">
        <ele>344.29</ele>
        <time>2018-05-01T10:08:27Z</time>
      </trkpt>
      <trkpt lat="44.53695" lon="1.88481">
        <ele>356.79</ele>
        <time>2018-05-01T10:08:44Z</time>
      </trkpt>
      <trkpt lat="44.53709" lon="1.88449">
        <ele>361.59</ele>
        <time>2018-05-01T10:09:06Z</time>
      </trkpt>
      <trkpt lat="44.53722" lon="1.88418">
        <ele>365.44</ele>
        <time>2018-05-01T10:09:26Z</time>
      </trkpt>
      <trkpt lat="44.5373" lon="1.88383">
        <ele>365.92</ele>
        <time>2018-05-01T10:09:45Z</time>
      </trkpt>
      <trkpt lat="44.53732" lon="1.88344">
        <ele>367.36</ele>
        <time>2018-05-01T10:10:07Z</time>
      </trkpt>
      <trkpt lat="44.53728" lon="1.88308">
        <ele>368.32</ele>
        <time>2018-05-01T10:10:26Z</time>
      </trkpt>
      <trkpt lat="44.53723" lon="1.88279">
        <ele>368.32</ele>
        <time>2018-05-01T10:10:44Z</time>
      </trkpt>
      <trkpt lat="44.53722" lon="1.88248">
        <ele>366.88</ele>
        <time>2018-05-01T10:11:03Z</time>
      </trkpt>
      <trkpt lat="44.53727" lon="1.8821">
        <ele>365.44</ele>
        <time>2018-05-01T10:11:27Z</time>
      </trkpt>
      <trkpt lat="44.53729" lon="1.88202">
        <ele>364.96</ele>
        <time>2018-05-01T10:11:32Z</time>
      </trkpt>
      <trkpt lat="44.53738" lon="1.88165">
        <ele>362.07</ele>
        <time>2018-05-01T10:11:56Z</time>
      </trkpt>
      <trkpt lat="44.5376" lon="1.88133">
        <ele>359.19</ele>
        <time>2018-05-01T10:12:21Z</time>
      </trkpt>
      <trkpt lat="44.53778" lon="1.88104">
        <ele>358.71</ele>
        <time>2018-05-01T10:12:40Z</time>
      </trkpt>
      <trkpt lat="44.53797" lon="1.88074">
        <ele>359.67</ele>
        <time>2018-05-01T10:13:04Z</time>
      </trkpt>
      <trkpt lat="44.53807" lon="1.88051">
        <ele>362.07</ele>
        <time>2018-05-01T10:13:24Z</time>
      </trkpt>
      <trkpt lat="44.53823" lon="1.88029">
        <ele>364.48</ele>
        <time>2018-05-01T10:13:48Z</time>
      </trkpt>
      <trkpt lat="44.5383" lon="1.88012">
        <ele>365.92</ele>
        <time>2018-05-01T10:14:08Z</time>
      </trkpt>
      <trkpt lat="44.53843" lon="1.87975">
        <ele>364.48</ele>
        <time>2018-05-01T10:14:27Z</time>
      </trkpt>
      <trkpt lat="44.53848" lon="1.87946">
        <ele>363.52</ele>
        <time>2018-05-01T10:14:46Z</time>
      </trkpt>
      <trkpt lat="44.53846" lon="1.87918">
        <ele>363.04</ele>
        <time>2018-05-01T10:15:07Z</time>
      </trkpt>
      <trkpt lat="44.53852" lon="1.87871">
        <ele>368.8</ele>
        <time>2018-05-01T10:15:29Z</time>
      </trkpt>
      <trkpt lat="44.53852" lon="1.87823">
        <ele>371.21</ele>
        <time>2018-05-01T10:15:55Z</time>
      </trkpt>
      <trkpt lat="44.53847" lon="1.87792">
        <ele>372.65</ele>
        <time>2018-05-01T10:16:18Z</time>
      </trkpt>
      <trkpt lat="44.53843" lon="1.87773">
        <ele>373.13</ele>
        <time>2018-05-01T10:16:32Z</time>
      </trkpt>
      <trkpt lat="44.53832" lon="1.8773">
        <ele>376.49</ele>
        <time>2018-05-01T10:16:57Z</time>
      </trkpt>
      <trkpt lat="44.53819" lon="1.87701">
        <ele>374.57</ele>
        <time>2018-05-01T10:17:18Z</time>
      </trkpt>
      <trkpt lat="44.53807" lon="1.8767">
        <ele>374.09</ele>
        <time>2018-05-01T10:17:39Z</time>
      </trkpt>
      <trkpt lat="44.538" lon="1.87645">
        <ele>373.61</ele>
        <time>2018-05-01T10:17:59Z</time>
      </trkpt>
      <trkpt lat="44.53785" lon="1.87613">
        <ele>372.65</ele>
        <time>2018-05-01T10:18:20Z</time>
      </trkpt>
      <trkpt lat="44.5377" lon="1.87581">
        <ele>372.65</ele>
        <time>2018-05-01T10:18:43Z</time>
      </trkpt>
      <trkpt lat="44.53763" lon="1.87547">
        <ele>372.65</ele>
        <time>2018-05-01T10:19:07Z</time>
      </trkpt>
      <trkpt lat="44.53756" lon="1.87508">
        <ele>375.05</ele>
        <time>2018-05-01T10:19:30Z</time>
      </trkpt>
      <trkpt lat="44.53755" lon="1.87474">
        <ele>375.53</ele>
        <time>2018-05-01T10:19:49Z</time>
      </trkpt>
      <trkpt lat="44.53747" lon="1.87444">
        <ele>375.53</ele>
        <time>2018-05-01T10:20:06Z</time>
      </trkpt>
      <trkpt lat="44.53742" lon="1.87419">
        <ele>375.53</ele>
        <time>2018-05-01T10:20:24Z</time>
      </trkpt>
      <trkpt lat="44.5374" lon="1.87384">
        <ele>377.45</ele>
        <time>2018-05-01T10:20:44Z</time>
      </trkpt>
      <trkpt lat="44.53729" lon="1.87355">
        <ele>376.97</ele>
        <time>2018-05-01T10:21:04Z</time>
      </trkpt>
      <trkpt lat="44.5372" lon="1.87319">
        <ele>378.9</ele>
        <time>2018-05-01T10:21:28Z</time>
      </trkpt>
      <trkpt lat="44.53707" lon="1.87284">
        <ele>383.22</ele>
        <time>2018-05-01T10:21:49Z</time>
      </trkpt>
      <trkpt lat="44.53697" lon="1.87248">
        <ele>384.18</ele>
        <time>2018-05-01T10:22:11Z</time>
      </trkpt>
      <trkpt lat="44.53691" lon="1.87215">
        <ele>384.66</ele>
        <time>2018-05-01T10:22:32Z</time>
      </trkpt>
      <trkpt lat="44.53684" lon="1.87179">
        <ele>386.11</ele>
        <time>2018-05-01T10:22:54Z</time>
      </trkpt>
      <trkpt lat="44.53677" lon="1.87139">
        <ele>386.59</ele>
        <time>2018-05-01T10:23:16Z</time>
      </trkpt>
      <trkpt lat="44.53671" lon="1.87106">
        <ele>386.59</ele>
        <time>2018-05-01T10:23:36Z</time>
      </trkpt>
      <trkpt lat="44.53671" lon="1.87105">
        <ele>386.59</ele>
        <time>2018-05-01T10:23:37Z</time>
      </trkpt>
      <trkpt lat="44.53664" lon="1.87073">
        <ele>386.11</ele>
        <time>2018-05-01T10:23:57Z</time>
      </trkpt>
      <trkpt lat="44.53656" lon="1.87041">
        <ele>383.7</ele>
        <time>2018-05-01T10:24:17Z</time>
      </trkpt>
      <trkpt lat="44.53646" lon="1.87006">
        <ele>382.74</ele>
        <time>2018-05-01T10:24:39Z</time>
      </trkpt>
      <trkpt lat="44.53639" lon="1.86976">
        <ele>381.78</ele>
        <time>2018-05-01T10:24:59Z</time>
      </trkpt>
      <trkpt lat="44.53628" lon="1.86962">
        <ele>381.78</ele>
        <time>2018-05-01T10:25:10Z</time>
      </trkpt>
      <trkpt lat="44.53612" lon="1.86939">
        <ele>381.78</ele>
        <time>2018-05-01T10:25:28Z</time>
      </trkpt>
      <trkpt lat="44.53599" lon="1.86914">
        <ele>381.78</ele>
        <time>2018-05-01T10:25:45Z</time>
      </trkpt>
      <trkpt lat="44.53597" lon="1.86907">
        <ele>381.3</ele>
        <time>2018-05-01T10:25:50Z</time>
      </trkpt>
      <trkpt lat="44.53586" lon="1.86873">
        <ele>378.42</ele>
        <time>2018-05-01T10:26:10Z</time>
      </trkpt>
      <trkpt lat="44.53578" lon="1.8685">
        <ele>374.57</ele>
        <time>2018-05-01T10:26:28Z</time>
      </trkpt>
      <trkpt lat="44.53568" lon="1.86819">
        <ele>372.65</ele>
        <time>2018-05-01T10:26:48Z</time>
      </trkpt>
      <trkpt lat="44.53565" lon="1.8679">
        <ele>372.65</ele>
        <time>2018-05-01T10:27:06Z</time>
      </trkpt>
      <trkpt lat="44.53576" lon="1.86778">
        <ele>371.69</ele>
        <time>2018-05-01T10:27:27Z</time>
      </trkpt>
      <trkpt lat="44.53576" lon="1.86779">
        <ele>371.69</ele>
        <time>2018-05-01T10:27:51Z</time>
      </trkpt>
      <trkpt lat="44.53572" lon="1.8677">
        <ele>373.13</ele>
        <time>2018-05-01T10:28:14Z</time>
      </trkpt>
      <trkpt lat="44.53567" lon="1.86772">
        <ele>378.42</ele>
        <time>2018-05-01T10:28:38Z</time>
      </trkpt>
      <trkpt lat="44.5357" lon="1.86771">
        <ele>382.26</ele>
        <time>2018-05-01T10:28:59Z</time>
      </trkpt>
      <trkpt lat="44.53574" lon="1.86766">
        <ele>384.18</ele>
        <time>2018-05-01T10:29:24Z</time>
      </trkpt>
      <trkpt lat="44.53575" lon="1.86775">
        <ele>381.78</ele>
        <time>2018-05-01T10:29:49Z</time>
      </trkpt>
      <trkpt lat="44.53572" lon="1.86774">
        <ele>383.22</ele>
        <time>2018-05-01T10:30:13Z</time>
      </trkpt>
      <trkpt lat="44.53572" lon="1.86772">
        <ele>386.59</ele>
        <time>2018-05-01T10:30:35Z</time>
      </trkpt>
      <trkpt lat="44.53582" lon="1.86768">
        <ele>388.51</ele>
        <time>2018-05-01T10:30:56Z</time>
      </trkpt>
      <trkpt lat="44.53576" lon="1.86764">
        <ele>391.87</ele>
        <time>2018-05-01T10:31:19Z</time>
      </trkpt>
      <trkpt lat="44.53565" lon="1.8678">
        <ele>394.28</ele>
        <time>2018-05-01T10:31:41Z</time>
      </trkpt>
      <trkpt lat="44.53562" lon="1.86777">
        <ele>392.36</ele>
        <time>2018-05-01T10:32:07Z</time>
      </trkpt>
      <trkpt lat="44.53569" lon="1.86768">
        <ele>387.55</ele>
        <time>2018-05-01T10:32:33Z</time>
      </trkpt>
      <trkpt lat="44.53567" lon="1.86776">
        <ele>386.11</ele>
        <time>2018-05-01T10:33:02Z</time>
      </trkpt>
      <trkpt lat="44.53567" lon="1.86784">
        <ele>385.63</ele>
        <time>2018-05-01T10:33:27Z</time>
      </trkpt>
      <trkpt lat="44.53576" lon="1.86777">
        <ele>382.74</ele>
        <time>2018-05-01T10:33:52Z</time>
      </trkpt>
      <trkpt lat="44.53581" lon="1.86788">
        <ele>368.8</ele>
        <time>2018-05-01T10:34:21Z</time>
      </trkpt>
      <trkpt lat="44.53581" lon="1.86783">
        <ele>361.11</ele>
        <time>2018-05-01T10:34:47Z</time>
      </trkpt>
      <trkpt lat="44.53584" lon="1.86772">
        <ele>353.9</ele>
        <time>2018-05-01T10:35:12Z</time>
      </trkpt>
      <trkpt lat="44.53581" lon="1.8677">
        <ele>354.86</ele>
        <time>2018-05-01T10:35:39Z</time>
      </trkpt>
      <trkpt lat="44.53575" lon="1.8677">
        <ele>361.59</ele>
        <time>2018-05-01T10:36:05Z</time>
      </trkpt>
      <trkpt lat="44.53579" lon="1.86769">
        <ele>374.09</ele>
        <time>2018-05-01T10:36:38Z</time>
      </trkpt>
      <trkpt lat="44.53577" lon="1.86765">
        <ele>382.26</ele>
        <time>2018-05-01T10:37:02Z</time>
      </trkpt>
      <trkpt lat="44.53585" lon="1.86762">
        <ele>383.7</ele>
        <time>2018-05-01T10:37:25Z</time>
      </trkpt>
      <trkpt lat="44.53581" lon="1.86762">
        <ele>383.7</ele>
        <time>2018-05-01T10:37:51Z</time>
      </trkpt>
      <trkpt lat="44.5357" lon="1.86771">
        <ele>382.26</ele>
        <time>2018-05-01T10:38:14Z</time>
      </trkpt>
      <trkpt lat="44.53574" lon="1.86772">
        <ele>382.26</ele>
        <time>2018-05-01T10:38:43Z</time>
      </trkpt>
      <trkpt lat="44.53576" lon="1.86769">
        <ele>379.86</ele>
        <time>2018-05-01T10:39:07Z</time>
      </trkpt>
      <trkpt lat="44.53575" lon="1.86756">
        <ele>378.42</ele>
        <time>2018-05-01T10:39:27Z</time>
      </trkpt>
      <trkpt lat="44.53562" lon="1.86782">
        <ele>383.7</ele>
        <time>2018-05-01T10:39:50Z</time>
      </trkpt>
      <trkpt lat="44.53564" lon="1.86779">
        <ele>388.03</ele>
        <time>2018-05-01T10:40:11Z</time>
      </trkpt>
      <trkpt lat="44.53555" lon="1.8676">
        <ele>386.11</ele>
        <time>2018-05-01T10:40:34Z</time>
      </trkpt>
      <trkpt lat="44.53546" lon="1.86729">
        <ele>387.07</ele>
        <time>2018-05-01T10:40:56Z</time>
      </trkpt>
      <trkpt lat="44.53536" lon="1.86704">
        <ele>386.11</ele>
        <time>2018-05-01T10:41:17Z</time>
      </trkpt>
      <trkpt lat="44.53526" lon="1.86675">
        <ele>383.22</ele>
        <time>2018-05-01T10:41:38Z</time>
      </trkpt>
      <trkpt lat="44.53516" lon="1.86642">
        <ele>378.9</ele>
        <time>2018-05-01T10:41:59Z</time>
      </trkpt>
      <trkpt lat="44.53502" lon="1.86611">
        <ele>378.42</ele>
        <time>2018-05-01T10:42:22Z</time>
      </trkpt>
      <trkpt lat="44.53495" lon="1.86582">
        <ele>375.05</ele>
        <time>2018-05-01T10:42:40Z</time>
      </trkpt>
      <trkpt lat="44.53486" lon="1.86551">
        <ele>375.05</ele>
        <time>2018-05-01T10:43:00Z</time>
      </trkpt>
      <trkpt lat="44.53477" lon="1.86532">
        <ele>375.05</ele>
        <time>2018-05-01T10:43:19Z</time>
      </trkpt>
      <trkpt lat="44.53474" lon="1.86528">
        <ele>376.97</ele>
        <time>2018-05-01T10:43:34Z</time>
      </trkpt>
      <trkpt lat="44.53461" lon="1.86519">
        <ele>378.9</ele>
        <time>2018-05-01T10:43:48Z</time>
      </trkpt>
      <trkpt lat="44.53442" lon="1.86517">
        <ele>378.9</ele>
        <time>2018-05-01T10:44:10Z</time>
      </trkpt>
      <trkpt lat="44.53414" lon="1.86515">
        <ele>374.09</ele>
        <time>2018-05-01T10:44:32Z</time>
      </trkpt>
      <trkpt lat="44.53392" lon="1.86513">
        <ele>367.84</ele>
        <time>2018-05-01T10:44:51Z</time>
      </trkpt>
      <trkpt lat="44.53373" lon="1.86514">
        <ele>362.07</ele>
        <time>2018-05-01T10:45:11Z</time>
      </trkpt>
      <trkpt lat="44.53357" lon="1.86504">
        <ele>359.67</ele>
        <time>2018-05-01T10:45:29Z</time>
      </trkpt>
      <trkpt lat="44.53341" lon="1.86505">
        <ele>356.79</ele>
        <time>2018-05-01T10:45:52Z</time>
      </trkpt>
      <trkpt lat="44.53324" lon="1.86512">
        <ele>350.06</ele>
        <time>2018-05-01T10:46:12Z</time>
      </trkpt>
      <trkpt lat="44.53299" lon="1.86504">
        <ele>345.73</ele>
        <time>2018-05-01T10:46:34Z</time>
      </trkpt>
      <trkpt lat="44.5328" lon="1.865">
        <ele>340.92</ele>
        <time>2018-05-01T10:46:53Z</time>
      </trkpt>
      <trkpt lat="44.53263" lon="1.86504">
        <ele>334.68</ele>
        <time>2018-05-01T10:47:10Z</time>
      </trkpt>
      <trkpt lat="44.53245" lon="1.86504">
        <ele>330.83</ele>
        <time>2018-05-01T10:47:26Z</time>
      </trkpt>
      <trkpt lat="44.53226" lon="1.86506">
        <ele>326.99</ele>
        <time>2018-05-01T10:47:44Z</time>
      </trkpt>
      <trkpt lat="44.53203" lon="1.86504">
        <ele>326.99</ele>
        <time>2018-05-01T10:48:02Z</time>
      </trkpt>
      <trkpt lat="44.53184" lon="1.86509">
        <ele>321.22</ele>
        <time>2018-05-01T10:48:20Z</time>
      </trkpt>
      <trkpt lat="44.53162" lon="1.86516">
        <ele>316.89</ele>
        <time>2018-05-01T10:48:39Z</time>
      </trkpt>
      <trkpt lat="44.53144" lon="1.86525">
        <ele>309.2</ele>
        <time>2018-05-01T10:48:59Z</time>
      </trkpt>
      <trkpt lat="44.53124" lon="1.86533">
        <ele>303.91</ele>
        <time>2018-05-01T10:49:18Z</time>
      </trkpt>
      <trkpt lat="44.531" lon="1.86539">
        <ele>300.55</ele>
        <time>2018-05-01T10:49:39Z</time>
      </trkpt>
      <trkpt lat="44.5308" lon="1.86547">
        <ele>299.11</ele>
        <time>2018-05-01T10:49:59Z</time>
      </trkpt>
      <trkpt lat="44.53064" lon="1.86556">
        <ele>304.88</ele>
        <time>2018-05-01T10:50:18Z</time>
      </trkpt>
      <trkpt lat="44.53052" lon="1.86554">
        <ele>311.12</ele>
        <time>2018-05-01T10:50:40Z</time>
      </trkpt>
      <trkpt lat="44.53036" lon="1.86556">
        <ele>308.72</ele>
        <time>2018-05-01T10:50:56Z</time>
      </trkpt>
      <trkpt lat="44.53015" lon="1.86558">
        <ele>304.39</ele>
        <time>2018-05-01T10:51:17Z</time>
      </trkpt>
      <trkpt lat="44.5299" lon="1.86557">
        <ele>301.03</ele>
        <time>2018-05-01T10:51:36Z</time>
      </trkpt>
      <trkpt lat="44.52967" lon="1.86554">
        <ele>300.07</ele>
        <time>2018-05-01T10:51:56Z</time>
      </trkpt>
      <trkpt lat="44.52944" lon="1.86531">
        <ele>303.91</ele>
        <time>2018-05-01T10:52:17Z</time>
      </trkpt>
      <trkpt lat="44.52919" lon="1.86507">
        <ele>308.72</ele>
        <time>2018-05-01T10:52:38Z</time>
      </trkpt>
      <trkpt lat="44.52901" lon="1.86475">
        <ele>313.05</ele>
        <time>2018-05-01T10:53:00Z</time>
      </trkpt>
      <trkpt lat="44.52897" lon="1.86466">
        <ele>314.49</ele>
        <time>2018-05-01T10:53:05Z</time>
      </trkpt>
      <trkpt lat="44.5288" lon="1.86435">
        <ele>318.81</ele>
        <time>2018-05-01T10:53:23Z</time>
      </trkpt>
      <trkpt lat="44.52862" lon="1.86411">
        <ele>318.81</ele>
        <time>2018-05-01T10:53:41Z</time>
      </trkpt>
      <trkpt lat="44.52842" lon="1.86396">
        <ele>318.81</ele>
        <time>2018-05-01T10:54:00Z</time>
      </trkpt>
      <trkpt lat="44.52821" lon="1.86387">
        <ele>320.26</ele>
        <time>2018-05-01T10:54:19Z</time>
      </trkpt>
      <trkpt lat="44.52815" lon="1.86377">
        <ele>324.58</ele>
        <time>2018-05-01T10:54:45Z</time>
      </trkpt>
      <trkpt lat="44.52816" lon="1.86374">
        <ele>324.58</ele>
        <time>2018-05-01T10:55:20Z</time>
      </trkpt>
      <trkpt lat="44.52815" lon="1.8637">
        <ele>328.91</ele>
        <time>2018-05-01T10:55:56Z</time>
      </trkpt>
      <trkpt lat="44.52797" lon="1.86362">
        <ele>326.99</ele>
        <time>2018-05-01T10:56:14Z</time>
      </trkpt>
      <trkpt lat="44.52782" lon="1.86349">
        <ele>324.58</ele>
        <time>2018-05-01T10:56:34Z</time>
      </trkpt>
      <trkpt lat="44.52761" lon="1.86337">
        <ele>322.18</ele>
        <time>2018-05-01T10:56:52Z</time>
      </trkpt>
      <trkpt lat="44.52748" lon="1.86319">
        <ele>314.01</ele>
        <time>2018-05-01T10:57:11Z</time>
      </trkpt>
      <trkpt lat="44.52722" lon="1.86306">
        <ele>309.2</ele>
        <time>2018-05-01T10:57:35Z</time>
      </trkpt>
      <trkpt lat="44.52698" lon="1.86296">
        <ele>307.76</ele>
        <time>2018-05-01T10:57:54Z</time>
      </trkpt>
      <trkpt lat="44.52683" lon="1.86281">
        <ele>303.43</ele>
        <time>2018-05-01T10:58:14Z</time>
      </trkpt>
      <trkpt lat="44.52648" lon="1.86268">
        <ele>304.88</ele>
        <time>2018-05-01T10:58:38Z</time>
      </trkpt>
      <trkpt lat="44.52632" lon="1.8626">
        <ele>300.07</ele>
        <time>2018-05-01T10:58:59Z</time>
      </trkpt>
      <trkpt lat="44.52614" lon="1.86254">
        <ele>295.74</ele>
        <time>2018-05-01T10:59:19Z</time>
      </trkpt>
      <trkpt lat="44.52587" lon="1.86239">
        <ele>298.63</ele>
        <time>2018-05-01T10:59:38Z</time>
      </trkpt>
      <trkpt lat="44.5256" lon="1.86222">
        <ele>309.2</ele>
        <time>2018-05-01T10:59:54Z</time>
      </trkpt>
      <trkpt lat="44.52555" lon="1.8622">
        <ele>309.68</ele>
        <time>2018-05-01T10:59:58Z</time>
      </trkpt>
      <trkpt lat="44.52538" lon="1.86219">
        <ele>310.16</ele>
        <time>2018-05-01T11:00:18Z</time>
      </trkpt>
      <trkpt lat="44.52514" lon="1.86219">
        <ele>306.32</ele>
        <time>2018-05-01T11:00:38Z</time>
      </trkpt>
      <trkpt lat="44.52493" lon="1.86211">
        <ele>300.07</ele>
        <time>2018-05-01T11:00:57Z</time>
      </trkpt>
      <trkpt lat="44.52472" lon="1.862">
        <ele>295.74</ele>
        <time>2018-05-01T11:01:18Z</time>
      </trkpt>
      <trkpt lat="44.52439" lon="1.86186">
        <ele>293.34</ele>
        <time>2018-05-01T11:01:42Z</time>
      </trkpt>
      <trkpt lat="44.52423" lon="1.86176">
        <ele>287.09</ele>
        <time>2018-05-01T11:02:03Z</time>
      </trkpt>
      <trkpt lat="44.52398" lon="1.86168">
        <ele>278.92</ele>
        <time>2018-05-01T11:02:26Z</time>
      </trkpt>
      <trkpt lat="44.52379" lon="1.86162">
        <ele>273.63</ele>
        <time>2018-05-01T11:02:44Z</time>
      </trkpt>
      <trkpt lat="44.52358" lon="1.86155">
        <ele>268.35</ele>
        <time>2018-05-01T11:03:04Z</time>
      </trkpt>
      <trkpt lat="44.52339" lon="1.86143">
        <ele>265.94</ele>
        <time>2018-05-01T11:03:20Z</time>
      </trkpt>
      <trkpt lat="44.52315" lon="1.86128">
        <ele>266.9</ele>
        <time>2018-05-01T11:03:38Z</time>
      </trkpt>
      <trkpt lat="44.52285" lon="1.86117">
        <ele>273.63</ele>
        <time>2018-05-01T11:03:59Z</time>
      </trkpt>
      <trkpt lat="44.52275" lon="1.86105">
        <ele>275.56</ele>
        <time>2018-05-01T11:04:08Z</time>
      </trkpt>
      <trkpt lat="44.52256" lon="1.86069">
        <ele>277.48</ele>
        <time>2018-05-01T11:04:31Z</time>
      </trkpt>
      <trkpt lat="44.52238" lon="1.86053">
        <ele>278.92</ele>
        <time>2018-05-01T11:04:57Z</time>
      </trkpt>
      <trkpt lat="44.52216" lon="1.86043">
        <ele>280.84</ele>
        <time>2018-05-01T11:05:16Z</time>
      </trkpt>
      <trkpt lat="44.52189" lon="1.86035">
        <ele>283.73</ele>
        <time>2018-05-01T11:05:38Z</time>
      </trkpt>
      <trkpt lat="44.52158" lon="1.86032">
        <ele>287.09</ele>
        <time>2018-05-01T11:06:00Z</time>
      </trkpt>
      <trkpt lat="44.52136" lon="1.86039">
        <ele>286.13</ele>
        <time>2018-05-01T11:06:23Z</time>
      </trkpt>
      <trkpt lat="44.52112" lon="1.86042">
        <ele>285.17</ele>
        <time>2018-05-01T11:06:43Z</time>
      </trkpt>
      <trkpt lat="44.52085" lon="1.86039">
        <ele>282.77</ele>
        <time>2018-05-01T11:07:06Z</time>
      </trkpt>
      <trkpt lat="44.52068" lon="1.86028">
        <ele>278.92</ele>
        <time>2018-05-01T11:07:26Z</time>
      </trkpt>
      <trkpt lat="44.52042" lon="1.86015">
        <ele>279.88</ele>
        <time>2018-05-01T11:07:48Z</time>
      </trkpt>
      <trkpt lat="44.52016" lon="1.86004">
        <ele>279.88</ele>
        <time>2018-05-01T11:08:11Z</time>
      </trkpt>
      <trkpt lat="44.51993" lon="1.85993">
        <ele>277.96</ele>
        <time>2018-05-01T11:08:36Z</time>
      </trkpt>
      <trkpt lat="44.51976" lon="1.85987">
        <ele>275.07</ele>
        <time>2018-05-01T11:08:56Z</time>
      </trkpt>
      <trkpt lat="44.51954" lon="1.85974">
        <ele>289.01</ele>
        <time>2018-05-01T11:09:10Z</time>
      </trkpt>
      <trkpt lat="44.51936" lon="1.85975">
        <ele>287.09</ele>
        <time>2018-05-01T11:09:28Z</time>
      </trkpt>
      <trkpt lat="44.51921" lon="1.85983">
        <ele>283.25</ele>
        <time>2018-05-01T11:09:45Z</time>
      </trkpt>
      <trkpt lat="44.51906" lon="1.85982">
        <ele>278.92</ele>
        <time>2018-05-01T11:10:02Z</time>
      </trkpt>
      <trkpt lat="44.51879" lon="1.85977">
        <ele>276.04</ele>
        <time>2018-05-01T11:10:25Z</time>
      </trkpt>
      <trkpt lat="44.51856" lon="1.85981">
        <ele>274.59</ele>
        <time>2018-05-01T11:10:45Z</time>
      </trkpt>
      <trkpt lat="44.51828" lon="1.85962">
        <ele>276.52</ele>
        <time>2018-05-01T11:11:05Z</time>
      </trkpt>
      <trkpt lat="44.51805" lon="1.8595">
        <ele>276.52</ele>
        <time>2018-05-01T11:11:27Z</time>
      </trkpt>
      <trkpt lat="44.51773" lon="1.85935">
        <ele>278.92</ele>
        <time>2018-05-01T11:11:51Z</time>
      </trkpt>
      <trkpt lat="44.51751" lon="1.85924">
        <ele>278.44</ele>
        <time>2018-05-01T11:12:14Z</time>
      </trkpt>
      <trkpt lat="44.51723" lon="1.85903">
        <ele>279.88</ele>
        <time>2018-05-01T11:12:34Z</time>
      </trkpt>
      <trkpt lat="44.51693" lon="1.85887">
        <ele>284.21</ele>
        <time>2018-05-01T11:12:57Z</time>
      </trkpt>
      <trkpt lat="44.51655" lon="1.85868">
        <ele>290.94</ele>
        <time>2018-05-01T11:13:22Z</time>
      </trkpt>
      <trkpt lat="44.51644" lon="1.85839">
        <ele>294.78</ele>
        <time>2018-05-01T11:13:37Z</time>
      </trkpt>
      <trkpt lat="44.51644" lon="1.85837">
        <ele>294.78</ele>
        <time>2018-05-01T11:13:38Z</time>
      </trkpt>
      <trkpt lat="44.51643" lon="1.85798">
        <ele>299.11</ele>
        <time>2018-05-01T11:13:58Z</time>
      </trkpt>
      <trkpt lat="44.51637" lon="1.85771">
        <ele>301.99</ele>
        <time>2018-05-01T11:14:16Z</time>
      </trkpt>
      <trkpt lat="44.51634" lon="1.85737">
        <ele>302.95</ele>
        <time>2018-05-01T11:14:38Z</time>
      </trkpt>
      <trkpt lat="44.51644" lon="1.85708">
        <ele>305.36</ele>
        <time>2018-05-01T11:14:58Z</time>
      </trkpt>
      <trkpt lat="44.51641" lon="1.85674">
        <ele>304.39</ele>
        <time>2018-05-01T11:15:18Z</time>
      </trkpt>
      <trkpt lat="44.51647" lon="1.8564">
        <ele>300.55</ele>
        <time>2018-05-01T11:15:37Z</time>
      </trkpt>
      <trkpt lat="44.51646" lon="1.85626">
        <ele>299.11</ele>
        <time>2018-05-01T11:15:44Z</time>
      </trkpt>
      <trkpt lat="44.51646" lon="1.85578">
        <ele>298.63</ele>
        <time>2018-05-01T11:16:06Z</time>
      </trkpt>
      <trkpt lat="44.51662" lon="1.85558">
        <ele>301.03</ele>
        <time>2018-05-01T11:16:23Z</time>
      </trkpt>
      <trkpt lat="44.51688" lon="1.85544">
        <ele>304.88</ele>
        <time>2018-05-01T11:16:47Z</time>
      </trkpt>
      <trkpt lat="44.51702" lon="1.85522">
        <ele>304.88</ele>
        <time>2018-05-01T11:17:06Z</time>
      </trkpt>
      <trkpt lat="44.51709" lon="1.85489">
        <ele>304.88</ele>
        <time>2018-05-01T11:17:23Z</time>
      </trkpt>
      <trkpt lat="44.51712" lon="1.85461">
        <ele>304.39</ele>
        <time>2018-05-01T11:17:42Z</time>
      </trkpt>
      <trkpt lat="44.51712" lon="1.85428">
        <ele>303.43</ele>
        <time>2018-05-01T11:17:59Z</time>
      </trkpt>
      <trkpt lat="44.51706" lon="1.85403">
        <ele>305.36</ele>
        <time>2018-05-01T11:18:13Z</time>
      </trkpt>
      <trkpt lat="44.51709" lon="1.85375">
        <ele>307.76</ele>
        <time>2018-05-01T11:18:30Z</time>
      </trkpt>
      <trkpt lat="44.51711" lon="1.8537">
        <ele>308.24</ele>
        <time>2018-05-01T11:18:34Z</time>
      </trkpt>
      <trkpt lat="44.51734" lon="1.85348">
        <ele>314.49</ele>
        <time>2018-05-01T11:18:55Z</time>
      </trkpt>
      <trkpt lat="44.51756" lon="1.85334">
        <ele>318.33</ele>
        <time>2018-05-01T11:19:18Z</time>
      </trkpt>
      <trkpt lat="44.51778" lon="1.85316">
        <ele>320.26</ele>
        <time>2018-05-01T11:19:38Z</time>
      </trkpt>
      <trkpt lat="44.51805" lon="1.85297">
        <ele>323.62</ele>
        <time>2018-05-01T11:19:58Z</time>
      </trkpt>
      <trkpt lat="44.51826" lon="1.85276">
        <ele>327.95</ele>
        <time>2018-05-01T11:20:16Z</time>
      </trkpt>
      <trkpt lat="44.5184" lon="1.85256">
        <ele>328.91</ele>
        <time>2018-05-01T11:20:33Z</time>
      </trkpt>
      <trkpt lat="44.51856" lon="1.85235">
        <ele>327.47</ele>
        <time>2018-05-01T11:20:51Z</time>
      </trkpt>
      <trkpt lat="44.5187" lon="1.85214">
        <ele>325.06</ele>
        <time>2018-05-01T11:21:08Z</time>
      </trkpt>
      <trkpt lat="44.51889" lon="1.85189">
        <ele>319.3</ele>
        <time>2018-05-01T11:21:26Z</time>
      </trkpt>
      <trkpt lat="44.51905" lon="1.8517">
        <ele>314.01</ele>
        <time>2018-05-01T11:21:45Z</time>
      </trkpt>
      <trkpt lat="44.51916" lon="1.8515">
        <ele>307.76</ele>
        <time>2018-05-01T11:22:00Z</time>
      </trkpt>
      <trkpt lat="44.51921" lon="1.85137">
        <ele>303.91</ele>
        <time>2018-05-01T11:22:31Z</time>
      </trkpt>
      <trkpt lat="44.51934" lon="1.85117">
        <ele>308.24</ele>
        <time>2018-05-01T11:22:47Z</time>
      </trkpt>
      <trkpt lat="44.51947" lon="1.85102">
        <ele>305.36</ele>
        <time>2018-05-01T11:23:07Z</time>
      </trkpt>
      <trkpt lat="44.51953" lon="1.85091">
        <ele>304.39</ele>
        <time>2018-05-01T11:23:27Z</time>
      </trkpt>
      <trkpt lat="44.51948" lon="1.85082">
        <ele>307.76</ele>
        <time>2018-05-01T11:23:57Z</time>
      </trkpt>
      <trkpt lat="44.51947" lon="1.85085">
        <ele>311.6</ele>
        <time>2018-05-01T11:24:22Z</time>
      </trkpt>
      <trkpt lat="44.51949" lon="1.85088">
        <ele>315.45</ele>
        <time>2018-05-01T11:24:45Z</time>
      </trkpt>
      <trkpt lat="44.51951" lon="1.85087">
        <ele>320.74</ele>
        <time>2018-05-01T11:25:07Z</time>
      </trkpt>
      <trkpt lat="44.51949" lon="1.85088">
        <ele>321.7</ele>
        <time>2018-05-01T11:25:32Z</time>
      </trkpt>
      <trkpt lat="44.51953" lon="1.85077">
        <ele>326.99</ele>
        <time>2018-05-01T11:25:49Z</time>
      </trkpt>
      <trkpt lat="44.51961" lon="1.85056">
        <ele>328.91</ele>
        <time>2018-05-01T11:26:06Z</time>
      </trkpt>
      <trkpt lat="44.51967" lon="1.85036">
        <ele>329.39</ele>
        <time>2018-05-01T11:26:21Z</time>
      </trkpt>
      <trkpt lat="44.51969" lon="1.85017">
        <ele>327.95</ele>
        <time>2018-05-01T11:26:36Z</time>
      </trkpt>
      <trkpt lat="44.51973" lon="1.84994">
        <ele>326.02</ele>
        <time>2018-05-01T11:26:53Z</time>
      </trkpt>
      <trkpt lat="44.51979" lon="1.84977">
        <ele>325.54</ele>
        <time>2018-05-01T11:27:07Z</time>
      </trkpt>
      <trkpt lat="44.51988" lon="1.84955">
        <ele>323.62</ele>
        <time>2018-05-01T11:27:25Z</time>
      </trkpt>
      <trkpt lat="44.51993" lon="1.8493">
        <ele>323.62</ele>
        <time>2018-05-01T11:27:42Z</time>
      </trkpt>
      <trkpt lat="44.51999" lon="1.84906">
        <ele>321.7</ele>
        <time>2018-05-01T11:28:02Z</time>
      </trkpt>
      <trkpt lat="44.52001" lon="1.84883">
        <ele>318.81</ele>
        <time>2018-05-01T11:28:18Z</time>
      </trkpt>
      <trkpt lat="44.51999" lon="1.84853">
        <ele>317.37</ele>
        <time>2018-05-01T11:28:38Z</time>
      </trkpt>
      <trkpt lat="44.52005" lon="1.84829">
        <ele>314.49</ele>
        <time>2018-05-01T11:28:54Z</time>
      </trkpt>
      <trkpt lat="44.52007" lon="1.848">
        <ele>317.85</ele>
        <time>2018-05-01T11:29:10Z</time>
      </trkpt>
      <trkpt lat="44.52011" lon="1.84779">
        <ele>317.37</ele>
        <time>2018-05-01T11:29:27Z</time>
      </trkpt>
      <trkpt lat="44.52016" lon="1.84759">
        <ele>316.41</ele>
        <time>2018-05-01T11:29:45Z</time>
      </trkpt>
      <trkpt lat="44.52015" lon="1.84765">
        <ele>317.85</ele>
        <time>2018-05-01T11:30:04Z</time>
      </trkpt>
      <trkpt lat="44.52016" lon="1.84775">
        <ele>321.7</ele>
        <time>2018-05-01T11:30:21Z</time>
      </trkpt>
      <trkpt lat="44.52031" lon="1.84762">
        <ele>322.66</ele>
        <time>2018-05-01T11:31:41Z</time>
      </trkpt>
      <trkpt lat="44.52049" lon="1.84762">
        <ele>342.85</ele>
        <time>2018-05-01T11:32:06Z</time>
      </trkpt>
      <trkpt lat="44.52075" lon="1.84739">
        <ele>346.69</ele>
        <time>2018-05-01T11:32:32Z</time>
      </trkpt>
      <trkpt lat="44.52101" lon="1.84724">
        <ele>355.83</ele>
        <time>2018-05-01T11:32:58Z</time>
      </trkpt>
      <trkpt lat="44.52117" lon="1.84697">
        <ele>355.34</ele>
        <time>2018-05-01T11:33:23Z</time>
      </trkpt>
      <trkpt lat="44.52128" lon="1.84673">
        <ele>357.75</ele>
        <time>2018-05-01T11:33:44Z</time>
      </trkpt>
      <trkpt lat="44.52127" lon="1.84661">
        <ele>357.27</ele>
        <time>2018-05-01T11:33:55Z</time>
      </trkpt>
      <trkpt lat="44.52125" lon="1.84654">
        <ele>356.79</ele>
        <time>2018-05-01T11:33:59Z</time>
      </trkpt>
      <trkpt lat="44.5211" lon="1.84617">
        <ele>354.86</ele>
        <time>2018-05-01T11:34:25Z</time>
      </trkpt>
      <trkpt lat="44.52097" lon="1.84595">
        <ele>353.9</ele>
        <time>2018-05-01T11:34:44Z</time>
      </trkpt>
      <trkpt lat="44.52082" lon="1.84574">
        <ele>354.86</ele>
        <time>2018-05-01T11:35:06Z</time>
      </trkpt>
      <trkpt lat="44.52069" lon="1.84546">
        <ele>356.31</ele>
        <time>2018-05-01T11:35:26Z</time>
      </trkpt>
      <trkpt lat="44.52054" lon="1.84519">
        <ele>357.27</ele>
        <time>2018-05-01T11:35:45Z</time>
      </trkpt>
      <trkpt lat="44.5204" lon="1.84494">
        <ele>355.83</ele>
        <time>2018-05-01T11:36:06Z</time>
      </trkpt>
      <trkpt lat="44.52025" lon="1.84479">
        <ele>352.94</ele>
        <time>2018-05-01T11:36:28Z</time>
      </trkpt>
      <trkpt lat="44.52011" lon="1.84463">
        <ele>350.54</ele>
        <time>2018-05-01T11:36:51Z</time>
      </trkpt>
      <trkpt lat="44.51992" lon="1.84439">
        <ele>353.9</ele>
        <time>2018-05-01T11:37:10Z</time>
      </trkpt>
      <trkpt lat="44.51985" lon="1.84429">
        <ele>356.79</ele>
        <time>2018-05-01T11:37:36Z</time>
      </trkpt>
      <trkpt lat="44.51982" lon="1.84428">
        <ele>356.79</ele>
        <time>2018-05-01T11:37:44Z</time>
      </trkpt>
      <trkpt lat="44.51966" lon="1.84426">
        <ele>355.34</ele>
        <time>2018-05-01T11:38:05Z</time>
      </trkpt>
      <trkpt lat="44.51972" lon="1.84422">
        <ele>355.34</ele>
        <time>2018-05-01T11:38:26Z</time>
      </trkpt>
      <trkpt lat="44.51971" lon="1.84431">
        <ele>356.31</ele>
        <time>2018-05-01T11:38:46Z</time>
      </trkpt>
      <trkpt lat="44.51976" lon="1.84427">
        <ele>359.67</ele>
        <time>2018-05-01T11:39:10Z</time>
      </trkpt>
      <trkpt lat="44.51977" lon="1.84431">
        <ele>361.11</ele>
        <time>2018-05-01T11:39:36Z</time>
      </trkpt>
      <trkpt lat="44.51985" lon="1.84428">
        <ele>362.07</ele>
        <time>2018-05-01T11:40:00Z</time>
      </trkpt>
      <trkpt lat="44.51988" lon="1.84428">
        <ele>363.04</ele>
        <time>2018-05-01T11:40:05Z</time>
      </trkpt>
      <trkpt lat="44.51991" lon="1.84432">
        <ele>365.44</ele>
        <time>2018-05-01T11:40:24Z</time>
      </trkpt>
      <trkpt lat="44.51982" lon="1.84426">
        <ele>364</ele>
        <time>2018-05-01T11:40:50Z</time>
      </trkpt>
      <trkpt lat="44.51977" lon="1.84428">
        <ele>369.28</ele>
        <time>2018-05-01T11:41:17Z</time>
      </trkpt>
      <trkpt lat="44.51976" lon="1.84426">
        <ele>375.53</ele>
        <time>2018-05-01T11:41:46Z</time>
      </trkpt>
      <trkpt lat="44.51976" lon="1.84422">
        <ele>371.21</ele>
        <time>2018-05-01T11:42:11Z</time>
      </trkpt>
      <trkpt lat="44.51979" lon="1.84429">
        <ele>366.4</ele>
        <time>2018-05-01T11:42:32Z</time>
      </trkpt>
      <trkpt lat="44.51984" lon="1.8443">
        <ele>364.48</ele>
        <time>2018-05-01T11:42:50Z</time>
      </trkpt>
      <trkpt lat="44.51989" lon="1.84434">
        <ele>369.28</ele>
        <time>2018-05-01T11:43:20Z</time>
      </trkpt>
      <trkpt lat="44.51986" lon="1.84433">
        <ele>366.4</ele>
        <time>2018-05-01T11:43:46Z</time>
      </trkpt>
      <trkpt lat="44.51985" lon="1.84428">
        <ele>355.34</ele>
        <time>2018-05-01T11:44:15Z</time>
      </trkpt>
      <trkpt lat="44.51977" lon="1.84431">
        <ele>355.34</ele>
        <time>2018-05-01T11:44:43Z</time>
      </trkpt>
      <trkpt lat="44.52" lon="1.84422">
        <ele>368.32</ele>
        <time>2018-05-01T11:45:08Z</time>
      </trkpt>
      <trkpt lat="44.52002" lon="1.84427">
        <ele>375.05</ele>
        <time>2018-05-01T11:45:32Z</time>
      </trkpt>
      <trkpt lat="44.51989" lon="1.8443">
        <ele>371.69</ele>
        <time>2018-05-01T11:45:57Z</time>
      </trkpt>
      <trkpt lat="44.51988" lon="1.84423">
        <ele>370.24</ele>
        <time>2018-05-01T11:46:18Z</time>
      </trkpt>
      <trkpt lat="44.51987" lon="1.84417">
        <ele>370.73</ele>
        <time>2018-05-01T11:46:46Z</time>
      </trkpt>
      <trkpt lat="44.51989" lon="1.84416">
        <ele>368.8</ele>
        <time>2018-05-01T11:47:11Z</time>
      </trkpt>
      <trkpt lat="44.5198" lon="1.84412">
        <ele>369.28</ele>
        <time>2018-05-01T11:47:26Z</time>
      </trkpt>
      <trkpt lat="44.51979" lon="1.8441">
        <ele>368.8</ele>
        <time>2018-05-01T11:47:29Z</time>
      </trkpt>
      <trkpt lat="44.51971" lon="1.84402">
        <ele>367.36</ele>
        <time>2018-05-01T11:47:49Z</time>
      </trkpt>
      <trkpt lat="44.51959" lon="1.8439">
        <ele>366.4</ele>
        <time>2018-05-01T11:48:07Z</time>
      </trkpt>
      <trkpt lat="44.51947" lon="1.84373">
        <ele>366.4</ele>
        <time>2018-05-01T11:48:23Z</time>
      </trkpt>
      <trkpt lat="44.51932" lon="1.84353">
        <ele>366.4</ele>
        <time>2018-05-01T11:48:41Z</time>
      </trkpt>
      <trkpt lat="44.5192" lon="1.84338">
        <ele>365.92</ele>
        <time>2018-05-01T11:48:58Z</time>
      </trkpt>
      <trkpt lat="44.51903" lon="1.84318">
        <ele>368.8</ele>
        <time>2018-05-01T11:49:18Z</time>
      </trkpt>
      <trkpt lat="44.51886" lon="1.843">
        <ele>373.61</ele>
        <time>2018-05-01T11:49:38Z</time>
      </trkpt>
      <trkpt lat="44.51874" lon="1.84285">
        <ele>374.57</ele>
        <time>2018-05-01T11:49:56Z</time>
      </trkpt>
      <trkpt lat="44.51858" lon="1.84262">
        <ele>374.57</ele>
        <time>2018-05-01T11:50:20Z</time>
      </trkpt>
      <trkpt lat="44.51843" lon="1.84249">
        <ele>372.65</ele>
        <time>2018-05-01T11:50:40Z</time>
      </trkpt>
      <trkpt lat="44.51825" lon="1.84232">
        <ele>372.17</ele>
        <time>2018-05-01T11:51:02Z</time>
      </trkpt>
      <trkpt lat="44.51815" lon="1.84226">
        <ele>365.44</ele>
        <time>2018-05-01T11:51:21Z</time>
      </trkpt>
      <trkpt lat="44.51801" lon="1.84214">
        <ele>358.23</ele>
        <time>2018-05-01T11:51:40Z</time>
      </trkpt>
      <trkpt lat="44.51786" lon="1.84199">
        <ele>350.54</ele>
        <time>2018-05-01T11:51:56Z</time>
      </trkpt>
      <trkpt lat="44.51775" lon="1.84183">
        <ele>342.37</ele>
        <time>2018-05-01T11:52:15Z</time>
      </trkpt>
      <trkpt lat="44.5176" lon="1.84165">
        <ele>334.68</ele>
        <time>2018-05-01T11:52:36Z</time>
      </trkpt>
      <trkpt lat="44.51743" lon="1.84141">
        <ele>331.79</ele>
        <time>2018-05-01T11:52:52Z</time>
      </trkpt>
      <trkpt lat="44.51729" lon="1.84111">
        <ele>331.31</ele>
        <time>2018-05-01T11:53:07Z</time>
      </trkpt>
      <trkpt lat="44.51713" lon="1.84086">
        <ele>331.79</ele>
        <time>2018-05-01T11:53:24Z</time>
      </trkpt>
      <trkpt lat="44.51707" lon="1.84075">
        <ele>331.79</ele>
        <time>2018-05-01T11:53:31Z</time>
      </trkpt>
      <trkpt lat="44.51689" lon="1.84053">
        <ele>332.27</ele>
        <time>2018-05-01T11:53:48Z</time>
      </trkpt>
      <trkpt lat="44.51672" lon="1.84027">
        <ele>334.68</ele>
        <time>2018-05-01T11:54:06Z</time>
      </trkpt>
      <trkpt lat="44.51655" lon="1.84004">
        <ele>337.56</ele>
        <time>2018-05-01T11:54:26Z</time>
      </trkpt>
      <trkpt lat="44.51644" lon="1.83989">
        <ele>338.04</ele>
        <time>2018-05-01T11:54:44Z</time>
      </trkpt>
      <trkpt lat="44.51639" lon="1.83979">
        <ele>345.73</ele>
        <time>2018-05-01T11:55:08Z</time>
      </trkpt>
      <trkpt lat="44.51638" lon="1.83944">
        <ele>361.59</ele>
        <time>2018-05-01T11:55:27Z</time>
      </trkpt>
      <trkpt lat="44.51637" lon="1.8392">
        <ele>362.07</ele>
        <time>2018-05-01T11:55:47Z</time>
      </trkpt>
      <trkpt lat="44.51638" lon="1.83887">
        <ele>358.23</ele>
        <time>2018-05-01T11:56:10Z</time>
      </trkpt>
      <trkpt lat="44.51635" lon="1.83843">
        <ele>356.79</ele>
        <time>2018-05-01T11:56:30Z</time>
      </trkpt>
      <trkpt lat="44.51624" lon="1.8381">
        <ele>360.63</ele>
        <time>2018-05-01T11:56:52Z</time>
      </trkpt>
      <trkpt lat="44.51613" lon="1.83783">
        <ele>361.59</ele>
        <time>2018-05-01T11:57:10Z</time>
      </trkpt>
      <trkpt lat="44.51602" lon="1.83754">
        <ele>362.07</ele>
        <time>2018-05-01T11:57:31Z</time>
      </trkpt>
      <trkpt lat="44.51595" lon="1.83735">
        <ele>359.67</ele>
        <time>2018-05-01T11:57:56Z</time>
      </trkpt>
      <trkpt lat="44.51587" lon="1.83704">
        <ele>351.98</ele>
        <time>2018-05-01T11:58:16Z</time>
      </trkpt>
      <trkpt lat="44.51584" lon="1.83675">
        <ele>343.33</ele>
        <time>2018-05-01T11:58:39Z</time>
      </trkpt>
      <trkpt lat="44.51578" lon="1.83643">
        <ele>340.44</ele>
        <time>2018-05-01T11:59:01Z</time>
      </trkpt>
      <trkpt lat="44.51572" lon="1.83595">
        <ele>340.44</ele>
        <time>2018-05-01T11:59:21Z</time>
      </trkpt>
      <trkpt lat="44.51579" lon="1.83585">
        <ele>336.12</ele>
        <time>2018-05-01T11:59:37Z</time>
      </trkpt>
      <trkpt lat="44.51595" lon="1.83586">
        <ele>327.95</ele>
        <time>2018-05-01T12:00:00Z</time>
      </trkpt>
      <trkpt lat="44.51615" lon="1.83571">
        <ele>326.99</ele>
        <time>2018-05-01T12:00:15Z</time>
      </trkpt>
      <trkpt lat="44.51614" lon="1.83563">
        <ele>321.22</ele>
        <time>2018-05-01T12:00:35Z</time>
      </trkpt>
      <trkpt lat="44.51599" lon="1.83556">
        <ele>314.97</ele>
        <time>2018-05-01T12:00:55Z</time>
      </trkpt>
      <trkpt lat="44.51587" lon="1.83536">
        <ele>314.49</ele>
        <time>2018-05-01T12:01:13Z</time>
      </trkpt>
      <trkpt lat="44.51581" lon="1.83518">
        <ele>314.01</ele>
        <time>2018-05-01T12:01:29Z</time>
      </trkpt>
      <trkpt lat="44.5157" lon="1.83486">
        <ele>314.97</ele>
        <time>2018-05-01T12:01:50Z</time>
      </trkpt>
      <trkpt lat="44.51556" lon="1.83456">
        <ele>317.37</ele>
        <time>2018-05-01T12:02:08Z</time>
      </trkpt>
      <trkpt lat="44.51546" lon="1.8343">
        <ele>315.45</ele>
        <time>2018-05-01T12:02:25Z</time>
      </trkpt>
      <trkpt lat="44.51534" lon="1.83398">
        <ele>316.41</ele>
        <time>2018-05-01T12:02:47Z</time>
      </trkpt>
      <trkpt lat="44.51528" lon="1.83368">
        <ele>314.01</ele>
        <time>2018-05-01T12:03:06Z</time>
      </trkpt>
      <trkpt lat="44.51517" lon="1.83331">
        <ele>308.24</ele>
        <time>2018-05-01T12:03:28Z</time>
      </trkpt>
      <trkpt lat="44.51508" lon="1.83305">
        <ele>301.51</ele>
        <time>2018-05-01T12:03:47Z</time>
      </trkpt>
      <trkpt lat="44.51492" lon="1.83271">
        <ele>292.86</ele>
        <time>2018-05-01T12:04:09Z</time>
      </trkpt>
      <trkpt lat="44.51479" lon="1.83239">
        <ele>288.53</ele>
        <time>2018-05-01T12:04:30Z</time>
      </trkpt>
      <trkpt lat="44.51466" lon="1.83213">
        <ele>284.21</ele>
        <time>2018-05-01T12:04:51Z</time>
      </trkpt>
      <trkpt lat="44.51461" lon="1.83188">
        <ele>277.96</ele>
        <time>2018-05-01T12:05:11Z</time>
      </trkpt>
      <trkpt lat="44.51447" lon="1.83153">
        <ele>273.63</ele>
        <time>2018-05-01T12:05:33Z</time>
      </trkpt>
      <trkpt lat="44.51433" lon="1.83114">
        <ele>274.59</ele>
        <time>2018-05-01T12:05:51Z</time>
      </trkpt>
      <trkpt lat="44.51423" lon="1.83067">
        <ele>277.48</ele>
        <time>2018-05-01T12:06:16Z</time>
      </trkpt>
      <trkpt lat="44.51424" lon="1.83036">
        <ele>275.56</ele>
        <time>2018-05-01T12:06:38Z</time>
      </trkpt>
      <trkpt lat="44.51412" lon="1.82984">
        <ele>282.28</ele>
        <time>2018-05-01T12:06:56Z</time>
      </trkpt>
      <trkpt lat="44.51408" lon="1.82964">
        <ele>283.73</ele>
        <time>2018-05-01T12:07:08Z</time>
      </trkpt>
      <trkpt lat="44.51396" lon="1.82932">
        <ele>284.21</ele>
        <time>2018-05-01T12:07:26Z</time>
      </trkpt>
      <trkpt lat="44.51394" lon="1.8293">
        <ele>284.21</ele>
        <time>2018-05-01T12:07:27Z</time>
      </trkpt>
      <trkpt lat="44.51384" lon="1.82902">
        <ele>288.05</ele>
        <time>2018-05-01T12:07:46Z</time>
      </trkpt>
      <trkpt lat="44.51368" lon="1.82882">
        <ele>289.01</ele>
        <time>2018-05-01T12:08:00Z</time>
      </trkpt>
      <trkpt lat="44.51356" lon="1.82873">
        <ele>290.46</ele>
        <time>2018-05-01T12:08:09Z</time>
      </trkpt>
      <trkpt lat="44.51331" lon="1.82882">
        <ele>291.9</ele>
        <time>2018-05-01T12:08:29Z</time>
      </trkpt>
      <trkpt lat="44.51313" lon="1.82882">
        <ele>292.38</ele>
        <time>2018-05-01T12:08:47Z</time>
      </trkpt>
      <trkpt lat="44.51292" lon="1.82875">
        <ele>289.49</ele>
        <time>2018-05-01T12:09:07Z</time>
      </trkpt>
      <trkpt lat="44.51273" lon="1.82871">
        <ele>285.17</ele>
        <time>2018-05-01T12:09:27Z</time>
      </trkpt>
      <trkpt lat="44.51255" lon="1.82865">
        <ele>279.88</ele>
        <time>2018-05-01T12:09:46Z</time>
      </trkpt>
      <trkpt lat="44.51235" lon="1.82868">
        <ele>273.15</ele>
        <time>2018-05-01T12:10:05Z</time>
      </trkpt>
      <trkpt lat="44.51221" lon="1.82879">
        <ele>272.19</ele>
        <time>2018-05-01T12:10:18Z</time>
      </trkpt>
      <trkpt lat="44.51198" lon="1.829">
        <ele>283.25</ele>
        <time>2018-05-01T12:10:35Z</time>
      </trkpt>
      <trkpt lat="44.51186" lon="1.82906">
        <ele>283.73</ele>
        <time>2018-05-01T12:10:47Z</time>
      </trkpt>
      <trkpt lat="44.51168" lon="1.82902">
        <ele>285.17</ele>
        <time>2018-05-01T12:11:05Z</time>
      </trkpt>
      <trkpt lat="44.51149" lon="1.82901">
        <ele>286.13</ele>
        <time>2018-05-01T12:11:24Z</time>
      </trkpt>
      <trkpt lat="44.51131" lon="1.82904">
        <ele>284.21</ele>
        <time>2018-05-01T12:11:42Z</time>
      </trkpt>
      <trkpt lat="44.51118" lon="1.82913">
        <ele>281.8</ele>
        <time>2018-05-01T12:11:53Z</time>
      </trkpt>
      <trkpt lat="44.51102" lon="1.82927">
        <ele>278.44</ele>
        <time>2018-05-01T12:12:09Z</time>
      </trkpt>
      <trkpt lat="44.51086" lon="1.82934">
        <ele>279.88</ele>
        <time>2018-05-01T12:12:23Z</time>
      </trkpt>
      <trkpt lat="44.51069" lon="1.82941">
        <ele>282.28</ele>
        <time>2018-05-01T12:12:36Z</time>
      </trkpt>
      <trkpt lat="44.51051" lon="1.82958">
        <ele>285.65</ele>
        <time>2018-05-01T12:12:52Z</time>
      </trkpt>
      <trkpt lat="44.51034" lon="1.82968">
        <ele>288.53</ele>
        <time>2018-05-01T12:13:08Z</time>
      </trkpt>
      <trkpt lat="44.51019" lon="1.82981">
        <ele>290.94</ele>
        <time>2018-05-01T12:13:23Z</time>
      </trkpt>
      <trkpt lat="44.51005" lon="1.82995">
        <ele>291.9</ele>
        <time>2018-05-01T12:13:38Z</time>
      </trkpt>
      <trkpt lat="44.5099" lon="1.83007">
        <ele>294.78</ele>
        <time>2018-05-01T12:13:53Z</time>
      </trkpt>
      <trkpt lat="44.50974" lon="1.83024">
        <ele>296.7</ele>
        <time>2018-05-01T12:14:08Z</time>
      </trkpt>
      <trkpt lat="44.50964" lon="1.8304">
        <ele>296.7</ele>
        <time>2018-05-01T12:14:24Z</time>
      </trkpt>
      <trkpt lat="44.50947" lon="1.83063">
        <ele>296.7</ele>
        <time>2018-05-01T12:14:48Z</time>
      </trkpt>
      <trkpt lat="44.50922" lon="1.83075">
        <ele>300.07</ele>
        <time>2018-05-01T12:15:09Z</time>
      </trkpt>
      <trkpt lat="44.50902" lon="1.83079">
        <ele>302.47</ele>
        <time>2018-05-01T12:15:27Z</time>
      </trkpt>
      <trkpt lat="44.50885" lon="1.83089">
        <ele>304.39</ele>
        <time>2018-05-01T12:15:45Z</time>
      </trkpt>
      <trkpt lat="44.50865" lon="1.83093">
        <ele>308.72</ele>
        <time>2018-05-01T12:16:06Z</time>
      </trkpt>
      <trkpt lat="44.50845" lon="1.83107">
        <ele>318.81</ele>
        <time>2018-05-01T12:16:26Z</time>
      </trkpt>
      <trkpt lat="44.50824" lon="1.83125">
        <ele>327.47</ele>
        <time>2018-05-01T12:16:46Z</time>
      </trkpt>
      <trkpt lat="44.50807" lon="1.8315">
        <ele>332.27</ele>
        <time>2018-05-01T12:17:05Z</time>
      </trkpt>
      <trkpt lat="44.5079" lon="1.83166">
        <ele>336.6</ele>
        <time>2018-05-01T12:17:23Z</time>
      </trkpt>
      <trkpt lat="44.50769" lon="1.83179">
        <ele>332.75</ele>
        <time>2018-05-01T12:17:41Z</time>
      </trkpt>
      <trkpt lat="44.50743" lon="1.83192">
        <ele>327.47</ele>
        <time>2018-05-01T12:18:03Z</time>
      </trkpt>
      <trkpt lat="44.5072" lon="1.83204">
        <ele>319.78</ele>
        <time>2018-05-01T12:18:22Z</time>
      </trkpt>
      <trkpt lat="44.50699" lon="1.83217">
        <ele>314.49</ele>
        <time>2018-05-01T12:18:40Z</time>
      </trkpt>
      <trkpt lat="44.50674" lon="1.83228">
        <ele>311.6</ele>
        <time>2018-05-01T12:18:59Z</time>
      </trkpt>
      <trkpt lat="44.50653" lon="1.83234">
        <ele>303.91</ele>
        <time>2018-05-01T12:19:15Z</time>
      </trkpt>
      <trkpt lat="44.50639" lon="1.83238">
        <ele>292.86</ele>
        <time>2018-05-01T12:19:33Z</time>
      </trkpt>
      <trkpt lat="44.5062" lon="1.83246">
        <ele>284.21</ele>
        <time>2018-05-01T12:19:50Z</time>
      </trkpt>
      <trkpt lat="44.50597" lon="1.83258">
        <ele>283.25</ele>
        <time>2018-05-01T12:20:07Z</time>
      </trkpt>
      <trkpt lat="44.50572" lon="1.8327">
        <ele>288.05</ele>
        <time>2018-05-01T12:20:27Z</time>
      </trkpt>
      <trkpt lat="44.50549" lon="1.83286">
        <ele>293.34</ele>
        <time>2018-05-01T12:20:43Z</time>
      </trkpt>
      <trkpt lat="44.50528" lon="1.83295">
        <ele>301.03</ele>
        <time>2018-05-01T12:20:59Z</time>
      </trkpt>
      <trkpt lat="44.50511" lon="1.83307">
        <ele>304.39</ele>
        <time>2018-05-01T12:21:16Z</time>
      </trkpt>
      <trkpt lat="44.5049" lon="1.83322">
        <ele>301.51</ele>
        <time>2018-05-01T12:21:35Z</time>
      </trkpt>
      <trkpt lat="44.50476" lon="1.83333">
        <ele>296.22</ele>
        <time>2018-05-01T12:21:51Z</time>
      </trkpt>
      <trkpt lat="44.50455" lon="1.83354">
        <ele>292.86</ele>
        <time>2018-05-01T12:22:07Z</time>
      </trkpt>
      <trkpt lat="44.50438" lon="1.83361">
        <ele>288.05</ele>
        <time>2018-05-01T12:22:22Z</time>
      </trkpt>
      <trkpt lat="44.50418" lon="1.83369">
        <ele>283.25</ele>
        <time>2018-05-01T12:22:40Z</time>
      </trkpt>
      <trkpt lat="44.50394" lon="1.83379">
        <ele>286.61</ele>
        <time>2018-05-01T12:22:56Z</time>
      </trkpt>
      <trkpt lat="44.50371" lon="1.83393">
        <ele>288.53</ele>
        <time>2018-05-01T12:23:13Z</time>
      </trkpt>
      <trkpt lat="44.50348" lon="1.83404">
        <ele>291.42</ele>
        <time>2018-05-01T12:23:30Z</time>
      </trkpt>
      <trkpt lat="44.50329" lon="1.83412">
        <ele>293.82</ele>
        <time>2018-05-01T12:23:44Z</time>
      </trkpt>
      <trkpt lat="44.50308" lon="1.83426">
        <ele>292.38</ele>
        <time>2018-05-01T12:24:03Z</time>
      </trkpt>
      <trkpt lat="44.50301" lon="1.8343">
        <ele>292.38</ele>
        <time>2018-05-01T12:24:08Z</time>
      </trkpt>
      <trkpt lat="44.50282" lon="1.8344">
        <ele>289.01</ele>
        <time>2018-05-01T12:24:27Z</time>
      </trkpt>
      <trkpt lat="44.50254" lon="1.83454">
        <ele>285.17</ele>
        <time>2018-05-01T12:24:44Z</time>
      </trkpt>
      <trkpt lat="44.50248" lon="1.83457">
        <ele>285.65</ele>
        <time>2018-05-01T12:24:49Z</time>
      </trkpt>
      <trkpt lat="44.50224" lon="1.83474">
        <ele>283.25</ele>
        <time>2018-05-01T12:25:08Z</time>
      </trkpt>
      <trkpt lat="44.50202" lon="1.83487">
        <ele>282.28</ele>
        <time>2018-05-01T12:25:24Z</time>
      </trkpt>
      <trkpt lat="44.50183" lon="1.83497">
        <ele>281.32</ele>
        <time>2018-05-01T12:25:41Z</time>
      </trkpt>
      <trkpt lat="44.50165" lon="1.83499">
        <ele>285.17</ele>
        <time>2018-05-01T12:25:55Z</time>
      </trkpt>
      <trkpt lat="44.50146" lon="1.83498">
        <ele>286.13</ele>
        <time>2018-05-01T12:26:11Z</time>
      </trkpt>
      <trkpt lat="44.50122" lon="1.835">
        <ele>284.69</ele>
        <time>2018-05-01T12:26:26Z</time>
      </trkpt>
      <trkpt lat="44.50102" lon="1.83504">
        <ele>285.65</ele>
        <time>2018-05-01T12:26:43Z</time>
      </trkpt>
      <trkpt lat="44.50079" lon="1.83506">
        <ele>285.17</ele>
        <time>2018-05-01T12:27:00Z</time>
      </trkpt>
      <trkpt lat="44.5006" lon="1.83507">
        <ele>282.28</ele>
        <time>2018-05-01T12:27:16Z</time>
      </trkpt>
      <trkpt lat="44.50037" lon="1.83508">
        <ele>280.84</ele>
        <time>2018-05-01T12:27:33Z</time>
      </trkpt>
      <trkpt lat="44.50009" lon="1.8351">
        <ele>277.96</ele>
        <time>2018-05-01T12:27:51Z</time>
      </trkpt>
      <trkpt lat="44.49991" lon="1.83511">
        <ele>273.63</ele>
        <time>2018-05-01T12:28:07Z</time>
      </trkpt>
      <trkpt lat="44.49967" lon="1.83516">
        <ele>267.38</ele>
        <time>2018-05-01T12:28:25Z</time>
      </trkpt>
      <trkpt lat="44.49941" lon="1.83513">
        <ele>265.94</ele>
        <time>2018-05-01T12:28:40Z</time>
      </trkpt>
      <trkpt lat="44.49919" lon="1.83514">
        <ele>266.42</ele>
        <time>2018-05-01T12:28:59Z</time>
      </trkpt>
      <trkpt lat="44.49896" lon="1.83519">
        <ele>264.98</ele>
        <time>2018-05-01T12:29:16Z</time>
      </trkpt>
      <trkpt lat="44.49873" lon="1.8352">
        <ele>265.94</ele>
        <time>2018-05-01T12:29:33Z</time>
      </trkpt>
      <trkpt lat="44.49851" lon="1.83514">
        <ele>266.42</ele>
        <time>2018-05-01T12:29:51Z</time>
      </trkpt>
      <trkpt lat="44.4983" lon="1.83517">
        <ele>264.98</ele>
        <time>2018-05-01T12:30:09Z</time>
      </trkpt>
      <trkpt lat="44.49809" lon="1.83524">
        <ele>264.5</ele>
        <time>2018-05-01T12:30:25Z</time>
      </trkpt>
      <trkpt lat="44.49789" lon="1.83531">
        <ele>264.5</ele>
        <time>2018-05-01T12:30:41Z</time>
      </trkpt>
      <trkpt lat="44.49765" lon="1.8353">
        <ele>266.9</ele>
        <time>2018-05-01T12:30:59Z</time>
      </trkpt>
      <trkpt lat="44.49743" lon="1.83525">
        <ele>264.02</ele>
        <time>2018-05-01T12:31:17Z</time>
      </trkpt>
      <trkpt lat="44.49718" lon="1.83522">
        <ele>258.25</ele>
        <time>2018-05-01T12:31:37Z</time>
      </trkpt>
      <trkpt lat="44.49699" lon="1.83526">
        <ele>252.48</ele>
        <time>2018-05-01T12:31:54Z</time>
      </trkpt>
      <trkpt lat="44.49671" lon="1.83546">
        <ele>256.33</ele>
        <time>2018-05-01T12:32:15Z</time>
      </trkpt>
      <trkpt lat="44.4967" lon="1.83548">
        <ele>255.85</ele>
        <time>2018-05-01T12:32:16Z</time>
      </trkpt>
      <trkpt lat="44.49661" lon="1.83566">
        <ele>239.51</ele>
        <time>2018-05-01T12:32:34Z</time>
      </trkpt>
      <trkpt lat="44.49648" lon="1.83583">
        <ele>227.01</ele>
        <time>2018-05-01T12:32:50Z</time>
      </trkpt>
      <trkpt lat="44.49642" lon="1.83622">
        <ele>213.07</ele>
        <time>2018-05-01T12:33:12Z</time>
      </trkpt>
      <trkpt lat="44.49638" lon="1.83653">
        <ele>203.46</ele>
        <time>2018-05-01T12:33:32Z</time>
      </trkpt>
      <trkpt lat="44.49615" lon="1.83668">
        <ele>190</ele>
        <time>2018-05-01T12:33:51Z</time>
      </trkpt>
      <trkpt lat="44.49584" lon="1.83681">
        <ele>183.27</ele>
        <time>2018-05-01T12:34:16Z</time>
      </trkpt>
      <trkpt lat="44.4956" lon="1.83679">
        <ele>175.1</ele>
        <time>2018-05-01T12:34:38Z</time>
      </trkpt>
      <trkpt lat="44.49534" lon="1.83682">
        <ele>160.68</ele>
        <time>2018-05-01T12:35:02Z</time>
      </trkpt>
      <trkpt lat="44.49504" lon="1.83704">
        <ele>159.72</ele>
        <time>2018-05-01T12:35:23Z</time>
      </trkpt>
      <trkpt lat="44.49484" lon="1.83721">
        <ele>164.04</ele>
        <time>2018-05-01T12:35:42Z</time>
      </trkpt>
      <trkpt lat="44.49465" lon="1.83731">
        <ele>156.83</ele>
        <time>2018-05-01T12:36:01Z</time>
      </trkpt>
      <trkpt lat="44.4944" lon="1.83732">
        <ele>163.08</ele>
        <time>2018-05-01T12:36:19Z</time>
      </trkpt>
      <trkpt lat="44.4942" lon="1.83723">
        <ele>171.25</ele>
        <time>2018-05-01T12:36:50Z</time>
      </trkpt>
      <trkpt lat="44.49415" lon="1.83724">
        <ele>178.46</ele>
        <time>2018-05-01T12:37:25Z</time>
      </trkpt>
      <trkpt lat="44.49417" lon="1.83737">
        <ele>223.64</ele>
        <time>2018-05-01T12:38:00Z</time>
      </trkpt>
      <trkpt lat="44.49413" lon="1.83733">
        <ele>233.26</ele>
        <time>2018-05-01T12:38:20Z</time>
      </trkpt>
      <trkpt lat="44.49404" lon="1.83724">
        <ele>230.85</ele>
        <time>2018-05-01T12:38:30Z</time>
      </trkpt>
      <trkpt lat="44.49379" lon="1.83709">
        <ele>231.81</ele>
        <time>2018-05-01T12:38:49Z</time>
      </trkpt>
      <trkpt lat="44.49354" lon="1.83703">
        <ele>231.81</ele>
        <time>2018-05-01T12:39:06Z</time>
      </trkpt>
      <trkpt lat="44.49352" lon="1.83702">
        <ele>231.81</ele>
        <time>2018-05-01T12:39:07Z</time>
      </trkpt>
      <trkpt lat="44.49344" lon="1.83693">
        <ele>235.66</ele>
        <time>2018-05-01T12:39:21Z</time>
      </trkpt>
      <trkpt lat="44.49341" lon="1.83694">
        <ele>239.99</ele>
        <time>2018-05-01T12:39:40Z</time>
      </trkpt>
      <trkpt lat="44.49332" lon="1.83688">
        <ele>240.95</ele>
        <time>2018-05-01T12:40:03Z</time>
      </trkpt>
      <trkpt lat="44.49333" lon="1.8369">
        <ele>244.79</ele>
        <time>2018-05-01T12:40:34Z</time>
      </trkpt>
      <trkpt lat="44.49328" lon="1.83686">
        <ele>245.27</ele>
        <time>2018-05-01T12:41:00Z</time>
      </trkpt>
      <trkpt lat="44.49328" lon="1.83689">
        <ele>245.27</ele>
        <time>2018-05-01T12:41:33Z</time>
      </trkpt>
      <trkpt lat="44.49324" lon="1.83688">
        <ele>246.23</ele>
        <time>2018-05-01T12:42:15Z</time>
      </trkpt>
      <trkpt lat="44.49318" lon="1.83688">
        <ele>246.23</ele>
        <time>2018-05-01T12:42:40Z</time>
      </trkpt>
      <trkpt lat="44.49309" lon="1.83686">
        <ele>244.31</ele>
        <time>2018-05-01T12:43:00Z</time>
      </trkpt>
      <trkpt lat="44.49312" lon="1.83686">
        <ele>249.12</ele>
        <time>2018-05-01T12:43:24Z</time>
      </trkpt>
      <trkpt lat="44.49313" lon="1.83688">
        <ele>251.04</ele>
        <time>2018-05-01T12:43:46Z</time>
      </trkpt>
      <trkpt lat="44.49309" lon="1.83687">
        <ele>242.39</ele>
        <time>2018-05-01T12:44:10Z</time>
      </trkpt>
      <trkpt lat="44.4931" lon="1.83687">
        <ele>238.06</ele>
        <time>2018-05-01T12:44:38Z</time>
      </trkpt>
      <trkpt lat="44.49304" lon="1.83684">
        <ele>245.27</ele>
        <time>2018-05-01T12:45:12Z</time>
      </trkpt>
      <trkpt lat="44.49295" lon="1.83668">
        <ele>241.43</ele>
        <time>2018-05-01T12:45:34Z</time>
      </trkpt>
      <trkpt lat="44.49282" lon="1.83661">
        <ele>239.02</ele>
        <time>2018-05-01T12:45:55Z</time>
      </trkpt>
      <trkpt lat="44.49269" lon="1.83657">
        <ele>238.54</ele>
        <time>2018-05-01T12:46:14Z</time>
      </trkpt>
      <trkpt lat="44.49252" lon="1.83651">
        <ele>235.18</ele>
        <time>2018-05-01T12:46:33Z</time>
      </trkpt>
      <trkpt lat="44.49221" lon="1.83646">
        <ele>227.97</ele>
        <time>2018-05-01T12:46:57Z</time>
      </trkpt>
      <trkpt lat="44.49195" lon="1.83639">
        <ele>227.49</ele>
        <time>2018-05-01T12:47:17Z</time>
      </trkpt>
      <trkpt lat="44.49185" lon="1.8363">
        <ele>227.01</ele>
        <time>2018-05-01T12:47:42Z</time>
      </trkpt>
      <trkpt lat="44.49185" lon="1.83615">
        <ele>227.01</ele>
        <time>2018-05-01T12:49:56Z</time>
      </trkpt>
      <trkpt lat="44.49184" lon="1.83621">
        <ele>226.05</ele>
        <time>2018-05-01T12:50:21Z</time>
      </trkpt>
      <trkpt lat="44.49185" lon="1.83624">
        <ele>222.2</ele>
        <time>2018-05-01T12:50:39Z</time>
      </trkpt>
      <trkpt lat="44.49176" lon="1.83628">
        <ele>219.8</ele>
        <time>2018-05-01T12:50:59Z</time>
      </trkpt>
      <trkpt lat="44.4916" lon="1.83629">
        <ele>218.84</ele>
        <time>2018-05-01T12:51:20Z</time>
      </trkpt>
      <trkpt lat="44.49133" lon="1.83635">
        <ele>218.84</ele>
        <time>2018-05-01T12:51:44Z</time>
      </trkpt>
      <trkpt lat="44.49103" lon="1.83646">
        <ele>218.36</ele>
        <time>2018-05-01T12:52:08Z</time>
      </trkpt>
      <trkpt lat="44.49077" lon="1.8365">
        <ele>213.07</ele>
        <time>2018-05-01T12:52:32Z</time>
      </trkpt>
      <trkpt lat="44.49064" lon="1.83653">
        <ele>209.22</ele>
        <time>2018-05-01T12:52:53Z</time>
      </trkpt>
      <trkpt lat="44.4904" lon="1.83655">
        <ele>203.46</ele>
        <time>2018-05-01T12:53:14Z</time>
      </trkpt>
      <trkpt lat="44.49021" lon="1.83654">
        <ele>197.69</ele>
        <time>2018-05-01T12:53:38Z</time>
      </trkpt>
      <trkpt lat="44.48991" lon="1.83658">
        <ele>192.4</ele>
        <time>2018-05-01T12:54:01Z</time>
      </trkpt>
      <trkpt lat="44.48965" lon="1.83673">
        <ele>190.48</ele>
        <time>2018-05-01T12:54:23Z</time>
      </trkpt>
      <trkpt lat="44.48947" lon="1.8368">
        <ele>181.35</ele>
        <time>2018-05-01T12:54:42Z</time>
      </trkpt>
      <trkpt lat="44.48928" lon="1.83696">
        <ele>176.54</ele>
        <time>2018-05-01T12:55:02Z</time>
      </trkpt>
      <trkpt lat="44.48909" lon="1.83721">
        <ele>173.17</ele>
        <time>2018-05-01T12:55:23Z</time>
      </trkpt>
      <trkpt lat="44.48905" lon="1.83734">
        <ele>168.85</ele>
        <time>2018-05-01T12:55:40Z</time>
      </trkpt>
      <trkpt lat="44.48902" lon="1.8374">
        <ele>165.96</ele>
        <time>2018-05-01T12:55:58Z</time>
      </trkpt>
      <trkpt lat="44.48901" lon="1.83742">
        <ele>165.96</ele>
        <time>2018-05-01T12:56:00Z</time>
      </trkpt>
      <trkpt lat="44.48896" lon="1.83752">
        <ele>165.48</ele>
        <time>2018-05-01T12:56:10Z</time>
      </trkpt>
      <trkpt lat="44.48896" lon="1.83761">
        <ele>165.48</ele>
        <time>2018-05-01T12:56:14Z</time>
      </trkpt>
      <trkpt lat="44.48893" lon="1.83768">
        <ele>164.04</ele>
        <time>2018-05-01T12:56:17Z</time>
      </trkpt>
      <trkpt lat="44.48893" lon="1.8377">
        <ele>163.56</ele>
        <time>2018-05-01T12:56:18Z</time>
      </trkpt>
      <trkpt lat="44.48892" lon="1.83772">
        <ele>163.08</ele>
        <time>2018-05-01T12:56:19Z</time>
      </trkpt>
      <trkpt lat="44.48887" lon="1.83798">
        <ele>161.16</ele>
        <time>2018-05-01T12:56:33Z</time>
      </trkpt>
      <trkpt lat="44.48882" lon="1.83822">
        <ele>157.79</ele>
        <time>2018-05-01T12:56:50Z</time>
      </trkpt>
      <trkpt lat="44.48876" lon="1.83857">
        <ele>154.43</ele>
        <time>2018-05-01T12:57:09Z</time>
      </trkpt>
      <trkpt lat="44.4887" lon="1.83883">
        <ele>151.54</ele>
        <time>2018-05-01T12:57:27Z</time>
      </trkpt>
      <trkpt lat="44.4886" lon="1.83915">
        <ele>150.1</ele>
        <time>2018-05-01T12:57:47Z</time>
      </trkpt>
      <trkpt lat="44.48848" lon="1.8395">
        <ele>150.1</ele>
        <time>2018-05-01T12:58:08Z</time>
      </trkpt>
      <trkpt lat="44.4884" lon="1.83982">
        <ele>149.62</ele>
        <time>2018-05-01T12:58:27Z</time>
      </trkpt>
      <trkpt lat="44.4883" lon="1.84012">
        <ele>146.26</ele>
        <time>2018-05-01T12:58:47Z</time>
      </trkpt>
      <trkpt lat="44.48826" lon="1.84034">
        <ele>138.09</ele>
        <time>2018-05-01T12:59:05Z</time>
      </trkpt>
      <trkpt lat="44.48815" lon="1.84065">
        <ele>136.64</ele>
        <time>2018-05-01T12:59:25Z</time>
      </trkpt>
      <trkpt lat="44.48799" lon="1.84096">
        <ele>139.53</ele>
        <time>2018-05-01T12:59:46Z</time>
      </trkpt>
      <trkpt lat="44.48773" lon="1.84112">
        <ele>141.45</ele>
        <time>2018-05-01T13:00:09Z</time>
      </trkpt>
      <trkpt lat="44.48763" lon="1.84119">
        <ele>143.37</ele>
        <time>2018-05-01T13:00:16Z</time>
      </trkpt>
      <trkpt lat="44.48761" lon="1.8412">
        <ele>143.37</ele>
        <time>2018-05-01T13:00:17Z</time>
      </trkpt>
      <trkpt lat="44.4876" lon="1.84122">
        <ele>143.85</ele>
        <time>2018-05-01T13:00:18Z</time>
      </trkpt>
      <trkpt lat="44.48759" lon="1.84124">
        <ele>145.3</ele>
        <time>2018-05-01T13:00:19Z</time>
      </trkpt>
      <trkpt lat="44.48757" lon="1.84125">
        <ele>146.26</ele>
        <time>2018-05-01T13:00:21Z</time>
      </trkpt>
      <trkpt lat="44.48746" lon="1.84127">
        <ele>138.57</ele>
        <time>2018-05-01T13:00:37Z</time>
      </trkpt>
      <trkpt lat="44.48723" lon="1.84143">
        <ele>132.32</ele>
        <time>2018-05-01T13:00:58Z</time>
      </trkpt>
      <trkpt lat="44.48704" lon="1.84158">
        <ele>131.84</ele>
        <time>2018-05-01T13:01:17Z</time>
      </trkpt>
      <trkpt lat="44.48683" lon="1.84169">
        <ele>129.92</ele>
        <time>2018-05-01T13:01:38Z</time>
      </trkpt>
      <trkpt lat="44.4867" lon="1.84184">
        <ele>131.36</ele>
        <time>2018-05-01T13:01:57Z</time>
      </trkpt>
      <trkpt lat="44.48671" lon="1.84175">
        <ele>130.88</ele>
        <time>2018-05-01T13:02:09Z</time>
      </trkpt>
      <trkpt lat="44.48671" lon="1.84159">
        <ele>127.03</ele>
        <time>2018-05-01T13:02:29Z</time>
      </trkpt>
      <trkpt lat="44.48658" lon="1.84159">
        <ele>122.22</ele>
        <time>2018-05-01T13:02:44Z</time>
      </trkpt>
      <trkpt lat="44.48674" lon="1.84164">
        <ele>119.34</ele>
        <time>2018-05-01T13:06:24Z</time>
      </trkpt>
      <trkpt lat="44.48669" lon="1.8415">
        <ele>143.85</ele>
        <time>2018-05-01T13:06:58Z</time>
      </trkpt>
      <trkpt lat="44.48664" lon="1.84148">
        <ele>139.53</ele>
        <time>2018-05-01T13:07:30Z</time>
      </trkpt>
      <trkpt lat="44.48664" lon="1.84155">
        <ele>144.34</ele>
        <time>2018-05-01T13:08:03Z</time>
      </trkpt>
      <trkpt lat="44.48662" lon="1.8415">
        <ele>145.3</ele>
        <time>2018-05-01T13:08:37Z</time>
      </trkpt>
      <trkpt lat="44.48666" lon="1.84156">
        <ele>154.43</ele>
        <time>2018-05-01T13:09:19Z</time>
      </trkpt>
    </trkseg>
  </trk>
</gpx>